ftp/pub/palmer/observations_modified/2019/May/original_files/AR190516_BASE.txt

Download

Sample DateTime	Unit Id	WS Avg 2min	WD Avg 2min	WGS 10min	WGD 10min	Air Temp	Rel Humidity	Dew Point	Pyranometer	Quantum	Air Pressure	Snow Level	Rainfall	PW Current	Visibility	CBase 1	CBase 2	CBase 3	Vert Vis
2019/05/16 00:00:01	BASE	4.81	150	8.49	152	-5.3	79	-8.3	0	0	989.1	NA	0.0000		9999	2030	0	0	0
2019/05/16 00:01:00	BASE	5.01	155	7.25	130	-5.3	79	-8.4	0	0	989.1	NA	0.0000		9999	2030	0	0	0
2019/05/16 00:02:01	BASE	5.55	149	7.25	130	-5.3	79	-8.3	0	0	989.0	NA	0.0000		9999	2030	0	0	0
2019/05/16 00:03:00	BASE	6.32	154	8.54	171	-5.3	79	-8.3	0	0	988.9	NA	0.0000		9999	2070	0	0	0
2019/05/16 00:04:01	BASE	7.64	164	9.52	167	-5.3	80	-8.3	0	0	988.9	NA	0.0000		9999	2100	0	0	0
2019/05/16 00:05:01	BASE	8.51	167	9.52	167	-5.3	80	-8.3	0	0	988.8	NA	0.0000		9999	2070	0	0	0
2019/05/16 00:06:00	BASE	8.76	167	9.77	172	-5.3	80	-8.2	0	0	988.7	NA	0.0000		9999	2070	0	0	0
2019/05/16 00:07:00	BASE	8.96	166	10.03	166	-5.4	80	-8.3	0	0	988.7	NA	0.0000		9999	0	0	0	0
2019/05/16 00:08:01	BASE	9.06	165	10.19	161	-5.4	80	-8.3	0	0	988.6	NA	0.0000		9999	0	0	0	0
2019/05/16 00:09:00	BASE	9.49	165	10.34	169	-5.4	80	-8.3	0	0	988.5	NA	0.0000		9999	0	0	0	0
2019/05/16 00:10:00	BASE	10.38	165	12.04	161	-5.4	80	-8.3	0	0	988.5	NA	0.0000		9999	0	0	0	0
2019/05/16 00:11:00	BASE	10.98	163	12.04	163	-5.4	80	-8.3	0	0	988.4	NA	0.0000		9999	0	0	0	0
2019/05/16 00:12:01	BASE	10.90	164	12.30	167	-5.4	80	-8.3	0	0	988.3	NA	0.0000		9999	0	0	0	0
2019/05/16 00:13:00	BASE	10.24	161	12.30	167	-5.4	80	-8.3	0	0	988.3	NA	0.0000		9999	0	0	0	0
2019/05/16 00:14:01	BASE	9.44	158	12.30	167	-5.4	80	-8.3	0	0	988.3	NA	0.0000		9999	0	0	0	0
2019/05/16 00:15:00	BASE	8.56	158	12.30	167	-5.4	80	-8.3	0	0	988.4	NA	0.0000		9999	0	0	0	0
2019/05/16 00:16:01	BASE	8.31	160	12.30	167	-5.4	80	-8.3	0	0	988.5	NA	0.0000		9999	0	0	0	0
2019/05/16 00:17:00	BASE	8.16	157	12.30	167	-5.4	80	-8.2	0	0	988.6	NA	0.0000		9999	0	0	0	0
2019/05/16 00:18:01	BASE	7.46	151	12.30	167	-5.3	80	-8.2	0	0	988.7	NA	0.0000		9999	0	0	0	0
2019/05/16 00:19:00	BASE	7.16	153	12.30	167	-5.3	81	-8.1	0	0	988.7	NA	0.0000		9999	0	0	0	0
2019/05/16 00:20:00	BASE	6.69	156	12.30	167	-5.3	81	-8.1	0	0	988.7	NA	0.0000		9999	0	0	0	0
2019/05/16 00:21:00	BASE	6.81	163	12.30	167	-5.3	81	-8.1	0	0	988.7	NA	0.0000		9999	0	0	0	0
2019/05/16 00:22:01	BASE	7.01	163	11.16	164	-5.3	81	-8.1	0	0	988.7	NA	0.0000		9999	0	0	0	0
2019/05/16 00:23:00	BASE	6.33	156	10.96	162	-5.3	81	-8.1	0	0	988.8	NA	0.0000		9999	0	0	0	0
2019/05/16 00:24:00	BASE	6.53	148	10.13	159	-5.3	81	-8.1	0	0	988.8	NA	0.0000		9999	0	0	0	0
2019/05/16 00:25:00	BASE	7.17	124	10.13	159	-5.4	80	-8.2	0	0	988.9	NA	0.0000		9999	2070	0	0	0
2019/05/16 00:26:00	BASE	6.35	85	9.21	160	-5.5	80	-8.4	0	0	988.9	NA	0.0000		9999	2100	0	0	0
2019/05/16 00:27:00	BASE	5.01	68	9.21	160	-5.7	81	-8.5	0	0	989.0	NA	0.0000		9999	2100	0	0	0
2019/05/16 00:28:00	BASE	4.77	65	9.21	160	-5.8	81	-8.6	0	0	989.0	NA	0.0000		9999	2100	0	0	0
2019/05/16 00:29:00	BASE	5.47	66	9.21	160	-6.0	81	-8.8	0	0	989.0	NA	0.0000		9999	2070	0	0	0
2019/05/16 00:30:00	BASE	5.96	77	9.21	160	-6.1	81	-8.8	0	0	989.0	NA	0.0000		9999	0	0	0	0
2019/05/16 00:31:01	BASE	5.86	82	8.64	120	-6.1	81	-8.8	0	0	989.0	NA	0.0000		9999	2000	0	0	0
2019/05/16 00:32:01	BASE	5.47	86	8.64	120	-6.1	81	-8.9	0	0	989.0	NA	0.0000		9999	0	0	0	0
2019/05/16 00:33:00	BASE	5.10	86	8.64	120	-6.1	81	-8.9	0	0	989.1	NA	0.0000		9999	0	0	0	0
2019/05/16 00:34:01	BASE	5.05	80	8.33	115	-6.2	81	-8.9	0	0	989.1	NA	0.0000		9999	0	0	0	0
2019/05/16 00:35:00	BASE	5.11	73	7.00	65	-6.2	81	-8.9	0	0	989.1	NA	0.0000		9999	0	0	0	0
2019/05/16 00:36:00	BASE	4.86	70	6.48	75	-6.3	81	-8.9	0	0	989.1	NA	0.0000		9999	0	0	0	0
2019/05/16 00:37:00	BASE	4.38	72	6.48	75	-6.3	82	-8.9	0	0	989.1	NA	0.0000		9999	0	0	0	0
2019/05/16 00:38:00	BASE	4.17	76	6.48	75	-6.3	82	-8.9	0	0	989.1	NA	0.0000		9999	0	0	0	0
2019/05/16 00:39:00	BASE	4.10	84	6.38	79	-6.3	82	-8.9	0	0	989.1	NA	0.0000		9999	0	0	0	0
2019/05/16 00:40:00	BASE	4.12	86	6.22	93	-6.4	82	-9.0	0	0	989.1	NA	0.0000		9999	0	0	0	0
2019/05/16 00:41:00	BASE	4.16	80	6.22	93	-6.4	82	-9.0	0	0	989.1	NA	0.0000		9999	0	0	0	0
2019/05/16 00:42:00	BASE	4.40	75	5.56	63	-6.5	82	-9.0	0	0	989.1	NA	0.0000		9999	0	0	0	0
2019/05/16 00:43:00	BASE	4.50	76	5.56	63	-6.5	82	-9.0	0	0	989.1	NA	0.0000		9999	0	0	0	0
2019/05/16 00:44:00	BASE	4.03	80	5.56	63	-6.5	82	-9.1	0	0	989.1	NA	0.0000		9999	0	0	0	0
2019/05/16 00:45:00	BASE	3.99	81	5.04	69	-6.6	82	-9.1	0	0	989.1	NA	0.0000		9999	0	0	0	0
2019/05/16 00:46:00	BASE	4.22	82	5.04	69	-6.6	82	-9.1	0	0	989.1	NA	0.0000		9999	0	0	0	0
2019/05/16 00:47:00	BASE	4.30	85	5.04	69	-6.7	82	-9.2	0	0	989.1	NA	0.0000		9999	0	0	0	0
2019/05/16 00:48:01	BASE	4.58	85	5.04	87	-6.7	82	-9.2	0	0	989.1	NA	0.0000		9999	0	0	0	0
2019/05/16 00:49:00	BASE	4.56	80	5.04	87	-6.8	83	-9.3	0	0	989.2	NA	0.0000		9999	0	0	0	0
2019/05/16 00:50:00	BASE	3.99	73	5.04	87	-6.8	83	-9.2	0	0	989.3	NA	0.0000		9999	0	0	0	0
2019/05/16 00:51:00	BASE	3.70	65	5.04	87	-6.8	83	-9.1	0	0	989.4	NA	0.0000		9999	0	0	0	0
2019/05/16 00:52:01	BASE	3.85	60	5.04	87	-6.7	83	-9.0	0	0	989.4	NA	0.0000		9999	0	0	0	0
2019/05/16 00:53:00	BASE	4.17	60	5.04	87	-6.7	83	-9.0	0	0	989.4	NA	0.0000		9999	0	0	0	0
2019/05/16 00:54:00	BASE	4.58	63	5.40	67	-6.6	84	-8.9	0	0	989.4	NA	0.0000		9999	0	0	0	0
2019/05/16 00:55:01	BASE	4.74	67	5.40	67	-6.6	84	-8.9	0	0	989.4	NA	0.0000		9999	0	0	0	0
2019/05/16 00:56:00	BASE	4.19	67	5.40	67	-6.5	84	-8.9	0	0	989.4	NA	0.0000		9999	0	0	0	0
2019/05/16 00:57:00	BASE	3.66	72	5.40	67	-6.5	84	-8.8	0	0	989.4	NA	0.0000		9999	0	0	0	0
2019/05/16 00:58:00	BASE	3.65	79	5.40	67	-6.5	84	-8.8	0	0	989.4	NA	0.0000		9999	0	0	0	0
2019/05/16 00:59:00	BASE	3.68	83	5.40	67	-6.6	84	-8.9	0	0	989.3	NA	0.0000		9999	0	0	0	0
2019/05/16 01:00:00	BASE	3.93	90	5.40	67	-6.7	83	-9.0	0	0	989.2	NA	0.0000		9999	0	0	0	0
2019/05/16 01:01:01	BASE	4.43	97	5.40	67	-6.8	83	-9.2	0	0	989.2	NA	0.0000		9999	0	0	0	0
2019/05/16 01:02:00	BASE	4.77	101	5.40	67	-6.9	83	-9.3	0	0	989.2	NA	0.0000		9999	0	0	0	0
2019/05/16 01:03:00	BASE	5.09	101	5.71	103	-7.0	83	-9.3	0	0	989.1	NA	0.0000		9999	0	0	0	0
2019/05/16 01:04:00	BASE	5.41	99	5.71	103	-7.0	84	-9.3	0	0	989.2	NA	0.0000		9999	0	0	0	0
2019/05/16 01:05:00	BASE	5.51	94	5.71	91	-7.0	84	-9.3	0	0	989.2	NA	0.0000		9999	0	0	0	0
2019/05/16 01:06:01	BASE	5.57	90	5.81	87	-7.0	84	-9.3	0	0	989.2	NA	0.0000		9999	0	0	0	0
2019/05/16 01:07:00	BASE	5.40	86	5.81	87	-7.0	84	-9.3	0	0	989.3	NA	0.0000		9999	0	0	0	0
2019/05/16 01:08:00	BASE	4.95	82	5.81	87	-7.0	84	-9.3	0	0	989.4	NA	0.0000		9999	0	0	0	0
2019/05/16 01:09:00	BASE	4.69	75	5.81	87	-7.0	84	-9.2	0	0	989.4	NA	0.0000		9999	0	0	0	0
2019/05/16 01:10:00	BASE	4.68	73	5.81	87	-6.9	84	-9.1	0	0	989.5	NA	0.0000		9999	0	0	0	0
2019/05/16 01:11:00	BASE	4.85	73	5.81	87	-6.7	84	-9.0	0	0	989.5	NA	0.0000		9999	0	0	0	0
2019/05/16 01:12:00	BASE	5.27	72	5.81	69	-6.6	84	-8.8	0	0	989.5	NA	0.0000		9999	0	0	0	0
2019/05/16 01:13:00	BASE	5.46	74	5.81	75	-6.5	84	-8.8	0	0	989.4	NA	0.0000		9999	0	0	0	0
2019/05/16 01:14:00	BASE	5.17	77	5.81	75	-6.5	84	-8.7	0	0	989.4	NA	0.0000		9999	0	0	0	0
2019/05/16 01:15:00	BASE	4.98	83	5.81	75	-6.5	84	-8.7	0	0	989.4	NA	0.0000		9999	0	0	0	0
2019/05/16 01:16:00	BASE	4.81	88	5.81	75	-6.5	84	-8.8	0	0	989.4	NA	0.0000		9999	0	0	0	0
2019/05/16 01:17:00	BASE	4.69	87	5.81	75	-6.6	84	-8.8	0	0	989.4	NA	0.0000		9999	0	0	0	0
2019/05/16 01:18:00	BASE	4.55	82	5.81	75	-6.6	84	-8.9	0	0	989.5	NA	0.0000		9999	0	0	0	0
2019/05/16 01:19:00	BASE	4.49	78	5.81	75	-6.6	84	-8.9	0	0	989.5	NA	0.0000		9999	0	0	0	0
2019/05/16 01:20:00	BASE	4.52	79	5.81	75	-6.6	84	-8.8	0	0	989.4	NA	0.0000		9999	0	0	0	0
2019/05/16 01:21:01	BASE	4.93	81	5.81	75	-6.6	84	-8.8	0	0	989.3	NA	0.0000		9999	0	0	0	0
2019/05/16 01:22:00	BASE	5.40	80	5.81	75	-6.5	84	-8.8	0	0	989.2	NA	0.0000		9999	0	0	0	0
2019/05/16 01:23:00	BASE	5.11	80	5.76	81	-6.5	84	-8.8	0	0	989.2	NA	0.0000		9999	0	0	0	0
2019/05/16 01:24:00	BASE	4.78	85	5.76	81	-6.6	84	-8.8	0	0	989.2	NA	0.0000		9999	0	0	0	0
2019/05/16 01:25:00	BASE	4.76	87	5.76	81	-6.6	84	-8.9	0	0	989.2	NA	0.0000		9999	0	0	0	0
2019/05/16 01:26:00	BASE	5.04	84	5.76	81	-6.7	84	-8.9	0	0	989.2	NA	0.0000		9999	0	0	0	0
2019/05/16 01:27:00	BASE	5.14	84	5.76	81	-6.7	84	-9.0	0	0	989.2	NA	0.0000		9999	0	0	0	0
2019/05/16 01:28:00	BASE	4.90	87	5.76	81	-6.8	84	-9.0	0	0	989.2	NA	0.0000		9999	0	0	0	0
2019/05/16 01:29:00	BASE	4.76	88	5.76	81	-6.8	84	-9.1	0	0	989.2	NA	0.0000		9999	0	0	0	0
2019/05/16 01:30:00	BASE	4.64	85	5.76	81	-6.8	84	-9.1	0	0	989.2	NA	0.0000		9999	0	0	0	0
2019/05/16 01:31:00	BASE	4.61	85	5.61	78	-6.8	84	-9.0	0	0	989.2	NA	0.0000		9999	0	0	0	0
2019/05/16 01:32:00	BASE	4.74	85	5.45	83	-6.8	84	-9.0	0	0	989.2	NA	0.0000		9999	0	0	0	0
2019/05/16 01:33:00	BASE	4.80	85	5.45	83	-6.8	85	-9.0	0	0	989.2	NA	0.0000		9999	0	0	0	0
2019/05/16 01:34:00	BASE	4.82	82	5.45	83	-6.8	85	-8.9	0	0	989.2	NA	0.0000		9999	0	0	0	0
2019/05/16 01:35:00	BASE	4.78	77	5.45	83	-6.7	85	-8.8	0	0	989.3	NA	0.0000		9999	0	0	0	0
2019/05/16 01:36:00	BASE	4.91	73	5.45	83	-6.7	85	-8.8	0	0	989.4	NA	0.0000		9999	0	0	0	0
2019/05/16 01:37:00	BASE	5.15	70	5.56	71	-6.6	85	-8.7	0	0	989.4	NA	0.0000		9999	0	0	0	0
2019/05/16 01:38:00	BASE	4.96	70	5.56	71	-6.5	85	-8.6	0	0	989.5	NA	0.0000		9999	0	0	0	0
2019/05/16 01:39:00	BASE	4.70	70	5.56	71	-6.5	85	-8.6	0	0	989.5	NA	0.0000		9999	0	0	0	0
2019/05/16 01:40:00	BASE	4.57	70	5.56	71	-6.4	85	-8.5	0	0	989.5	NA	0.0000		9999	0	0	0	0
2019/05/16 01:41:00	BASE	4.53	71	5.56	71	-6.4	85	-8.5	0	0	989.5	NA	0.0000		9999	0	0	0	0
2019/05/16 01:42:00	BASE	4.61	74	5.56	71	-6.3	85	-8.5	0	0	989.4	NA	0.0000		9999	0	0	0	0
2019/05/16 01:43:00	BASE	4.55	76	5.56	71	-6.3	84	-8.5	0	0	989.4	NA	0.0000		9999	0	0	0	0
2019/05/16 01:44:00	BASE	4.64	75	5.56	71	-6.2	84	-8.5	0	0	989.4	NA	0.0000		9999	0	0	0	0
2019/05/16 01:45:00	BASE	4.52	74	5.56	71	-6.2	84	-8.5	0	0	989.5	NA	0.0000		9999	0	0	0	0
2019/05/16 01:46:00	BASE	4.89	73	6.17	67	-6.3	84	-8.5	0	0	989.4	NA	0.0000		9999	0	0	0	0
2019/05/16 01:47:00	BASE	5.28	71	6.17	67	-6.3	84	-8.6	0	0	989.4	NA	0.0000		9999	0	0	0	0
2019/05/16 01:48:00	BASE	4.84	69	6.17	67	-6.3	84	-8.5	0	0	989.4	NA	0.0000		9999	0	0	0	0
2019/05/16 01:49:00	BASE	4.29	73	6.17	67	-6.3	84	-8.5	0	0	989.4	NA	0.0000		9999	0	0	0	0
2019/05/16 01:50:00	BASE	4.13	80	6.17	67	-6.3	84	-8.6	0	0	989.3	NA	0.0000		9999	0	0	0	0
2019/05/16 01:51:00	BASE	4.09	84	6.17	67	-6.3	84	-8.6	0	0	989.2	NA	0.0000		9999	0	0	0	0
2019/05/16 01:52:00	BASE	3.81	87	6.17	67	-6.3	83	-8.7	0	0	989.3	NA	0.0000		9999	0	0	0	0
2019/05/16 01:53:00	BASE	3.70	90	6.17	67	-6.5	83	-8.8	0	0	989.4	NA	0.0000		9999	0	0	0	0
2019/05/16 01:54:00	BASE	3.38	87	6.17	67	-6.5	83	-8.9	0	0	989.4	NA	0.0000		9999	0	0	0	0
2019/05/16 01:55:00	BASE	3.31	85	6.17	67	-6.5	84	-8.9	0	0	989.4	NA	0.0000		9999	0	0	0	0
2019/05/16 01:56:00	BASE	3.59	89	5.35	71	-6.5	84	-8.8	0	0	989.3	NA	0.0000		9999	0	0	0	0
2019/05/16 01:57:00	BASE	3.70	93	5.30	68	-6.5	84	-8.8	0	0	989.2	NA	0.0000		9999	0	0	0	0
2019/05/16 01:58:00	BASE	3.67	93	4.78	82	-6.5	84	-8.8	0	0	989.2	NA	0.0000		9999	0	0	0	0
2019/05/16 01:59:00	BASE	4.10	94	4.99	95	-6.6	84	-8.8	0	0	989.2	NA	0.0000		9999	0	0	0	0
2019/05/16 02:00:00	BASE	4.80	98	5.40	97	-6.7	84	-8.9	0	0	989.1	NA	0.0000		9999	0	0	0	0
2019/05/16 02:01:00	BASE	5.02	101	5.40	97	-6.7	84	-9.0	0	0	989.1	NA	0.0000		9999	0	0	0	0
2019/05/16 02:02:00	BASE	5.19	102	5.86	104	-6.8	84	-9.0	0	0	989.1	NA	0.0000		9999	0	0	0	0
2019/05/16 02:03:00	BASE	5.46	105	6.17	120	-6.8	84	-9.1	0	0	989.1	NA	0.0000		9999	0	0	0	0
2019/05/16 02:04:00	BASE	5.22	110	6.17	120	-6.8	84	-9.1	0	0	989.0	NA	0.0000		9999	0	0	0	0
2019/05/16 02:05:00	BASE	4.82	116	6.17	120	-6.8	84	-9.1	0	0	989.0	NA	0.0000		9999	0	0	0	0
2019/05/16 02:06:00	BASE	5.00	119	6.17	120	-6.8	84	-9.1	0	0	989.0	NA	0.0000		9999	0	0	0	0
2019/05/16 02:07:00	BASE	5.40	120	6.17	120	-6.8	84	-9.0	0	0	988.9	NA	0.0000		9999	0	0	0	0
2019/05/16 02:08:00	BASE	5.69	121	6.43	125	-6.7	84	-9.0	0	0	988.9	NA	0.0000		9999	0	0	0	0
2019/05/16 02:09:00	BASE	5.84	121	6.43	125	-6.7	84	-8.9	0	0	988.9	NA	0.0000		9999	0	0	0	0
2019/05/16 02:10:00	BASE	5.84	120	6.43	125	-6.7	84	-8.8	0	0	988.9	NA	0.0000		9999	0	0	0	0
2019/05/16 02:11:00	BASE	5.89	115	6.48	115	-6.6	85	-8.8	0	0	988.9	NA	0.0000		9999	0	0	0	0
2019/05/16 02:12:00	BASE	5.99	112	6.48	115	-6.6	85	-8.8	0	0	988.9	NA	0.0000		9999	0	0	0	0
2019/05/16 02:13:00	BASE	5.93	112	6.48	115	-6.6	85	-8.8	0	0	988.8	NA	0.0000		9999	0	0	0	0
2019/05/16 02:14:00	BASE	5.71	109	6.48	115	-6.7	85	-8.8	0	0	988.8	NA	0.0000		9999	0	0	0	0
2019/05/16 02:15:00	BASE	5.34	106	6.48	115	-6.7	85	-8.8	0	0	988.9	NA	0.0000		9999	0	0	0	0
2019/05/16 02:16:00	BASE	4.73	101	6.48	115	-6.7	85	-8.9	0	0	988.9	NA	0.0000		9999	0	0	0	0
2019/05/16 02:17:00	BASE	4.25	89	6.48	115	-6.8	85	-8.9	0	0	989.0	NA	0.0000		9999	0	0	0	0
2019/05/16 02:18:00	BASE	4.25	80	6.48	115	-6.8	85	-8.9	0	0	989.0	NA	0.0000		9999	0	0	0	0
2019/05/16 02:19:00	BASE	4.68	74	6.48	115	-6.7	85	-8.8	0	0	989.0	NA	0.0000		9999	0	0	0	0
2019/05/16 02:20:00	BASE	4.92	73	6.48	115	-6.7	85	-8.8	0	0	989.0	NA	0.0000		9999	0	0	0	0
2019/05/16 02:21:00	BASE	4.86	75	6.22	109	-6.7	85	-8.8	0	0	989.0	NA	0.0000		9999	10500	0	0	0
2019/05/16 02:22:00	BASE	4.75	77	6.12	113	-6.7	85	-8.8	0	0	989.1	NA	0.0000		9999	0	0	0	0
2019/05/16 02:23:00	BASE	4.45	78	5.97	105	-6.7	85	-8.8	0	0	989.1	NA	0.0000		9999	19950	0	0	0
2019/05/16 02:24:00	BASE	3.93	74	5.40	110	-6.7	85	-8.8	0	0	989.1	NA	0.0000		9999	0	0	0	0
2019/05/16 02:25:00	BASE	3.51	72	5.20	72	-6.7	85	-8.8	0	0	989.1	NA	0.0000		9999	19980	0	0	0
2019/05/16 02:26:00	BASE	3.62	77	5.20	72	-6.7	85	-8.8	0	0	989.0	NA	0.0000		9999	0	0	0	0
2019/05/16 02:27:00	BASE	4.12	79	5.20	72	-6.7	85	-8.8	0	0	989.0	NA	0.0000		9999	11220	0	0	0
2019/05/16 02:28:00	BASE	4.42	78	5.20	72	-6.7	85	-8.8	0	0	989.0	NA	0.0000		9999	11980	13680	0	0
2019/05/16 02:29:00	BASE	4.30	71	5.20	72	-6.7	85	-8.8	0	0	989.1	NA	0.0000		9999	11880	13680	0	0
2019/05/16 02:30:00	BASE	3.89	54	5.14	77	-6.7	85	-8.7	0	0	989.1	NA	0.0000		9999	11840	13780	0	0
2019/05/16 02:31:00	BASE	3.42	46	4.89	79	-6.6	86	-8.6	0	0	989.1	NA	0.0000		9999	11160	0	0	0
2019/05/16 02:32:00	BASE	3.09	52	4.68	75	-6.5	86	-8.5	0	0	989.1	NA	0.0000		9999	10930	0	0	0
2019/05/16 02:33:00	BASE	3.03	60	4.68	75	-6.4	86	-8.3	0	0	989.1	NA	0.0000		9999	10630	11220	12010	0
2019/05/16 02:34:00	BASE	3.03	61	4.68	75	-6.3	86	-8.2	0	0	989.1	NA	0.0000		9999	9580	0	0	0
2019/05/16 02:35:00	BASE	2.83	58	4.68	75	-6.2	86	-8.1	0	0	989.1	NA	0.0000		9999	9940	0	0	0
2019/05/16 02:36:00	BASE	2.65	61	4.68	75	-6.1	86	-8.0	0	0	989.1	NA	0.0000		9999	11780	0	0	0
2019/05/16 02:37:00	BASE	2.83	69	4.68	75	-6.0	86	-8.0	0	0	989.1	NA	0.0000		9999	11910	0	0	0
2019/05/16 02:38:00	BASE	3.02	70	4.48	76	-5.9	86	-7.9	0	0	989.1	NA	0.0000		9999	10270	0	0	0
2019/05/16 02:39:00	BASE	3.05	68	3.91	49	-5.9	86	-7.9	0	0	989.2	NA	0.0000		9999	10600	0	0	0
2019/05/16 02:40:00	BASE	2.93	68	3.45	61	-5.9	85	-7.9	0	0	989.1	NA	0.0000		9999	10170	0	0	0
2019/05/16 02:41:00	BASE	2.81	74	3.45	61	-5.9	85	-8.0	0	0	989.1	NA	0.0000		9999	10200	11220	13520	0
2019/05/16 02:42:00	BASE	2.69	78	3.34	74	-5.9	85	-8.0	0	0	989.1	NA	0.0000		9999	10400	0	0	0
2019/05/16 02:43:00	BASE	2.59	83	3.34	74	-6.0	85	-8.1	0	0	989.1	NA	0.0000		9999	11020	0	0	0
2019/05/16 02:44:00	BASE	2.64	85	3.34	74	-6.1	85	-8.2	0	0	989.0	NA	0.0000		9999	11350	0	0	0
2019/05/16 02:45:00	BASE	2.81	83	3.60	86	-6.2	85	-8.3	0	0	989.0	NA	0.0000		9999	12800	0	0	0
2019/05/16 02:46:00	BASE	3.40	86	4.32	94	-6.3	85	-8.4	0	0	989.0	NA	0.0000		9999	12800	0	0	0
2019/05/16 02:47:00	BASE	4.00	90	4.32	93	-6.4	85	-8.5	0	0	989.0	NA	0.0000		9999	12760	0	0	0
2019/05/16 02:48:00	BASE	4.18	92	4.42	90	-6.4	86	-8.5	0	0	989.0	NA	0.0000		9999	12730	0	0	0
2019/05/16 02:49:00	BASE	4.29	89	4.58	90	-6.5	86	-8.4	0	0	989.0	NA	0.0000		9999	12700	0	0	0
2019/05/16 02:50:00	BASE	4.29	87	4.68	94	-6.5	86	-8.5	0	0	989.0	NA	0.0000		9999	11220	12700	0	0
2019/05/16 02:51:00	BASE	4.15	84	4.68	94	-6.5	86	-8.4	0	0	989.0	NA	0.0000		9999	11250	0	0	0
2019/05/16 02:52:00	BASE	3.80	90	4.68	94	-6.4	86	-8.4	0	0	989.0	NA	0.0000		9999	11350	0	0	0
2019/05/16 02:53:00	BASE	3.46	100	4.68	94	-6.3	86	-8.3	0	0	988.9	NA	0.0000		9999	11390	0	0	0
2019/05/16 02:54:00	BASE	3.75	107	4.73	115	-6.3	86	-8.2	0	0	988.9	NA	0.0000		9999	0	0	0	0
2019/05/16 02:55:00	BASE	4.47	112	5.14	117	-6.3	86	-8.2	0	0	988.9	NA	0.0000		9999	12400	0	0	0
2019/05/16 02:56:00	BASE	4.96	113	5.56	114	-6.2	86	-8.2	0	0	988.8	NA	0.0000		9999	12170	0	0	0
2019/05/16 02:57:00	BASE	5.11	117	5.61	125	-6.2	86	-8.1	0	0	988.7	NA	0.0000		9999	0	0	0	0
2019/05/16 02:58:00	BASE	5.62	123	6.58	128	-6.2	86	-8.1	0	0	988.7	NA	0.0000		9999	11840	0	0	0
2019/05/16 02:59:00	BASE	6.24	125	6.84	125	-6.1	86	-8.0	0	0	988.7	NA	0.0000		9999	11910	0	0	0
2019/05/16 03:00:00	BASE	6.60	126	7.46	128	-6.0	86	-7.9	0	0	988.7	NA	0.0000		9999	11940	0	0	0
2019/05/16 03:01:00	BASE	7.11	125	7.67	127	-5.9	86	-7.8	0	0	988.7	NA	0.0000		9999	0	0	0	0
2019/05/16 03:02:00	BASE	7.43	125	7.97	129	-5.9	86	-7.8	0	0	988.7	NA	0.0000		9999	0	0	0	0
2019/05/16 03:03:00	BASE	7.65	127	7.97	128	-5.8	86	-7.8	0	0	988.6	NA	0.0000		9999	0	0	0	0
2019/05/16 03:04:00	BASE	7.67	126	7.97	128	-5.8	86	-7.8	0	0	988.5	NA	0.0000		9999	0	0	0	0
2019/05/16 03:05:00	BASE	7.46	125	7.97	128	-5.8	86	-7.8	0	0	988.5	NA	0.0000		9999	0	0	0	0
2019/05/16 03:06:00	BASE	7.24	124	7.97	128	-5.8	86	-7.8	0	0	988.5	NA	0.0000		9999	0	0	0	0
2019/05/16 03:07:00	BASE	6.87	119	7.97	128	-5.8	86	-7.8	0	0	988.5	NA	0.0000		9999	12240	0	0	0
2019/05/16 03:08:00	BASE	6.35	117	7.97	128	-5.9	86	-7.8	0	0	988.6	NA	0.0000		9999	11980	0	0	0
2019/05/16 03:09:00	BASE	5.71	115	7.97	128	-5.9	86	-7.8	0	0	988.7	NA	0.0000		9999	11910	0	0	0
2019/05/16 03:10:00	BASE	5.30	107	7.97	128	-5.9	86	-7.8	0	0	988.7	NA	0.0000		9999	12010	0	0	0
2019/05/16 03:11:00	BASE	5.69	103	7.97	128	-5.9	86	-7.9	0	0	988.7	NA	0.0000		9999	0	0	0	0
2019/05/16 03:12:00	BASE	6.09	103	7.97	128	-6.0	86	-8.0	0	0	988.7	NA	0.0000		9999	11680	0	0	0
2019/05/16 03:13:00	BASE	6.17	106	7.82	126	-6.0	86	-8.0	0	0	988.7	NA	0.0000		9999	11450	0	0	0
2019/05/16 03:14:00	BASE	6.21	106	7.77	125	-6.1	86	-8.1	0	0	988.7	NA	0.0000		9999	10960	0	0	0
2019/05/16 03:15:00	BASE	6.26	105	7.41	126	-6.1	86	-8.1	0	0	988.7	NA	0.0000		9999	10830	0	0	0
2019/05/16 03:16:00	BASE	6.60	108	7.31	113	-6.2	86	-8.1	0	0	988.6	NA	0.0000		9999	10660	0	0	0
2019/05/16 03:17:00	BASE	6.76	111	7.61	110	-6.1	86	-8.1	0	0	988.5	NA	0.0000		9999	10530	0	0	0
2019/05/16 03:18:00	BASE	7.13	114	7.82	111	-6.1	86	-8.1	0	0	988.5	NA	0.0000		9999	10600	0	0	0
2019/05/16 03:19:00	BASE	7.87	118	9.05	120	-6.2	86	-8.1	0	0	988.5	NA	0.0000		9999	11090	0	0	0
2019/05/16 03:20:00	BASE	8.32	120	9.47	118	-6.1	86	-8.0	0	0	988.5	NA	0.0000		9999	10240	0	0	0
2019/05/16 03:21:00	BASE	8.37	118	9.62	118	-6.0	87	-7.9	0	0	988.5	NA	0.0000		9999	9350	11160	0	0
2019/05/16 03:22:00	BASE	7.80	116	9.62	118	-5.9	87	-7.8	0	0	988.5	NA	0.0000		9999	11190	0	0	0
2019/05/16 03:23:00	BASE	7.13	115	9.62	118	-5.8	87	-7.7	0	0	988.5	NA	0.0000		9999	9290	0	0	0
2019/05/16 03:24:00	BASE	6.71	113	9.62	118	-5.8	86	-7.7	0	0	988.7	NA	0.0000		9999	9150	0	0	0
2019/05/16 03:25:00	BASE	6.78	113	9.62	118	-5.8	86	-7.7	0	0	988.7	NA	0.0000		9999	9120	0	0	0
2019/05/16 03:26:00	BASE	7.01	113	9.62	118	-5.8	86	-7.8	0	0	988.7	NA	0.0000		9999	9120	9940	0	0
2019/05/16 03:27:00	BASE	7.06	112	9.62	118	-5.9	86	-7.9	0	0	988.7	NA	0.0000		9999	9120	0	0	0
2019/05/16 03:28:00	BASE	6.87	113	9.62	118	-6.0	86	-7.9	0	0	988.6	NA	0.0000		9999	9120	0	0	0
2019/05/16 03:29:00	BASE	6.42	113	9.62	118	-6.0	86	-7.9	0	0	988.7	NA	0.0000		9999	9020	0	0	0
2019/05/16 03:30:00	BASE	6.20	112	9.62	118	-6.0	86	-7.9	0	0	988.7	NA	0.0000		9999	9090	11710	0	0
2019/05/16 03:31:00	BASE	6.08	111	8.18	120	-6.0	87	-7.9	0	0	988.7	NA	0.0000		9999	11580	0	0	0
2019/05/16 03:32:00	BASE	5.81	111	7.92	111	-6.0	87	-7.8	0	0	988.7	NA	0.0000		9999	11520	0	0	0
2019/05/16 03:33:00	BASE	5.44	110	7.92	111	-5.9	87	-7.7	0	0	988.7	NA	0.0000		9999	11480	0	0	0
2019/05/16 03:34:00	BASE	5.04	107	7.92	111	-5.9	87	-7.7	0	0	988.7	NA	0.0000		9999	11420	0	0	0
2019/05/16 03:35:00	BASE	4.60	105	7.92	111	-5.9	87	-7.7	0	0	988.7	NA	0.0000		9999	11350	0	0	0
2019/05/16 03:36:00	BASE	4.09	105	7.92	111	-5.9	87	-7.7	0	0	988.7	NA	0.0000		9999	11250	0	0	0
2019/05/16 03:37:00	BASE	3.68	105	7.25	112	-5.9	87	-7.7	0	0	988.7	NA	0.0000		9999	11290	0	0	0
2019/05/16 03:38:00	BASE	3.60	102	6.79	112	-5.9	87	-7.8	0	0	988.6	NA	0.0000		9999	11390	17910	0	0
2019/05/16 03:39:00	BASE	3.71	100	6.69	108	-6.0	87	-7.8	0	0	988.5	NA	0.0000		9999	11290	17720	0	0
2019/05/16 03:40:00	BASE	3.85	105	6.69	108	-6.0	87	-7.9	0	0	988.5	NA	0.0000		9999	11290	17620	0	0
2019/05/16 03:41:00	BASE	4.13	112	6.28	114	-6.0	87	-7.9	0	0	988.5	NA	0.0000		9999	9610	11320	0	0
2019/05/16 03:42:00	BASE	4.78	120	6.02	117	-6.1	87	-7.9	0	0	988.4	NA	0.0000		9999	11350	0	0	0
2019/05/16 03:43:00	BASE	5.52	126	6.48	135	-6.0	87	-7.8	0	0	988.3	NA	0.0000		9999	11190	0	0	0
2019/05/16 03:44:00	BASE	6.47	132	7.77	137	-6.0	87	-7.8	0	0	988.2	NA	0.0000		9999	11250	0	0	0
2019/05/16 03:45:00	BASE	7.47	135	8.23	132	-5.9	87	-7.7	0	0	988.0	NA	0.0000		9999	11120	0	0	0
2019/05/16 03:46:00	BASE	7.86	136	8.54	135	-5.8	87	-7.7	0	0	988.0	NA	0.0000		9999	11020	0	0	0
2019/05/16 03:47:00	BASE	7.95	135	8.85	138	-5.8	87	-7.6	0	0	988.0	NA	0.0000		9999	11090	0	0	0
2019/05/16 03:48:00	BASE	8.18	133	8.85	138	-5.7	87	-7.6	0	0	988.0	NA	0.0000		9999	11220	0	0	0
2019/05/16 03:49:00	BASE	8.47	130	9.52	132	-5.7	87	-7.6	0	0	988.0	NA	0.0000		9999	9680	11120	0	0
2019/05/16 03:50:00	BASE	7.95	129	9.52	132	-5.7	87	-7.6	0	0	988.0	NA	0.0000		9999	9610	11060	0	0
2019/05/16 03:51:00	BASE	6.84	127	9.52	132	-5.7	86	-7.6	0	0	988.2	NA	0.0000		9999	9510	0	0	0
2019/05/16 03:52:00	BASE	6.25	122	9.52	132	-5.7	86	-7.6	0	0	988.2	NA	0.0000		9999	9680	10890	0	0
2019/05/16 03:53:00	BASE	5.78	121	9.52	132	-5.7	86	-7.7	0	0	988.2	NA	0.0000		9999	9550	10960	0	0
2019/05/16 03:54:00	BASE	5.57	123	9.52	132	-5.7	86	-7.6	0	0	988.1	NA	0.0000		9999	9380	0	0	0
2019/05/16 03:55:00	BASE	5.94	124	9.52	132	-5.6	86	-7.6	0	0	988.0	NA	0.0000		9999	9420	10890	0	0
2019/05/16 03:56:00	BASE	6.16	124	9.52	132	-5.6	86	-7.7	0	0	988.0	NA	0.0000		9999	9420	10830	0	0
2019/05/16 03:57:00	BASE	6.05	123	9.52	132	-5.6	85	-7.7	0	0	988.0	NA	0.0000		9999	9380	10700	0	0
2019/05/16 03:58:00	BASE	5.84	122	9.52	132	-5.7	85	-7.7	0	0	987.9	NA	0.0000		9999	9680	10700	0	0
2019/05/16 03:59:00	BASE	5.53	120	8.54	134	-5.7	85	-7.8	0	0	987.9	NA	0.0000		9999	9350	10600	0	0
2019/05/16 04:00:00	BASE	4.95	115	6.94	126	-5.7	85	-7.8	0	0	987.9	NA	0.0000		9999	9190	0	0	0
2019/05/16 04:01:00	BASE	4.15	110	6.53	124	-5.7	85	-7.8	0	0	987.9	NA	0.0000		9999	8990	10370	0	0
2019/05/16 04:02:00	BASE	3.49	108	6.48	128	-5.7	85	-7.8	0	0	987.9	NA	0.0000		9999	8920	0	0	0
2019/05/16 04:03:00	BASE	3.13	109	6.48	128	-5.7	85	-7.8	0	0	987.9	NA	0.0000		9999	8960	0	0	0
2019/05/16 04:04:00	BASE	3.19	116	6.48	128	-5.7	85	-7.8	0	0	987.9	NA	0.0000		9999	8960	0	0	0
2019/05/16 04:05:00	BASE	3.26	120	6.28	126	-5.7	85	-7.8	0	0	987.8	NA	0.0000		9999	8990	0	0	0
2019/05/16 04:06:00	BASE	2.98	120	6.17	123	-5.8	85	-7.9	0	0	987.7	NA	0.0000		9999	8860	9380	0	0
2019/05/16 04:08:00	BASE	3.09	124	5.92	121	-5.8	85	-7.9	0	0	987.6	NA	0.0000		9999	8990	9480	0	0
2019/05/16 04:09:00	BASE	3.42	125	5.35	125	-5.8	85	-7.9	0	0	987.6	NA	0.0000		9999	8990	0	0	0
2019/05/16 04:10:00	BASE	3.41	123	4.78	111	-5.8	85	-7.9	0	0	987.6	NA	0.0000		9999	8730	0	0	0
2019/05/16 04:11:00	BASE	2.98	122	3.70	124	-5.8	85	-8.0	0	0	987.7	NA	0.0000		9999	8830	0	0	0
2019/05/16 04:12:00	BASE	2.21	123	3.70	124	-5.9	85	-7.9	0	0	987.7	NA	0.0000		9999	8860	0	0	0
2019/05/16 04:13:00	BASE	1.74	131	3.70	124	-5.8	85	-7.9	0	0	987.7	NA	0.0000		9999	9020	0	0	0
2019/05/16 04:14:00	BASE	1.67	144	3.70	124	-5.8	86	-7.8	0	0	987.7	NA	0.0000		9999	8890	0	0	0
2019/05/16 04:15:00	BASE	1.46	155	3.70	124	-5.8	86	-7.8	0	0	987.7	NA	0.0000		9999	8920	0	0	0
2019/05/16 04:16:00	BASE	1.01	164	3.70	124	-5.7	86	-7.7	0	0	987.8	NA	0.0000		9999	8920	0	0	0
2019/05/16 04:17:00	BASE	0.39	168	3.70	124	-5.7	86	-7.7	0	0	987.8	NA	0.0000		9999	8890	0	0	0
2019/05/16 04:18:00	BASE	0.05	152	3.70	124	-5.7	86	-7.7	0	0	987.8	NA	0.0000		9999	8830	0	0	0
2019/05/16 04:19:00	BASE	0.59	136	3.55	124	-5.7	86	-7.7	0	0	987.7	NA	0.0000		9999	8830	9350	0	0
2019/05/16 04:20:00	BASE	1.64	135	2.98	130	-5.7	86	-7.7	0	0	987.7	NA	0.0000		9999	9780	10830	0	0
2019/05/16 04:21:00	BASE	2.45	137	3.19	136	-5.7	86	-7.7	0	0	987.7	NA	0.0000		9999	10300	0	0	0
2019/05/16 04:22:00	BASE	2.99	140	3.45	143	-5.7	86	-7.7	0	0	987.7	NA	0.0000		9999	10430	0	0	0
2019/05/16 04:23:00	BASE	3.07	141	3.45	143	-5.6	86	-7.6	0	0	987.7	NA	0.0000		9999	10170	0	0	0
2019/05/16 04:24:00	BASE	2.73	145	3.45	143	-5.6	86	-7.6	0	0	987.8	NA	0.0000		9999	8920	10300	0	0
2019/05/16 04:25:00	BASE	2.52	150	3.45	143	-5.6	86	-7.5	0	0	987.8	NA	0.0000		9999	8890	10200	0	0
2019/05/16 04:26:00	BASE	2.45	154	3.45	143	-5.5	86	-7.5	0	0	987.8	NA	0.0000		9999	8760	10140	0	0
2019/05/16 04:27:00	BASE	2.29	154	3.45	143	-5.5	86	-7.5	0	0	987.8	NA	0.0000		9999	8730	10140	0	0
2019/05/16 04:28:00	BASE	2.69	149	3.45	151	-5.5	86	-7.4	0	0	987.8	NA	0.0000		9999	8600	10200	0	0
2019/05/16 04:29:00	BASE	3.62	150	4.32	156	-5.4	86	-7.4	0	0	987.7	NA	0.0000		9999	8600	10270	0	0
2019/05/16 04:30:00	BASE	3.87	154	4.32	156	-5.4	86	-7.4	0	0	987.7	NA	0.0000		9999	8500	0	0	0
2019/05/16 04:31:00	BASE	3.17	150	4.32	156	-5.4	86	-7.4	0	0	987.7	NA	0.0000		9999	8560	10070	0	0
2019/05/16 04:32:00	BASE	2.53	137	4.32	156	-5.3	86	-7.4	0	0	987.7	NA	0.0000		9999	8560	10070	0	0
2019/05/16 04:33:00	BASE	2.03	127	4.32	156	-5.3	85	-7.4	0	0	987.7	NA	0.0000		9999	8690	10010	0	0
2019/05/16 04:34:00	BASE	1.59	128	4.32	156	-5.4	85	-7.5	0	0	987.7	NA	0.0000		9999	8690	9680	0	0
2019/05/16 04:35:00	BASE	1.43	131	4.32	156	-5.4	85	-7.5	0	0	987.7	NA	0.0000		9999	8660	9580	0	0
2019/05/16 04:36:00	BASE	1.36	137	4.32	156	-5.4	85	-7.5	0	0	987.7	NA	0.0000		9999	8600	9610	0	0
2019/05/16 04:37:00	BASE	1.17	152	4.32	156	-5.4	85	-7.5	0	0	987.6	NA	0.0000		9999	8600	9610	0	0
2019/05/16 04:38:00	BASE	1.14	166	4.32	156	-5.4	85	-7.5	0	0	987.6	NA	0.0000		9999	8500	0	0	0
2019/05/16 04:39:00	BASE	0.79	162	4.12	154	-5.3	85	-7.5	0	0	987.6	NA	0.0000		9999	8430	0	0	0
2019/05/16 04:40:00	BASE	0.15	142	3.09	151	-5.3	84	-7.5	0	0	987.6	NA	0.0000		9999	8370	0	0	0
2019/05/16 04:41:00	BASE	0.09	110	2.78	138	-5.3	84	-7.5	0	0	987.6	NA	0.0000		9999	8370	0	0	0
2019/05/16 04:42:00	BASE	0.09	100	1.85	125	-5.3	84	-7.6	0	0	987.6	NA	0.0000		9999	8370	0	0	0
2019/05/16 04:43:00	BASE	0.00	99	1.75	141	-5.3	84	-7.6	0	0	987.6	NA	0.0000		9999	8430	0	0	0
2019/05/16 04:44:00	BASE	0.00	82	1.75	141	-5.2	83	-7.6	0	0	987.6	NA	0.0000		9999	8400	0	0	0
2019/05/16 04:45:00	BASE	0.00	74	1.75	141	-5.2	83	-7.7	0	0	987.7	NA	0.0000		9999	8330	0	0	0
2019/05/16 04:46:00	BASE	0.00	53	1.49	169	-5.1	82	-7.8	0	0	987.7	NA	0.0000		9999	8400	0	0	0
2019/05/16 04:47:00	BASE	0.62	11	1.90	340	-5.1	80	-8.0	0	0	987.7	NA	0.0000		9999	8400	0	0	0
2019/05/16 04:48:00	BASE	1.66	346	2.42	345	-5.1	80	-8.1	0	0	987.6	NA	0.0000		9999	8400	0	0	0
2019/05/16 04:49:00	BASE	2.50	346	3.29	349	-5.1	79	-8.2	0	0	987.6	NA	0.0000		9999	8300	0	0	0
2019/05/16 04:50:00	BASE	3.10	346	3.81	348	-5.1	79	-8.2	0	0	987.6	NA	0.0000		9999	8300	0	0	0
2019/05/16 04:51:00	BASE	3.22	344	3.81	348	-5.1	79	-8.2	0	0	987.5	NA	0.0000		9999	8330	0	0	0
2019/05/16 04:52:00	BASE	2.98	342	3.81	348	-5.1	79	-8.1	0	0	987.4	NA	0.0000		9999	8240	0	0	0
2019/05/16 04:53:00	BASE	2.76	341	3.81	348	-5.1	79	-8.1	0	0	987.4	NA	0.0000		9999	8300	9320	0	0
2019/05/16 04:54:00	BASE	2.64	340	3.81	348	-5.1	79	-8.1	0	0	987.3	NA	0.0000		9999	8270	8890	0	0
2019/05/16 04:55:00	BASE	3.05	335	4.37	337	-5.1	79	-8.1	0	0	987.3	NA	0.0000		9999	8300	0	0	0
2019/05/16 04:56:00	BASE	3.91	335	4.63	338	-5.1	79	-8.2	0	0	987.3	NA	0.0000		9999	8500	9350	10860	0
2019/05/16 04:57:00	BASE	4.03	339	4.63	338	-5.1	79	-8.2	0	0	987.3	NA	0.0000		9999	8530	0	0	0
2019/05/16 04:58:00	BASE	3.68	343	4.63	338	-5.1	78	-8.3	0	0	987.3	NA	0.0000		9999	8430	0	0	0
2019/05/16 04:59:00	BASE	3.55	346	4.63	338	-5.1	78	-8.3	0	0	987.2	NA	0.0000		9999	10140	0	0	0
2019/05/16 05:00:00	BASE	3.57	346	4.63	338	-5.1	78	-8.4	0	0	987.1	NA	0.0000		9999	11290	0	0	0
2019/05/16 05:01:00	BASE	3.81	343	4.84	345	-5.1	78	-8.3	0	0	987.1	NA	0.0000		9999	11420	0	0	0
2019/05/16 05:02:00	BASE	4.10	343	4.84	345	-5.1	78	-8.3	0	0	987.0	NA	0.0000		9999	10240	0	0	0
2019/05/16 05:03:00	BASE	4.34	342	4.84	345	-5.2	79	-8.3	0	0	986.9	NA	0.0000		9999	10070	0	0	0
2019/05/16 05:04:00	BASE	4.39	338	4.84	345	-5.2	79	-8.3	0	0	986.8	NA	0.0000		9999	9970	0	0	0
2019/05/16 05:05:00	BASE	4.10	341	4.84	345	-5.2	79	-8.2	0	0	986.7	NA	0.0000		9999	10790	0	0	0
2019/05/16 05:06:00	BASE	4.20	345	4.99	343	-5.2	80	-8.2	0	0	986.6	NA	0.0000		9999	8630	0	0	0
2019/05/16 05:07:00	BASE	4.63	345	4.99	346	-5.2	80	-8.1	0	0	986.6	NA	0.0000		9999	9120	0	0	0
2019/05/16 05:08:00	BASE	4.74	345	5.04	344	-5.2	80	-8.0	0	0	986.6	NA	0.0000		9999	8760	0	0	0
2019/05/16 05:09:00	BASE	4.77	342	5.50	340	-5.1	81	-7.9	0	0	986.6	NA	0.0000		9999	8370	0	0	0
2019/05/16 05:10:00	BASE	4.96	339	5.76	335	-5.1	81	-7.8	0	0	986.7	NA	0.0000		9999	7680	0	0	0
2019/05/16 05:11:00	BASE	5.44	338	6.12	341	-5.1	82	-7.7	0	0	986.7	NA	0.0000		9999	8070	0	0	0
2019/05/16 05:12:00	BASE	5.74	338	6.12	341	-5.1	82	-7.7	0	0	986.7	NA	0.0000		9999	8270	0	0	0
2019/05/16 05:13:00	BASE	5.77	341	6.48	339	-5.2	83	-7.6	0	0	986.7	NA	0.0000		9999	9060	0	0	0
2019/05/16 05:14:00	BASE	5.92	344	6.69	350	-5.2	83	-7.6	0	0	986.8	NA	0.0000		9999	11880	0	0	0
2019/05/16 05:15:00	BASE	5.98	346	6.69	350	-5.2	84	-7.5	0	0	986.8	NA	0.0000		9999	11090	11840	0	0
2019/05/16 05:16:00	BASE	5.92	347	6.69	350	-5.2	84	-7.5	0	0	986.8	NA	0.0000		9999	11750	0	0	0
2019/05/16 05:17:00	BASE	5.81	343	6.69	350	-5.2	84	-7.4	0	0	986.8	NA	0.0000		9999	11710	0	0	0
2019/05/16 05:18:00	BASE	5.91	346	6.69	350	-5.2	85	-7.4	0	0	986.8	NA	0.0000		9999	10990	0	0	0
2019/05/16 05:19:00	BASE	6.00	353	6.74	349	-5.2	85	-7.4	0	0	986.8	NA	0.0000		9999	10990	16900	0	0
2019/05/16 05:20:00	BASE	5.77	351	6.74	349	-5.2	85	-7.3	0	0	986.8	NA	0.0000		9999	10960	16860	0	0
2019/05/16 05:21:00	BASE	5.44	349	6.74	349	-5.2	85	-7.3	0	0	986.8	NA	0.0000		9999	10170	10930	0	0
2019/05/16 05:22:00	BASE	5.27	347	6.74	349	-5.2	85	-7.3	0	0	986.7	NA	0.0000		9999	10140	16830	0	0
2019/05/16 05:23:00	BASE	5.26	344	6.74	349	-5.2	85	-7.3	0	0	986.7	NA	0.0000		9999	10140	0	0	0
2019/05/16 05:24:00	BASE	5.10	342	6.74	349	-5.2	85	-7.3	0	0	986.7	NA	0.0000		9999	8170	10140	0	0
2019/05/16 05:25:00	BASE	5.11	340	6.74	349	-5.2	85	-7.3	0	0	986.7	NA	0.0000		9999	8040	10110	0	0
2019/05/16 05:26:00	BASE	5.20	338	6.74	349	-5.2	85	-7.3	0	0	986.7	NA	0.0000		9999	8010	10040	0	0
2019/05/16 05:27:00	BASE	5.27	341	6.74	349	-5.2	85	-7.3	0	0	986.7	NA	0.0000		9999	8010	9940	0	0
2019/05/16 05:28:00	BASE	5.11	341	6.74	349	-5.2	85	-7.3	0	0	986.6	NA	0.0000		9999	8010	9880	0	0
2019/05/16 05:29:00	BASE	4.64	339	6.02	340	-5.2	85	-7.3	0	0	986.6	NA	0.0000		9999	7970	9810	0	0
2019/05/16 05:30:00	BASE	4.35	337	6.02	340	-5.2	85	-7.3	0	0	986.6	NA	0.0000		9999	7940	9780	0	0
2019/05/16 05:31:00	BASE	4.55	335	6.02	340	-5.2	85	-7.3	0	0	986.6	NA	0.0000		9999	7870	9780	0	0
2019/05/16 05:32:00	BASE	5.02	337	6.02	340	-5.2	85	-7.3	0	0	986.6	NA	0.0000		9999	7840	9740	0	0
2019/05/16 05:33:00	BASE	4.80	339	6.02	340	-5.2	85	-7.3	0	0	986.6	NA	0.0000		9999	7780	0	0	0
2019/05/16 05:34:00	BASE	4.06	337	5.86	343	-5.1	85	-7.3	0	0	986.6	NA	0.0000		9999	7840	0	0	0
2019/05/16 05:35:00	BASE	3.34	335	5.86	343	-5.1	85	-7.3	0	0	986.6	NA	0.0000		9999	7910	0	0	0
2019/05/16 05:36:00	BASE	3.02	335	5.86	343	-5.1	85	-7.2	0	0	986.6	NA	0.0000		9999	7870	0	0	0
2019/05/16 05:37:00	BASE	2.98	340	5.45	338	-5.1	85	-7.2	0	0	986.5	NA	0.0000		9999	7840	0	0	0
2019/05/16 05:38:00	BASE	2.66	342	5.45	338	-5.1	85	-7.2	0	0	986.5	NA	0.0000		9999	7780	0	0	0
2019/05/16 05:39:00	BASE	2.44	335	5.45	338	-5.1	85	-7.2	0	0	986.5	NA	0.0000		9999	7840	0	0	0
2019/05/16 05:40:00	BASE	2.70	330	5.45	338	-5.1	85	-7.2	0	0	986.5	NA	0.0000		9999	7910	0	0	0
2019/05/16 05:41:00	BASE	3.10	330	5.45	338	-5.1	85	-7.2	0	0	986.4	NA	0.0000		9999	7910	0	0	0
2019/05/16 05:42:00	BASE	3.29	329	5.20	338	-5.1	85	-7.2	0	0	986.4	NA	0.0000		9999	7840	0	0	0
2019/05/16 05:43:00	BASE	3.08	329	4.53	337	-5.1	85	-7.2	0	0	986.4	NA	0.0000		9999	7780	0	0	0
2019/05/16 05:44:00	BASE	2.77	331	3.70	337	-5.1	85	-7.2	0	0	986.5	NA	0.0000		9999	7740	0	0	0
2019/05/16 05:45:09	BASE	2.78	329	3.70	337	-5.0	84	-7.3	0	0	986.6	NA	0.0000		9999	7810	0	0	0
2019/05/16 05:46:00	BASE	3.39	325	4.12	320	-5.0	84	-7.3	0	0	986.6	NA	0.0000		9999	7810	0	0	0
2019/05/16 05:47:00	BASE	3.91	321	4.27	318	-5.0	84	-7.3	0	0	986.5	NA	0.0000		9999	7780	0	0	0
2019/05/16 05:48:00	BASE	3.67	318	4.27	318	-4.9	83	-7.3	0	0	986.5	NA	0.0000		9999	7610	0	0	0
2019/05/16 05:49:00	BASE	3.27	320	4.27	318	-4.9	83	-7.3	0	0	986.4	NA	0.0000		9999	7480	0	0	0
2019/05/16 05:50:00	BASE	2.77	337	4.27	318	-4.9	83	-7.4	0	0	986.3	NA	0.0000		9999	7480	0	0	0
2019/05/16 05:51:00	BASE	2.26	0	4.27	318	-4.9	82	-7.4	0	0	986.3	NA	0.0000		9999	7450	0	0	0
2019/05/16 05:52:00	BASE	1.97	8	4.27	318	-4.9	82	-7.5	0	0	986.3	NA	0.0000		9999	7450	0	0	0
2019/05/16 05:53:00	BASE	1.61	358	4.27	318	-4.9	81	-7.6	0	0	986.3	NA	0.0000		9999	7380	0	0	0
2019/05/16 05:54:00	BASE	1.00	8	4.27	318	-4.9	80	-7.8	0	0	986.4	NA	0.0000		9999	7450	0	0	0
2019/05/16 05:55:00	BASE	0.82	25	4.27	318	-4.9	80	-7.9	0	0	986.4	NA	0.0000		9999	7350	0	0	0
2019/05/16 05:56:00	BASE	0.54	27	4.27	318	-4.9	79	-7.9	0	0	986.3	NA	0.0000		9999	7220	0	0	0
2019/05/16 05:57:00	BASE	0.00	348	3.76	313	-4.9	79	-8.0	0	0	986.3	NA	0.0000		9999	7220	0	0	0
2019/05/16 05:58:01	BASE	0.48	307	3.40	323	-4.9	78	-8.0	0	0	986.3	NA	0.0000		9999	7120	0	0	0
2019/05/16 05:59:01	BASE	0.63	317	2.78	339	-4.9	78	-8.1	0	0	986.3	NA	0.0000		9999	7220	0	0	0
2019/05/16 06:00:00	BASE	0.15	338	2.42	14	-4.8	78	-8.1	0	0	986.3	NA	0.0000		9999	7190	0	0	0
2019/05/16 06:01:00	BASE	0.00	347	1.95	9	-4.8	78	-8.1	0	0	986.3	NA	0.0000		9999	7250	0	0	0
2019/05/16 06:02:00	BASE	0.00	328	1.65	126	-4.8	78	-8.1	0	0	986.2	NA	0.0000		9999	7320	0	0	0
2019/05/16 06:03:00	BASE	0.29	281	1.44	24	-4.8	78	-8.1	0	0	986.2	NA	0.0000		9999	7150	0	0	0
2019/05/16 06:04:00	BASE	0.29	251	1.44	24	-4.8	78	-8.1	0	0	986.2	NA	0.0000		9999	7120	0	0	0
2019/05/16 06:05:01	BASE	0.28	256	1.70	58	-4.8	77	-8.2	0	0	986.3	NA	0.0000		9999	7320	0	0	0
2019/05/16 06:06:01	BASE	1.20	48	2.01	56	-4.8	77	-8.2	0	0	986.3	NA	0.0000		9999	7350	0	0	0
2019/05/16 06:07:00	BASE	1.26	54	2.01	56	-4.8	76	-8.3	0	0	986.3	NA	0.0000		9999	7320	0	0	0
2019/05/16 06:08:00	BASE	0.33	40	2.01	56	-4.8	76	-8.4	0	0	986.3	NA	0.0000		9999	7320	0	0	0
2019/05/16 06:09:00	BASE	0.00	345	2.01	56	-4.8	76	-8.4	0	0	986.4	NA	0.0000		9999	7320	0	0	0
2019/05/16 06:10:00	BASE	0.00	333	2.01	56	-4.8	75	-8.5	0	0	986.4	NA	0.0000		9999	7320	0	0	0
2019/05/16 06:11:00	BASE	0.00	358	2.01	56	-4.8	75	-8.5	0	0	986.5	NA	0.0000		9999	7350	0	0	0
2019/05/16 06:12:00	BASE	0.41	5	2.01	56	-4.8	75	-8.5	0	0	986.5	NA	0.0000		9999	7380	0	0	0
2019/05/16 06:13:00	BASE	1.20	358	2.01	56	-4.7	76	-8.4	0	0	986.4	NA	0.0000		9999	7510	0	0	0
2019/05/16 06:14:00	BASE	1.51	344	2.01	56	-4.7	76	-8.3	0	0	986.4	NA	0.0000		9999	7380	0	0	0
2019/05/16 06:15:00	BASE	1.15	328	2.01	56	-4.7	76	-8.3	0	0	986.3	NA	0.0000		9999	7280	0	0	0
2019/05/16 06:16:01	BASE	0.67	313	1.75	334	-4.7	76	-8.3	0	0	986.3	NA	0.0000		9999	6890	0	0	0
2019/05/16 06:17:00	BASE	1.16	328	2.01	350	-4.7	76	-8.3	0	0	986.3	NA	0.0000		9999	6760	0	0	0
2019/05/16 06:18:00	BASE	1.85	1	2.21	41	-4.7	76	-8.3	0	0	986.3	NA	0.0000		9999	6790	0	0	0
2019/05/16 06:19:00	BASE	2.28	38	2.98	65	-4.7	76	-8.3	0	0	986.3	NA	0.0000		9999	6790	0	0	0
2019/05/16 06:20:00	BASE	2.65	69	2.98	86	-4.7	76	-8.3	0	0	986.2	NA	0.0000		9999	6660	0	0	0
2019/05/16 06:21:00	BASE	1.74	78	2.98	86	-4.7	76	-8.3	0	0	986.2	NA	0.0000		9999	6560	0	0	0
2019/05/16 06:22:00	BASE	1.12	48	2.98	86	-4.7	76	-8.3	0	0	986.2	NA	0.0000		9999	6330	0	0	0
2019/05/16 06:23:00	BASE	2.03	26	2.98	34	-4.7	76	-8.3	0	0	986.2	NA	0.0000		9999	6330	0	0	0
2019/05/16 06:24:00	BASE	2.66	38	2.98	34	-4.7	76	-8.2	0	0	986.2	NA	0.0000		9999	6430	0	0	0
2019/05/16 06:25:00	BASE	1.58	39	2.98	34	-4.6	76	-8.2	0	0	986.1	NA	0.0000		9999	6500	0	0	0
2019/05/16 06:26:00	BASE	0.81	196	2.98	34	-4.6	76	-8.2	0	0	986.0	NA	0.0000		9999	6530	0	0	0
2019/05/16 06:27:01	BASE	1.49	214	3.09	215	-4.5	76	-8.1	0	0	986.0	NA	0.0000		9999	6430	0	0	0
2019/05/16 06:28:01	BASE	1.11	228	3.09	215	-4.5	76	-8.1	0	0	986.0	NA	0.0000		9999	6370	0	0	0
2019/05/16 06:29:00	BASE	1.74	73	3.76	83	-4.5	76	-8.0	0	0	985.9	NA	0.0000		9999	6230	0	0	0
2019/05/16 06:30:01	BASE	2.87	87	3.76	83	-4.4	76	-8.0	0	0	985.9	NA	0.0000		9999	6230	0	0	0
2019/05/16 06:31:01	BASE	1.79	93	3.76	83	-4.4	76	-8.0	0	0	985.9	NA	0.0000		9999	6270	0	0	0
2019/05/16 06:32:00	BASE	2.31	83	4.58	65	-4.4	76	-8.0	0	0	985.9	NA	0.0000		9999	6270	0	0	0
2019/05/16 06:33:00	BASE	4.12	61	4.78	50	-4.5	76	-8.1	0	0	986.0	NA	0.0000		9999	6300	0	0	0
2019/05/16 06:34:00	BASE	3.56	46	4.78	50	-4.5	75	-8.2	0	0	986.0	NA	0.0000		9999	6040	0	0	0
2019/05/16 06:35:00	BASE	1.79	86	4.78	50	-4.4	74	-8.3	0	0	986.0	NA	0.0000		9999	6300	0	0	0
2019/05/16 06:36:00	BASE	1.61	153	4.78	50	-4.4	73	-8.4	0	0	986.0	NA	0.0000		9999	5870	0	0	0
2019/05/16 06:37:00	BASE	1.81	138	4.78	50	-4.4	73	-8.6	0	0	986.0	NA	0.0000		9999	6430	0	0	0
2019/05/16 06:38:00	BASE	0.85	132	4.78	50	-4.3	72	-8.6	0	0	985.9	NA	0.0000		9999	5840	0	0	0
2019/05/16 06:39:00	BASE	1.37	184	4.78	50	-4.3	72	-8.6	0	0	985.7	NA	0.0000		9999	5540	0	0	0
2019/05/16 06:40:00	BASE	3.57	194	5.20	181	-4.3	72	-8.6	0	0	985.5	NA	0.0000		9999	5050	0	0	0
2019/05/16 06:41:00	BASE	4.62	181	5.81	179	-4.3	71	-8.7	0	0	985.5	NA	0.0000		9999	4820	0	0	0
2019/05/16 06:42:00	BASE	3.08	168	5.81	179	-4.3	72	-8.6	0	0	985.7	NA	0.0000		9999	5180	0	0	0
2019/05/16 06:43:00	BASE	1.31	111	5.81	179	-4.3	72	-8.6	0	0	985.7	NA	0.0000		9999	5610	0	0	0
2019/05/16 06:44:00	BASE	0.67	352	5.81	179	-4.3	72	-8.6	0	0	985.6	NA	0.0000		9999	5480	0	0	0
2019/05/16 06:45:00	BASE	0.36	292	5.81	179	-4.4	73	-8.5	0	0	985.6	NA	0.0000		9999	5020	0	0	0
2019/05/16 06:46:00	BASE	1.57	92	5.81	179	-4.4	73	-8.4	0	0	985.7	NA	0.0000		9999	5480	0	0	0
2019/05/16 06:47:00	BASE	1.94	72	5.81	179	-4.3	74	-8.3	0	0	985.7	NA	0.0000		9999	5350	0	0	0
2019/05/16 06:48:00	BASE	1.32	85	5.81	179	-4.3	74	-8.2	0	0	985.7	NA	0.0000		9999	5120	0	0	0
2019/05/16 06:49:00	BASE	2.87	77	5.81	179	-4.3	74	-8.1	0	0	985.8	NA	0.0000		9999	5120	0	0	0
2019/05/16 06:50:00	BASE	3.80	82	5.81	179	-4.2	75	-8.1	0	0	985.7	NA	0.0000		9999	4950	0	0	0
2019/05/16 06:51:00	BASE	3.54	132	4.78	67	-4.2	75	-8.0	0	0	985.6	NA	0.0000		9999	4760	0	0	0
2019/05/16 06:52:00	BASE	4.68	171	6.58	196	-4.2	75	-8.0	0	0	985.4	NA	0.0000		9999	4490	0	0	0
2019/05/16 06:53:00	BASE	6.26	187	9.21	195	-4.2	75	-7.9	0	0	985.3	NA	0.0000		9999	4690	0	0	0
2019/05/16 06:54:00	BASE	8.88	197	12.30	206	-4.2	76	-7.8	0	0	985.2	NA	0.0000		9999	4560	0	0	0
2019/05/16 06:55:00	BASE	10.06	198	12.30	206	-4.1	76	-7.7	0	0	985.2	NA	0.0000		9999	4820	0	0	0
2019/05/16 06:56:00	BASE	8.90	194	12.30	206	-4.1	77	-7.6	0	0	985.3	NA	0.0000		9999	5050	0	0	0
2019/05/16 06:57:00	BASE	8.15	188	12.30	206	-4.1	77	-7.5	0	0	985.4	NA	0.0000		9999	4100	0	0	0
2019/05/16 06:58:00	BASE	7.48	174	12.30	206	-4.0	78	-7.3	0	0	985.3	NA	0.0000		9999	4920	0	0	0
2019/05/16 06:59:00	BASE	6.50	160	12.30	206	-3.9	78	-7.2	0	0	985.4	NA	0.0000		9999	4990	0	0	0
2019/05/16 07:00:00	BASE	5.49	141	12.30	206	-3.9	79	-7.1	0	0	985.4	NA	0.0000		9999	4170	0	0	0
2019/05/16 07:01:00	BASE	4.46	139	12.30	206	-3.9	79	-7.0	0	0	985.4	NA	0.0000		9999	4170	0	0	0
2019/05/16 07:02:00	BASE	4.74	133	12.30	206	-3.8	78	-7.0	0	0	985.3	NA	0.0000		9999	4040	0	0	0
2019/05/16 07:03:00	BASE	6.47	101	12.30	206	-3.8	78	-7.1	0	0	985.2	NA	0.0000		9999	4400	0	0	0
2019/05/16 07:04:00	BASE	6.39	78	9.93	198	-3.8	77	-7.2	0	0	985.2	NA	0.0000		9999	4400	0	0	0
2019/05/16 07:05:00	BASE	6.04	64	8.85	189	-3.7	75	-7.4	0	0	985.3	NA	0.0000		9999	4590	0	0	0
2019/05/16 07:06:00	BASE	6.73	62	11.27	54	-3.6	73	-7.7	0	0	985.2	NA	0.0000		9999	4660	0	0	0
2019/05/16 07:07:00	BASE	5.07	106	11.27	54	-3.4	71	-7.9	0	0	985.0	NA	0.0000		9999	4720	0	0	0
2019/05/16 07:08:00	BASE	4.57	176	11.27	54	-3.2	68	-8.2	0	0	985.0	NA	0.0000		9999	4400	0	0	0
2019/05/16 07:09:00	BASE	4.75	174	11.27	54	-2.9	65	-8.7	0	0	985.1	NA	0.0000		9999	4530	0	0	0
2019/05/16 07:10:00	BASE	3.64	150	11.27	54	-2.8	62	-9.2	0	0	985.2	NA	0.0000		9999	4530	0	0	0
2019/05/16 07:11:00	BASE	3.48	149	11.27	54	-2.8	60	-9.5	0	0	985.1	NA	0.0000		9999	4630	0	0	0
2019/05/16 07:12:00	BASE	4.09	152	11.27	54	-2.9	60	-9.7	0	0	985.1	NA	0.0000		9999	4630	0	0	0
2019/05/16 07:13:00	BASE	4.62	158	11.27	54	-3.1	61	-9.7	0	0	985.1	NA	0.0000		9999	4530	0	0	0
2019/05/16 07:14:01	BASE	3.23	160	11.27	54	-3.4	63	-9.4	0	0	985.1	NA	0.0000		9999	4360	0	0	0
2019/05/16 07:15:01	BASE	2.88	180	11.27	54	-3.5	66	-8.9	0	0	985.0	NA	0.0000		9999	4300	0	0	0
2019/05/16 07:16:01	BASE	3.84	183	6.79	200	-3.6	68	-8.5	0	0	985.1	NA	0.0000		9999	3840	0	0	0
2019/05/16 07:17:00	BASE	3.34	163	6.79	200	-3.6	70	-8.2	0	0	985.1	NA	0.0000		9999	4040	0	0	0
2019/05/16 07:18:01	BASE	2.71	143	5.45	154	-3.6	72	-7.9	0	0	985.1	NA	0.0000		9999	3740	0	0	0
2019/05/16 07:19:00	BASE	4.00	135	6.58	148	-3.6	73	-7.7	0	0	985.0	NA	0.0000		9999	3770	0	0	0
2019/05/16 07:20:00	BASE	4.97	144	6.58	148	-3.6	74	-7.6	0	0	985.0	NA	0.0000		9999	3810	0	0	0
2019/05/16 07:21:00	BASE	4.60	119	6.58	148	-3.6	74	-7.5	0	0	985.1	NA	0.0000		9999	4130	0	0	0
2019/05/16 07:22:01	BASE	3.25	65	6.58	148	-3.5	74	-7.6	0	0	985.1	NA	0.0000		9999	4170	0	0	0
2019/05/16 07:23:01	BASE	1.62	13	6.58	148	-3.5	73	-7.7	0	0	985.2	NA	0.0000		9999	4000	0	0	0
2019/05/16 07:24:00	BASE	1.52	351	6.58	148	-3.5	72	-7.8	0	0	985.1	NA	0.0000		9999	4360	0	0	0
2019/05/16 07:25:00	BASE	1.80	346	6.58	148	-3.4	71	-8.0	0	0	985.1	NA	0.0000		9999	3380	0	0	0
2019/05/16 07:26:00	BASE	1.00	330	6.58	148	-3.4	70	-8.1	0	0	985.1	NA	0.0000		9999	3380	0	0	0
2019/05/16 07:27:00	BASE	0.30	209	6.58	148	-3.4	70	-8.1	0	0	985.0	NA	0.0000		9999	4490	0	0	0
2019/05/16 07:28:00	BASE	0.33	203	6.58	148	-3.3	69	-8.2	0	0	984.9	NA	0.0000		9999	3350	0	0	0
2019/05/16 07:29:00	BASE	0.32	173	5.92	147	-3.2	68	-8.3	0	0	984.9	NA	0.0000		9999	3580	0	0	0
2019/05/16 07:30:00	BASE	0.45	144	5.40	94	-3.1	67	-8.5	0	0	984.8	NA	0.0000		9999	3280	0	0	0
2019/05/16 07:31:00	BASE	0.26	190	4.37	71	-3.1	65	-8.7	0	0	984.8	NA	0.0000		9999	4530	0	0	0
2019/05/16 07:32:00	BASE	0.05	177	2.42	345	-3.0	64	-8.9	0	0	984.8	NA	0.0000		9999	3080	0	0	0
2019/05/16 07:33:00	BASE	0.05	250	2.42	345	-3.1	63	-9.1	0	0	984.9	NA	0.0000		9999	2990	0	0	0
2019/05/16 07:34:00	BASE	0.16	268	2.06	2	-3.1	63	-9.1	0	0	984.9	NA	0.0000		9999	4070	0	0	0
2019/05/16 07:35:00	BASE	1.59	209	4.84	206	-3.1	64	-9.0	0	0	984.9	NA	0.0000		9999	2590	0	0	0
2019/05/16 07:36:00	BASE	4.35	207	6.89	200	-3.2	65	-8.9	0	0	984.8	NA	0.0000		9999	2690	0	0	0
2019/05/16 07:37:00	BASE	6.13	199	7.61	204	-3.2	66	-8.8	0	0	984.7	NA	0.0000		9999	3410	0	0	0
2019/05/16 07:38:00	BASE	5.39	183	7.61	204	-3.3	66	-8.7	0	0	984.7	NA	0.0000		9999	2890	0	0	0
2019/05/16 07:39:00	BASE	4.59	154	7.61	204	-3.3	67	-8.6	0	0	984.7	NA	0.0000		9999	3020	0	0	0
2019/05/16 07:40:00	BASE	5.09	137	7.61	204	-3.3	67	-8.5	0	0	984.7	NA	0.0000		9999	3220	0	0	0
2019/05/16 07:41:00	BASE	5.78	133	7.67	131	-3.3	67	-8.5	0	0	984.6	NA	0.0000		9999	4170	0	0	0
2019/05/16 07:42:00	BASE	5.51	124	7.67	131	-3.3	67	-8.6	0	0	984.6	NA	0.0000		9999	4920	0	0	0
2019/05/16 07:43:00	BASE	5.77	118	8.80	129	-3.3	66	-8.7	0	0	984.6	NA	0.0000		9999	4430	0	0	0
2019/05/16 07:44:00	BASE	7.53	120	9.21	133	-3.2	65	-8.8	0	0	984.5	NA	0.0000		9999	4230	0	0	0
2019/05/16 07:45:00	BASE	9.01	123	10.24	124	-3.2	65	-8.9	0	0	984.5	NA	0.0000		9999	4360	0	0	0
2019/05/16 07:46:00	BASE	10.03	124	11.32	122	-3.2	65	-8.9	0	0	984.4	NA	0.0000		9999	4530	0	0	0
2019/05/16 07:47:00	BASE	10.25	128	11.32	122	-3.2	65	-8.8	0	0	984.2	NA	0.0000		9999	4560	0	0	0
2019/05/16 07:48:00	BASE	10.42	129	11.32	127	-3.3	66	-8.7	0	0	984.1	NA	0.0000		9999	4130	0	0	0
2019/05/16 07:49:00	BASE	10.45	127	11.32	127	-3.3	66	-8.6	0	0	984.1	NA	0.0000		9999	3900	0	0	0
2019/05/16 07:50:00	BASE	10.71	126	11.73	132	-3.3	67	-8.6	0	0	984.1	NA	0.0000		9999	3900	0	0	0
2019/05/16 07:51:00	BASE	11.08	127	11.73	122	-3.3	67	-8.5	0	0	984.1	NA	0.0000		9999	3940	0	0	0
2019/05/16 07:52:00	BASE	10.77	128	11.73	122	-3.3	68	-8.3	0	0	984.1	NA	0.0000		9999	0	0	0	4490
2019/05/16 07:53:00	BASE	10.51	128	11.73	122	-3.2	69	-8.1	0	0	984.1	NA	0.0000		9999	0	0	0	4660
2019/05/16 07:54:00	BASE	10.09	124	11.73	122	-3.2	70	-8.0	0	0	984.1	NA	0.0000		9999	0	0	0	4720
2019/05/16 07:55:00	BASE	9.69	120	11.73	122	-3.2	70	-7.8	0	0	984.2	NA	0.0000		9999	0	0	0	4690
2019/05/16 07:56:00	BASE	10.03	117	11.73	122	-3.2	71	-7.7	0	0	984.2	NA	0.0000		9999	0	0	0	4630
2019/05/16 07:57:00	BASE	10.75	115	11.73	122	-3.2	71	-7.6	0	0	984.2	NA	0.0000		9999	0	0	0	4690
2019/05/16 07:58:00	BASE	11.13	115	11.83	111	-3.2	72	-7.5	0	0	984.1	NA	0.0000	UP	9999	0	0	0	4660
2019/05/16 07:59:00	BASE	11.11	114	11.88	115	-3.1	72	-7.5	0	0	984.1	NA	0.0000	UP	9999	0	0	0	4630
2019/05/16 08:00:00	BASE	11.50	113	13.17	112	-3.1	72	-7.4	0	0	984.0	NA	0.0000	UP	9999	0	0	0	4630
2019/05/16 08:01:00	BASE	11.76	113	13.17	112	-3.0	72	-7.4	0	0	983.9	NA	0.0000	UP	9999	0	0	0	4490
2019/05/16 08:02:00	BASE	11.61	112	13.17	112	-3.0	72	-7.3	0	0	983.9	NA	0.0000	UP	9999	0	0	0	4330
2019/05/16 08:03:00	BASE	11.80	112	13.17	112	-3.0	73	-7.2	0	0	983.8	NA	0.0000	UP	9999	0	0	0	4360
2019/05/16 08:04:01	BASE	12.63	114	14.51	115	-2.9	73	-7.1	0	0	983.7	NA	0.0000	UP	9999	0	0	0	4230
2019/05/16 08:05:01	BASE	13.31	115	14.51	115	-2.9	74	-6.9	0	0	983.6	NA	0.0000	UP	9999	0	0	0	4200
2019/05/16 08:06:00	BASE	13.14	118	14.51	115	-2.8	75	-6.6	0	0	983.5	NA	0.0000	UP	9999	0	0	0	4100
2019/05/16 08:07:00	BASE	13.21	116	14.61	114	-2.8	76	-6.3	0	0	983.5	NA	0.0000	UP	9999	0	0	0	4000
2019/05/16 08:08:00	BASE	13.94	111	15.38	111	-2.7	78	-6.0	0	0	983.5	NA	0.0000	UP	9999	0	0	0	3870
2019/05/16 08:09:01	BASE	14.99	110	16.20	107	-2.6	79	-5.7	0	0	983.4	NA	0.0000	UP	9999	0	0	0	3710
2019/05/16 08:10:01	BASE	15.63	114	16.93	124	-2.5	80	-5.4	0	0	983.2	NA	0.0000	UP	9999	0	0	0	3640
2019/05/16 08:11:00	BASE	16.07	120	17.34	124	-2.4	81	-5.2	0	0	983.1	NA	0.0000	UP	9999	0	0	0	3510
2019/05/16 08:12:00	BASE	15.58	124	17.34	124	-2.4	82	-5.1	0	0	983.1	NA	0.0000	UP	9999	0	0	0	3380
2019/05/16 08:13:00	BASE	14.16	124	17.34	124	-2.4	82	-5.0	0	0	983.0	NA	0.0000	UP	9999	0	0	0	3310
2019/05/16 08:14:00	BASE	13.57	124	17.34	124	-2.4	82	-5.0	0	0	982.9	NA	0.0000	UP	9000	0	0	0	3150
2019/05/16 08:15:00	BASE	12.62	126	17.34	124	-2.4	82	-5.0	0	0	983.0	NA	0.0000	UP	7000	0	0	0	3220
2019/05/16 08:16:00	BASE	12.38	127	17.34	124	-2.4	82	-5.0	0	0	982.9	NA	0.0000	UP	7000	0	0	0	3180
2019/05/16 08:17:00	BASE	12.58	124	17.34	124	-2.4	82	-5.1	0	0	982.9	NA	0.0000	UP	7000	0	0	0	3080
2019/05/16 08:18:00	BASE	11.81	122	17.34	124	-2.5	83	-5.0	0	0	982.9	NA	0.0000	UP	5000	0	0	0	3180
2019/05/16 08:19:00	BASE	11.82	121	17.34	124	-2.5	83	-4.9	0	0	982.8	NA	0.0000	-SN	4500	0	0	0	2560
2019/05/16 08:20:00	BASE	11.90	118	17.34	124	-2.5	84	-4.9	0	0	982.8	NA	0.0000	-SN	4000	0	0	0	2330
2019/05/16 08:21:00	BASE	12.27	115	16.72	125	-2.5	85	-4.7	0	0	982.8	NA	0.0000	-SN	3600	0	0	0	2170
2019/05/16 08:22:00	BASE	12.90	114	15.23	121	-2.5	85	-4.6	0	0	982.7	NA	0.0000	-SN BR	3500	0	0	0	2200
2019/05/16 08:23:00	BASE	12.74	112	14.71	118	-2.5	86	-4.5	0	0	982.6	NA	0.0000	-SN BR	3300	0	0	0	2260
2019/05/16 08:24:00	BASE	12.36	112	14.20	124	-2.5	87	-4.4	0	0	982.6	NA	0.0000	-SN BR	3300	0	0	0	2330
2019/05/16 08:25:00	BASE	12.32	112	14.20	124	-2.4	87	-4.2	0	0	982.5	NA	0.0000	-SN BR	3300	0	0	0	4270
2019/05/16 08:26:00	BASE	12.12	110	13.38	121	-2.4	88	-4.1	0	0	982.6	NA	0.0000	-SN BR	3300	0	0	0	4070
2019/05/16 08:27:00	BASE	11.57	109	13.38	121	-2.4	88	-4.1	0	0	982.6	NA	0.0000	-SN BR	3300	0	0	0	4100
2019/05/16 08:28:00	BASE	11.23	110	13.38	121	-2.4	89	-3.9	0	0	982.5	NA	0.0000	-SN BR	3600	0	0	0	4040
2019/05/16 08:29:00	BASE	11.19	112	13.32	111	-2.4	89	-3.9	0	0	982.4	NA	0.0000	-SN BR	4000	0	0	0	4000
2019/05/16 08:30:00	BASE	11.41	109	13.48	107	-2.3	90	-3.8	0	0	982.4	NA	0.0000	-SN BR	3800	0	0	0	3970
2019/05/16 08:31:00	BASE	11.87	104	13.48	107	-2.3	90	-3.8	0	0	982.4	NA	0.0000	-SN BR	3700	0	0	0	4170
2019/05/16 08:32:00	BASE	11.45	104	13.48	107	-2.3	90	-3.7	0	0	982.2	NA	0.0000	-SN BR	4000	0	0	0	4100
2019/05/16 08:33:00	BASE	11.83	109	13.79	116	-2.3	90	-3.7	0	0	982.0	NA	0.0000	-SN BR	4900	0	0	0	4000
2019/05/16 08:34:01	BASE	13.55	119	15.12	122	-2.3	90	-3.7	0	0	981.8	NA	0.0000	-SN BR	7000	0	0	0	3840
2019/05/16 08:35:00	BASE	13.62	122	15.12	122	-2.3	90	-3.7	0	0	981.7	NA	0.0000	-SN BR	8000	430	0	0	0
2019/05/16 08:36:01	BASE	13.16	116	15.12	122	-2.2	90	-3.7	0	0	981.8	NA	0.0000	-SN BR	7000	430	0	0	0
2019/05/16 08:37:01	BASE	13.21	115	15.23	116	-2.2	90	-3.7	0	0	981.7	NA	0.0000	-SN BR	6000	0	0	0	3900
2019/05/16 08:38:01	BASE	12.39	121	15.23	116	-2.2	90	-3.6	0	0	981.7	NA	0.0000	-SN BR	6000	0	0	0	3740
2019/05/16 08:39:01	BASE	11.64	124	15.23	116	-2.2	90	-3.6	0	0	981.7	NA	0.0000	-SN BR	6000	0	0	0	3580
2019/05/16 08:40:01	BASE	11.09	124	15.23	116	-2.2	91	-3.6	0	0	981.7	NA	0.0000	-SN BR	8000	0	0	0	3770
2019/05/16 08:41:01	BASE	10.82	123	15.23	116	-2.2	91	-3.5	0	0	981.7	NA	0.0000	-SN BR	9999	0	0	0	3840
2019/05/16 08:42:01	BASE	11.52	120	15.23	116	-2.2	91	-3.4	0	0	981.7	NA	0.0000	-SN BR	9999	0	0	0	3840
2019/05/16 08:43:01	BASE	13.03	119	16.57	115	-2.2	92	-3.4	0	0	981.5	NA	0.0000	-SN BR	9999	0	0	0	3770
2019/05/16 08:44:01	BASE	13.46	123	16.57	115	-2.2	92	-3.3	0	0	981.5	NA	0.0000	-SN BR	9999	0	0	0	3540
2019/05/16 08:45:01	BASE	12.42	123	16.57	115	-2.1	92	-3.2	0	0	981.5	NA	0.0000	-SN BR	9999	0	0	0	3250
2019/05/16 08:46:01	BASE	11.95	120	16.57	115	-2.1	92	-3.2	0	0	981.5	NA	0.0000	-SN BR	9999	0	0	0	3220
2019/05/16 08:47:01	BASE	12.13	118	16.57	115	-2.0	92	-3.1	0	0	981.5	NA	0.0000	-SN BR	8000	0	0	0	3450
2019/05/16 08:48:01	BASE	12.75	118	16.57	115	-2.0	92	-3.1	0	0	981.4	NA	0.0000	-SN BR	9000	0	0	0	3310
2019/05/16 08:49:00	BASE	12.44	116	16.57	115	-1.9	92	-3.1	0	0	981.4	NA	0.0000	-SN	8000	0	0	0	3410
2019/05/16 08:50:00	BASE	10.70	118	16.57	115	-1.8	91	-3.0	0	0	981.4	NA	0.0000	-SN	9999	0	0	0	3410
2019/05/16 08:51:00	BASE	10.13	119	16.57	115	-1.7	91	-3.0	0	0	981.5	NA	0.0000	-SN	9999	0	0	0	3510
2019/05/16 08:52:01	BASE	10.43	115	16.57	115	-1.7	91	-3.0	0	0	981.5	NA	0.0000	-SN	9999	0	0	0	3770
2019/05/16 08:53:00	BASE	10.09	118	14.40	121	-1.6	90	-3.0	0	0	981.4	NA	0.0000	-SN	9999	0	0	0	4270
2019/05/16 08:54:00	BASE	9.55	125	14.40	121	-1.6	90	-3.0	0	0	981.3	NA	0.0000	-SN BR	7000	0	0	0	3710
2019/05/16 08:55:00	BASE	9.12	129	14.40	121	-1.6	90	-3.1	0	0	981.2	NA	0.0000	-SN BR	7000	0	0	0	3740
2019/05/16 08:56:00	BASE	9.19	126	14.40	121	-1.6	90	-3.0	0	0	981.2	NA	0.0000	-SN BR	7000	0	0	0	3740
2019/05/16 08:57:00	BASE	9.39	120	14.40	121	-1.6	90	-3.0	0	0	981.2	NA	0.0000	-SN BR	8000	0	0	0	3640
2019/05/16 08:58:00	BASE	9.51	115	13.07	117	-1.6	90	-3.0	0	0	981.2	NA	0.0000	-SN BR	9000	0	0	0	3540
2019/05/16 08:59:00	BASE	9.66	114	11.63	107	-1.5	90	-3.0	0	0	981.2	NA	0.0000	-SN BR	9999	0	0	0	3250
2019/05/16 09:00:00	BASE	9.63	115	11.63	107	-1.5	90	-2.9	0	0	981.2	NA	0.0000	-SN BR	9999	0	0	0	3640
2019/05/16 09:01:00	BASE	9.29	117	11.63	107	-1.4	90	-2.8	0	0	981.2	NA	0.0000	-SN BR	9999	0	0	0	3610
2019/05/16 09:02:00	BASE	8.65	117	11.63	107	-1.3	90	-2.8	0	0	981.2	NA	0.0000	-SN BR	6000	0	0	0	3480
2019/05/16 09:03:00	BASE	7.60	120	11.63	107	-1.3	90	-2.7	0	0	981.2	NA	0.0000	-SN BR	6000	0	0	0	3450
2019/05/16 09:04:00	BASE	7.23	129	11.63	107	-1.3	90	-2.7	0	0	981.2	NA	0.0000	-SN BR	9000	0	0	0	3670
2019/05/16 09:05:00	BASE	7.20	132	11.63	107	-1.2	90	-2.7	0	0	981.1	NA	0.0000	-SN BR	9999	0	0	0	3350
2019/05/16 09:06:00	BASE	7.10	128	11.63	107	-1.3	90	-2.7	0	0	981.0	NA	0.0000	-SN BR	9000	0	0	0	3610
2019/05/16 09:07:00	BASE	8.18	128	11.63	107	-1.3	90	-2.7	0	0	981.1	NA	0.0000	-SN BR	7000	0	0	0	3710
2019/05/16 09:08:01	BASE	9.22	131	11.63	107	-1.3	90	-2.8	0	0	981.0	NA	0.0000	-SN BR	7000	3150	0	0	0
2019/05/16 09:09:01	BASE	9.73	134	10.65	130	-1.4	90	-2.7	0	0	981.0	NA	0.0000	-SN BR	9999	0	0	0	3770
2019/05/16 09:10:01	BASE	10.38	137	11.88	139	-1.4	90	-2.7	0	0	980.9	NA	0.0000	-SN BR	9999	0	0	0	3870
2019/05/16 09:11:01	BASE	11.91	135	13.74	132	-1.4	91	-2.7	0	0	980.9	NA	0.0000	-SN BR	9999	0	0	0	3740
2019/05/16 09:12:01	BASE	13.09	128	14.35	123	-1.4	91	-2.7	0	0	980.9	NA	0.0000	-SN BR	8000	3020	0	0	0
2019/05/16 09:13:01	BASE	12.45	123	14.35	123	-1.4	91	-2.7	0	0	980.9	NA	0.0000	-SN BR	7000	2950	0	0	0
2019/05/16 09:14:00	BASE	11.49	120	14.35	123	-1.4	91	-2.7	0	0	980.9	NA	0.0000	-SN BR	9000	0	0	0	3510
2019/05/16 09:15:01	BASE	11.12	127	14.35	123	-1.4	90	-2.8	0	0	980.8	NA	0.0000	-SN BR	9999	3080	0	0	0
2019/05/16 09:16:01	BASE	11.61	135	14.35	123	-1.4	90	-2.8	0	0	980.7	NA	0.0000	-SN BR	9999	0	0	0	3740
2019/05/16 09:17:01	BASE	11.89	133	14.35	123	-1.4	90	-2.9	0	0	980.6	NA	0.0000	-SN	9999	0	0	0	3250
2019/05/16 09:18:01	BASE	12.42	128	15.74	127	-1.5	90	-2.9	0	0	980.6	NA	0.0000	-SN	9999	0	0	0	3280
2019/05/16 09:19:01	BASE	13.60	128	15.74	127	-1.5	89	-3.0	0	0	980.6	NA	0.0000	-SN	9999	0	0	0	3220
2019/05/16 09:20:01	BASE	14.16	128	15.74	127	-1.5	89	-3.1	0	0	980.6	NA	0.0000	-SN	9999	0	0	0	3220
2019/05/16 09:21:01	BASE	14.43	130	15.74	127	-1.5	89	-3.1	0	0	980.4	NA	0.0000	-SN	9999	0	0	0	2820
2019/05/16 09:22:01	BASE	14.96	129	17.18	135	-1.5	89	-3.2	0	0	980.3	NA	0.0000	-SN	9999	0	0	0	2560
2019/05/16 09:23:01	BASE	15.10	123	17.18	135	-1.6	88	-3.2	0	0	980.3	NA	0.0000	-SN	9999	0	0	0	2850
2019/05/16 09:24:01	BASE	16.56	124	21.76	126	-1.6	88	-3.3	0	0	980.1	NA	0.0000	-SN	9999	0	0	0	2300
2019/05/16 09:25:01	BASE	18.88	125	21.76	126	-1.6	88	-3.3	0	0	980.0	NA	0.0000	-SN	6000	0	0	0	2330
2019/05/16 09:26:01	BASE	19.55	121	21.76	126	-1.7	88	-3.4	0	0	980.0	NA	0.0000	-SN	6000	0	0	0	2300
2019/05/16 09:27:01	BASE	18.73	121	21.76	126	-1.7	88	-3.4	0	0	980.1	NA	0.0000	-SN	9999	0	0	0	2230
2019/05/16 09:28:01	BASE	16.90	121	21.76	126	-1.7	88	-3.4	0	0	980.2	NA	0.0000	-SN	9999	0	0	0	2260
2019/05/16 09:29:00	BASE	15.90	119	21.76	126	-1.6	88	-3.4	0	0	980.3	NA	0.0000	-SN	9000	0	0	0	2530
2019/05/16 09:30:00	BASE	14.95	118	21.76	126	-1.6	88	-3.4	0	0	980.2	NA	0.0000	-SN BR	6000	850	0	0	0
2019/05/16 09:31:01	BASE	16.24	118	21.76	126	-1.6	88	-3.4	0	0	980.1	NA	0.0000	-SN BR	3700	0	0	0	1970
2019/05/16 09:32:00	BASE	17.58	115	21.76	126	-1.6	88	-3.4	0	0	980.2	NA	0.0000	-SN BR	3300	0	0	0	1940
2019/05/16 09:33:00	BASE	17.95	115	21.76	126	-1.6	88	-3.4	0	0	980.0	NA	0.0000	-SN BR	3300	0	0	0	2100
2019/05/16 09:34:00	BASE	18.87	120	21.56	118	-1.6	88	-3.4	0	0	979.7	NA	0.0000	-SN BR	3300	0	0	0	1900
2019/05/16 09:35:00	BASE	18.27	125	21.40	119	-1.6	88	-3.4	0	0	979.7	NA	0.0000	-SN BR	2400	0	0	0	1570
2019/05/16 09:36:00	BASE	18.60	124	21.40	122	-1.7	88	-3.4	0	0	979.7	NA	0.0000	-SN BR	1800	0	0	0	1710
2019/05/16 09:37:00	BASE	17.27	120	21.40	122	-1.7	88	-3.4	0	0	979.9	NA	0.0000	-SN BR	1900	0	0	0	1670
2019/05/16 09:38:00	BASE	16.60	118	21.40	122	-1.7	88	-3.3	0	0	980.0	NA	0.0000	-SN BR	2100	0	0	0	1740
2019/05/16 09:39:00	BASE	17.38	120	21.40	122	-1.6	89	-3.3	0	0	979.9	NA	0.0000	-SN BR	2700	260	0	0	0
2019/05/16 09:40:00	BASE	15.69	127	21.40	122	-1.6	89	-3.2	0	0	979.7	NA	0.0000	-SN BR	3300	330	0	0	0
2019/05/16 09:41:00	BASE	15.02	133	21.40	122	-1.6	89	-3.1	0	0	979.7	NA	0.0000	-SN BR	3200	0	0	0	1410
2019/05/16 09:42:01	BASE	15.87	127	21.40	122	-1.5	89	-3.1	0	0	979.8	NA	0.0000	-SN BR	3500	330	0	0	0
2019/05/16 09:43:01	BASE	17.04	120	21.40	122	-1.5	89	-3.1	0	0	979.7	NA	0.0000	-SN BR	3100	0	0	0	1670
2019/05/16 09:44:01	BASE	18.43	119	21.40	122	-1.5	89	-3.1	0	0	979.5	NA	0.0000	-SN BR	2700	0	0	0	1510
2019/05/16 09:45:00	BASE	18.45	118	21.40	122	-1.5	89	-3.0	0	0	979.5	NA	0.0000	-SN BR	2500	0	0	0	1480
2019/05/16 09:46:00	BASE	18.07	117	20.58	126	-1.5	90	-2.9	0	0	979.5	NA	0.0000	-SN BR	2300	0	0	0	1670
2019/05/16 09:47:00	BASE	17.56	126	20.27	119	-1.4	90	-2.9	0	0	979.4	NA	0.0000	-SN BR	2300	0	0	0	1610
2019/05/16 09:48:00	BASE	16.42	128	20.27	119	-1.4	90	-2.8	0	0	979.5	NA	0.0000	-SN BR	2500	0	0	0	1540
2019/05/16 09:49:00	BASE	16.16	120	20.27	119	-1.4	90	-2.7	0	0	979.7	NA	0.0000	-SN BR	2800	0	0	0	1540
2019/05/16 09:50:00	BASE	16.35	117	20.27	119	-1.4	91	-2.7	0	0	979.6	NA	0.0000	-SN BR	3000	0	0	0	2100
2019/05/16 09:51:00	BASE	16.15	125	20.27	119	-1.4	91	-2.7	0	0	979.4	NA	0.0000	-SN BR	3400	360	0	0	0
2019/05/16 09:52:00	BASE	16.12	127	20.27	119	-1.5	91	-2.7	0	0	979.4	NA	0.0000	-SN BR	3500	260	0	0	0
2019/05/16 09:53:00	BASE	15.13	122	20.27	119	-1.5	92	-2.7	0	0	979.4	NA	0.0000	-SN BR	3600	330	0	0	0
2019/05/16 09:54:00	BASE	14.18	119	19.19	118	-1.5	92	-2.6	0	0	979.5	NA	0.0000	-SN BR	3300	0	0	0	1180
2019/05/16 09:55:00	BASE	15.27	115	19.19	118	-1.5	92	-2.6	0	0	979.6	NA	0.0000	-SN BR	2800	0	0	0	1180
2019/05/16 09:56:01	BASE	15.30	114	17.65	120	-1.5	92	-2.5	0	0	979.7	NA	0.0000	-SN BR	2500	0	0	0	1210
2019/05/16 09:57:01	BASE	13.58	111	17.65	120	-1.5	93	-2.5	0	0	979.7	NA	0.0000	-SN BR	2200	0	0	0	1150
2019/05/16 09:58:01	BASE	12.91	111	17.65	120	-1.5	93	-2.5	0	0	979.7	NA	0.0000	-SN BR	1600	0	0	0	1210
2019/05/16 09:59:01	BASE	12.97	110	17.65	120	-1.5	93	-2.4	0	0	979.7	NA	0.0000	-SN BR	1300	0	0	0	1250
2019/05/16 10:00:01	BASE	13.17	117	17.65	120	-1.5	94	-2.4	0	0	979.6	NA	0.0000	-SN BR	1200	0	0	0	1150
2019/05/16 10:01:01	BASE	12.94	126	17.65	120	-1.6	94	-2.4	0	0	979.6	NA	0.0000	-SN BR	1100	0	0	0	1080
2019/05/16 10:02:01	BASE	12.70	118	17.59	119	-1.6	95	-2.3	0	0	979.6	NA	0.0000	-SN BR	1000	0	0	0	950
2019/05/16 10:03:01	BASE	12.10	110	17.59	119	-1.6	95	-2.2	0	0	979.7	NA	0.0000	-SN BR	0900	0	0	0	1020
2019/05/16 10:04:01	BASE	11.03	106	17.59	119	-1.6	96	-2.1	0	0	979.8	NA	0.0000	-SN BR	0900	0	0	0	1020
2019/05/16 10:05:01	BASE	10.74	103	16.67	113	-1.6	96	-2.1	0	0	979.8	NA	0.0000	-SN BR	0800	0	0	0	1080
2019/05/16 10:06:01	BASE	10.18	104	14.71	127	-1.6	97	-2.0	0	0	979.7	NA	0.0000	-SN BR	0800	0	0	0	1080
2019/05/16 10:07:01	BASE	9.95	111	14.71	127	-1.6	98	-1.9	0	0	979.7	NA	0.0000	+SN BR	0800	0	0	0	1020
2019/05/16 10:08:01	BASE	10.85	116	14.71	127	-1.6	98	-1.8	0	0	979.6	NA	0.0000	+SN BR	0800	0	0	0	920
2019/05/16 10:09:00	BASE	12.17	119	14.71	127	-1.6	99	-1.7	0	0	979.5	NA	0.0000	+SN BR	0750	0	0	0	980
2019/05/16 10:10:00	BASE	12.74	119	14.35	117	-1.6	99	-1.7	0	0	979.5	NA	0.0000	SN FZFG	0750	0	0	0	920
2019/05/16 10:11:00	BASE	12.50	120	14.35	117	-1.6	100	-1.6	0	0	979.5	NA	0.0000	SN FZFG	0750	0	0	0	890
2019/05/16 10:12:01	BASE	12.51	124	14.15	128	-1.6	100	-1.6	0	0	979.4	NA	0.0000	SN FZFG	0900	0	0	0	1050
2019/05/16 10:13:00	BASE	12.31	124	14.15	128	-1.5	100	-1.5	0	0	979.4	NA	0.0000	SN FZFG	0800	0	0	0	1050
2019/05/16 10:14:01	BASE	13.11	125	16.62	129	-1.5	100	-1.5	0	0	979.3	NA	0.0000	SN FZFG	0800	0	0	0	950
2019/05/16 10:15:01	BASE	14.87	129	16.77	132	-1.5	100	-1.5	0	0	979.1	NA	0.0000	SN FZFG	0900	0	0	0	950
2019/05/16 10:16:01	BASE	15.90	132	17.65	134	-1.6	100	-1.6	0	1	979.0	NA	0.0000	SN FZFG	0900	0	0	0	950
2019/05/16 10:17:00	BASE	14.71	133	17.65	134	-1.6	100	-1.6	0	0	979.0	NA	0.0000	SN FZFG	0800	0	0	0	980
2019/05/16 10:18:00	BASE	12.91	131	17.65	134	-1.6	100	-1.6	0	0	979.0	NA	0.0000	SN FZFG	0800	0	0	0	1080
2019/05/16 10:19:00	BASE	12.78	133	17.65	134	-1.6	100	-1.6	0	0	978.8	NA	0.0000	SN FZFG	0750	0	0	0	1150
2019/05/16 10:20:00	BASE	15.11	133	19.24	128	-1.6	100	-1.6	0	0	978.6	NA	0.0000	SN FZFG	0800	0	0	0	1150
2019/05/16 10:21:00	BASE	18.67	131	21.50	132	-1.6	100	-1.6	0	0	978.5	NA	0.0000	SN FZFG	0800	0	0	0	1150
2019/05/16 10:22:00	BASE	20.80	134	22.53	137	-1.6	100	-1.6	0	0	978.3	NA	0.0000	SN FZFG	0800	0	0	0	1050
2019/05/16 10:23:00	BASE	21.53	135	23.05	135	-1.7	100	-1.7	0	0	978.3	NA	0.0000	SN FZFG	0900	0	0	0	1050
2019/05/16 10:24:00	BASE	19.42	133	23.05	135	-1.7	100	-1.7	0	0	978.5	NA	0.0000	SN FZFG	1000	0	0	0	1210
2019/05/16 10:25:00	BASE	17.19	132	23.05	135	-1.7	100	-1.7	0	0	978.6	NA	0.0000	SN FZFG	0700	0	0	0	1280
2019/05/16 10:26:00	BASE	17.62	132	23.05	135	-1.7	100	-1.7	0	0	978.5	NA	0.0000	SN FZFG	0500	0	0	0	1310
2019/05/16 10:27:00	BASE	18.11	134	23.05	135	-1.7	100	-1.7	0	0	978.5	NA	0.0000	SN FZFG	0500	0	0	0	1380
2019/05/16 10:28:00	BASE	17.93	134	23.05	135	-1.7	100	-1.7	0	0	978.5	NA	0.0000	SN FZFG	0500	0	0	0	1440
2019/05/16 10:29:00	BASE	16.62	133	23.05	135	-1.7	100	-1.7	0	0	978.6	NA	0.0000	-SN FZFG	0600	0	0	0	1480
2019/05/16 10:30:00	BASE	14.34	136	23.05	135	-1.8	100	-1.8	0	0	978.5	NA	0.0000	-SN FZFG	0700	0	0	0	1480
2019/05/16 10:31:00	BASE	15.12	139	23.05	135	-1.8	100	-1.8	0	0	978.4	NA	0.0000	-SN FZFG	0750	0	0	0	1480
2019/05/16 10:32:00	BASE	17.19	139	23.05	135	-1.8	100	-1.8	0	0	978.3	NA	0.0000	-SN FZFG	0750	0	0	0	1670
2019/05/16 10:33:00	BASE	17.26	136	20.37	130	-1.8	100	-1.8	0	0	978.3	NA	0.0000	-SN FZFG	0800	0	0	0	1800
2019/05/16 10:34:01	BASE	16.18	136	20.37	130	-1.7	100	-1.7	0	0	978.4	NA	0.0000	UP FZFG	1000	0	0	0	1940
2019/05/16 10:35:01	BASE	15.29	133	20.37	130	-1.7	100	-1.7	0	0	978.4	NA	0.0000	UP FZFG	1200	0	0	0	1940
2019/05/16 10:36:01	BASE	15.04	131	20.37	130	-1.7	100	-1.7	0	0	978.4	NA	0.2540	UP FZFG	1300	0	0	0	1840
2019/05/16 10:37:01	BASE	14.31	131	20.37	130	-1.6	100	-1.6	0	0	978.4	NA	0.0000	UP FZFG	1300	0	0	0	1800
2019/05/16 10:38:01	BASE	14.42	135	19.65	134	-1.6	100	-1.6	0	0	978.3	NA	0.0000	UP BR	1300	0	0	0	1940
2019/05/16 10:39:01	BASE	15.02	136	19.65	134	-1.6	100	-1.6	0	0	978.3	NA	0.0000	UP BR	1300	0	0	0	1940
2019/05/16 10:40:01	BASE	14.53	133	19.65	134	-1.6	100	-1.6	0	0	978.3	NA	0.0000	UP BR	1300	0	0	0	1970
2019/05/16 10:41:01	BASE	12.58	130	19.65	134	-1.5	100	-1.6	0	0	978.3	NA	0.0000	UP BR	1500	0	0	0	2070
2019/05/16 10:42:01	BASE	10.02	125	19.24	129	-1.5	100	-1.5	0	0	978.2	NA	0.0000	UP BR	2100	0	0	0	2230
2019/05/16 10:43:01	BASE	8.44	115	17.85	144	-1.4	100	-1.4	0	0	978.3	NA	0.0000	UP BR	3700	0	0	0	2100
2019/05/16 10:44:01	BASE	7.69	109	17.85	144	-1.2	100	-1.2	0	0	978.3	NA	0.0000	-SN BR	3600	0	0	0	2070
2019/05/16 10:45:01	BASE	7.96	104	17.85	144	-0.9	100	-0.9	0	0	978.1	NA	0.0000	-SN BR	3600	0	0	0	2000
2019/05/16 10:46:01	BASE	9.11	99	17.85	144	-0.5	100	-0.5	0	0	978.1	NA	0.0000	-SN BR	3600	0	0	0	1870
2019/05/16 10:47:01	BASE	9.54	94	17.85	144	-0.2	100	-0.2	0	0	978.0	NA	0.2540	-SN BR	3400	0	0	0	1800
2019/05/16 10:48:01	BASE	11.25	78	18.01	65	0.2	100	0.2	0	0	978.0	NA	0.0000	-SN BR	3600	0	0	0	1800
2019/05/16 10:49:00	BASE	15.16	67	20.47	67	0.5	100	0.5	0	0	977.8	NA	0.0000	-SN BR	4000	300	0	0	0
2019/05/16 10:50:01	BASE	17.62	65	21.86	60	0.7	100	0.7	0	0	977.8	NA	0.0000	-SN BR	2500	0	0	0	1870
2019/05/16 10:51:00	BASE	18.37	68	21.86	60	0.8	100	0.8	0	0	977.8	NA	0.0000	-SN BR	1900	330	0	0	0
2019/05/16 10:52:00	BASE	17.78	67	21.86	60	1.0	100	1.0	0	0	977.7	NA	0.0000	-SN BR	1900	300	0	0	0
2019/05/16 10:53:00	BASE	17.48	63	21.86	60	1.1	100	1.1	0	0	977.6	NA	0.0000	-SN BR	2500	0	0	0	1610
2019/05/16 10:54:01	BASE	19.58	60	22.48	55	1.1	100	1.1	0	0	977.5	NA	0.0000	-SN BR	2500	300	0	0	0
2019/05/16 10:55:00	BASE	20.36	57	22.48	55	1.2	100	1.2	0	0	977.4	NA	0.0000	-SN BR	1900	300	0	0	0
2019/05/16 10:56:01	BASE	19.72	55	22.58	51	1.2	100	1.2	0	0	977.4	NA	0.0000	-SN BR	2700	0	0	0	2300
2019/05/16 10:57:00	BASE	20.24	55	24.64	54	1.2	100	1.2	0	0	977.3	NA	0.0000	-SN BR	5000	0	0	0	2000
2019/05/16 10:58:00	BASE	21.68	56	27.27	50	1.3	100	1.3	0	0	977.3	NA	0.2540	-SN BR	5000	0	0	0	1940
2019/05/16 10:59:00	BASE	23.50	54	27.47	54	1.3	100	1.3	0	0	977.2	NA	0.0000	-SN BR	4500	0	0	0	1870
2019/05/16 11:00:00	BASE	23.18	53	27.57	53	1.3	100	1.3	0	0	977.2	NA	0.0000	-SN BR	2500	0	0	0	1710
2019/05/16 11:01:00	BASE	21.68	54	27.57	53	1.3	100	1.3	0	0	977.2	NA	0.0000	-SN BR	2600	0	0	0	1740
2019/05/16 11:02:00	BASE	21.17	53	27.57	53	1.3	100	1.3	0	0	977.2	NA	0.0000	-SN BR	4900	0	0	0	1870
2019/05/16 11:03:00	BASE	21.45	51	27.57	53	1.3	100	1.3	0	0	977.2	NA	0.0000	-SN BR	4700	0	0	0	1840
2019/05/16 11:04:00	BASE	21.09	51	27.57	53	1.4	100	1.4	0	0	977.2	NA	0.0000	-SN BR	4500	0	0	0	1770
2019/05/16 11:05:00	BASE	19.62	48	27.57	53	1.4	100	1.4	0	0	977.2	NA	0.0000	-SN BR	4400	0	0	0	1870
2019/05/16 11:06:00	BASE	19.72	48	27.57	53	1.4	100	1.4	0	0	977.1	NA	0.0000	-SN BR	4800	890	0	0	0
2019/05/16 11:07:00	BASE	20.39	46	27.57	53	1.4	100	1.4	0	0	977.0	NA	0.0000	-SN BR	4500	0	0	0	1900
2019/05/16 11:08:00	BASE	19.22	42	27.57	53	1.5	100	1.5	0	0	977.1	NA	0.2540	-SN BR	4900	0	0	0	2030
2019/05/16 11:09:00	BASE	19.10	44	27.57	53	1.5	100	1.5	0	0	977.0	NA	0.0000	-SN BR	5000	0	0	0	2100
2019/05/16 11:10:00	BASE	20.06	46	27.32	48	1.5	100	1.5	0	0	977.0	NA	0.0000	-SN BR	5000	430	0	0	0
2019/05/16 11:11:00	BASE	20.48	45	27.32	48	1.5	100	1.5	0	0	977.0	NA	0.0000	-SN BR	5000	0	0	0	2070
2019/05/16 11:12:00	BASE	19.73	45	27.32	48	1.5	100	1.5	0	0	977.0	NA	0.0000	-SN BR	5000	0	0	0	2100
2019/05/16 11:13:00	BASE	18.78	43	27.32	48	1.6	100	1.6	0	0	976.9	NA	0.0000	-SN BR	7000	0	0	0	2070
2019/05/16 11:14:00	BASE	18.22	41	27.32	48	1.6	100	1.6	0	0	976.9	NA	0.0000	-SN BR	9000	0	0	0	2130
2019/05/16 11:15:00	BASE	17.56	42	27.32	48	1.6	100	1.6	0	0	976.9	NA	0.0000	-SN BR	9000	0	0	0	2130
2019/05/16 11:16:00	BASE	17.35	43	27.32	48	1.6	100	1.6	0	0	976.9	NA	0.0000	-SN BR	7000	0	0	0	2070
2019/05/16 11:17:00	BASE	19.01	44	24.74	44	1.6	100	1.6	0	0	976.7	NA	0.0000	-SN BR	6000	0	0	0	2000
2019/05/16 11:18:00	BASE	21.10	44	24.74	44	1.6	100	1.6	0	0	976.6	NA	0.0000	-SN BR	6000	0	0	0	2000
2019/05/16 11:19:00	BASE	21.64	45	24.74	44	1.6	100	1.6	0	0	976.6	NA	0.0000	-SN BR	5000	0	0	0	2130
2019/05/16 11:20:00	BASE	22.29	46	25.31	45	1.6	100	1.6	0	0	976.5	NA	0.0000	-SN BR	4200	0	0	0	2200
2019/05/16 11:21:00	BASE	22.58	45	25.31	45	1.6	100	1.6	0	0	976.4	NA	0.0000	-SN BR	4600	0	0	0	2170
2019/05/16 11:22:00	BASE	21.78	43	25.31	45	1.6	100	1.6	0	0	976.4	NA	0.0000	-SN BR	5000	0	0	0	2170
2019/05/16 11:23:00	BASE	21.47	43	25.31	45	1.5	100	1.5	0	0	976.4	NA	0.0000	-SN BR	4900	330	0	0	0
2019/05/16 11:24:01	BASE	22.68	45	26.34	37	1.5	100	1.5	0	0	976.2	NA	0.0000	-SN BR	3900	0	0	0	1840
2019/05/16 11:25:01	BASE	23.92	47	27.01	51	1.5	100	1.5	0	0	976.2	NA	0.0000	-SN BR	3400	0	0	0	1840
2019/05/16 11:26:01	BASE	24.44	44	27.01	51	1.5	100	1.5	0	0	976.2	NA	0.0000	-SN BR	3700	0	0	0	2000
2019/05/16 11:27:01	BASE	23.84	43	27.01	51	1.5	100	1.5	0	0	976.2	NA	0.0000	-SN BR	4000	0	0	0	2200
2019/05/16 11:28:01	BASE	23.15	43	27.57	45	1.5	100	1.5	0	0	976.2	NA	0.0000	-SN BR	4400	0	0	0	2030
2019/05/16 11:29:01	BASE	23.48	46	27.93	50	1.5	100	1.5	0	0	976.1	NA	0.0000	-SN BR	4800	0	0	0	2300
2019/05/16 11:30:00	BASE	24.67	48	28.55	46	1.5	100	1.5	0	0	976.0	NA	0.0000	-SN BR	4700	0	0	0	2530
2019/05/16 11:31:00	BASE	24.64	44	28.55	46	1.5	100	1.5	0	0	976.0	NA	0.0000	-SN BR	4700	0	0	0	2620
2019/05/16 11:32:00	BASE	24.95	44	30.76	37	1.5	100	1.5	0	0	975.9	NA	0.0000	-SN BR	5000	0	0	0	2790
2019/05/16 11:33:00	BASE	26.66	45	30.76	43	1.5	100	1.5	0	0	975.8	NA	0.0000	-SN BR	6000	0	0	0	2790
2019/05/16 11:34:00	BASE	26.37	45	30.76	43	1.6	100	1.6	0	0	975.9	NA	0.2540	-SN BR	5000	0	0	0	2890
2019/05/16 11:35:00	BASE	24.83	45	30.76	43	1.6	100	1.6	0	0	975.8	NA	0.0000	-SN BR	4500	0	0	0	2720
2019/05/16 11:36:00	BASE	25.85	48	30.76	43	1.6	100	1.6	0	0	975.7	NA	0.0000	-SN BR	5000	0	0	0	2920
2019/05/16 11:37:00	BASE	25.90	52	30.76	43	1.7	100	1.7	0	0	975.8	NA	0.0000	-SN BR	7000	0	0	0	3050
2019/05/16 11:38:00	BASE	25.53	49	30.76	43	1.7	100	1.7	0	0	975.6	NA	0.0000	-SN BR	7000	0	0	0	3120
2019/05/16 11:39:00	BASE	25.58	44	30.76	43	1.7	100	1.7	0	0	975.6	NA	0.0000	-SN BR	6000	0	0	0	3180
2019/05/16 11:40:00	BASE	25.23	47	30.76	43	1.7	100	1.7	0	0	975.5	NA	0.0000	-SN BR	6000	0	0	0	3640
2019/05/16 11:41:00	BASE	25.35	50	30.76	43	1.7	100	1.7	0	0	975.5	NA	0.0000	-SN BR	7000	390	0	0	0
2019/05/16 11:42:01	BASE	25.92	50	30.76	43	1.7	100	1.7	0	0	975.4	NA	0.0000	-SN BR	6000	0	0	0	3610
2019/05/16 11:43:01	BASE	26.34	51	30.40	45	1.7	100	1.7	0	0	975.3	NA	0.0000	-SN BR	6000	0	0	0	3480
2019/05/16 11:44:01	BASE	25.70	51	30.76	50	1.7	100	1.7	0	0	975.2	NA	0.0000	-SN BR	6000	0	0	0	3510
2019/05/16 11:45:01	BASE	25.97	50	30.76	50	1.7	100	1.7	0	0	975.2	NA	0.0000	-SN BR	7000	0	0	0	3480
2019/05/16 11:46:01	BASE	26.62	49	30.76	50	1.7	100	1.7	0	0	975.0	NA	0.0000	-SN BR	8000	0	0	0	3610
2019/05/16 11:47:01	BASE	27.23	46	30.87	50	1.6	100	1.6	0	0	974.8	NA	0.0000	-SN BR	8000	0	0	0	5180
2019/05/16 11:48:01	BASE	26.94	48	30.87	50	1.6	100	1.6	0	0	974.8	NA	0.0000	-SN BR	8000	0	0	0	5510
2019/05/16 11:49:01	BASE	29.34	49	36.89	45	1.7	100	1.7	0	0	974.5	NA	0.0000	-SN BR	7000	5050	0	0	0
2019/05/16 11:50:01	BASE	29.90	48	36.89	45	1.7	100	1.7	0	0	974.6	NA	0.0000	-SN BR	7000	4890	0	0	0
2019/05/16 11:51:01	BASE	27.95	49	36.89	45	1.7	100	1.7	0	0	974.5	NA	0.0000	-SN BR	8000	0	0	0	2030
2019/05/16 11:52:01	BASE	31.75	46	41.93	43	1.7	100	1.7	0	0	974.1	NA	0.0000	-SN BR	8000	5280	0	0	0
2019/05/16 11:53:01	BASE	34.31	44	41.93	43	1.7	100	1.7	0	0	974.2	NA	0.0000	-SN BR	7000	5090	0	0	0
2019/05/16 11:54:01	BASE	31.21	43	41.93	43	1.7	100	1.7	0	0	974.3	NA	0.0000	-SN BR	7000	4890	0	0	0
2019/05/16 11:55:01	BASE	29.61	45	41.93	43	1.7	100	1.7	0	0	974.3	NA	0.0000	-SN BR	8000	4950	0	0	0
2019/05/16 11:56:01	BASE	30.04	48	41.93	43	1.7	100	1.7	0	0	974.2	NA	0.0000	-SN BR	8000	4720	0	0	0
2019/05/16 11:57:01	BASE	32.44	49	41.93	43	1.7	100	1.7	0	0	974.0	NA	0.0000	-SN BR	9000	4920	0	0	0
2019/05/16 11:58:01	BASE	33.40	50	41.93	43	1.7	100	1.7	0	0	974.2	NA	0.0000	-SN BR	8000	4790	0	0	0
2019/05/16 11:59:01	BASE	32.48	50	41.93	43	1.6	100	1.6	0	0	974.2	NA	0.0000	-SN BR	9000	4890	0	0	0
2019/05/16 12:00:01	BASE	31.01	48	41.93	43	1.6	100	1.6	0	0	974.3	NA	0.0000	-SN BR	9999	4760	0	0	0
2019/05/16 12:01:00	BASE	31.45	49	41.93	43	1.6	100	1.6	0	0	974.2	NA	0.0000	-SN BR	9999	4270	0	0	0
2019/05/16 12:02:01	BASE	32.26	49	38.74	55	1.6	100	1.6	0	0	974.3	NA	0.0000	-SN BR	9999	4200	0	0	0
2019/05/16 12:03:00	BASE	29.13	47	38.74	55	1.6	100	1.6	0	0	974.4	NA	0.0000	-SN BR	9999	0	0	0	4990
2019/05/16 12:04:00	BASE	29.02	47	38.74	55	1.6	100	1.6	0	0	974.4	NA	0.0000	-SN BR	9999	4630	0	0	0
2019/05/16 12:05:01	BASE	29.38	46	38.74	55	1.6	100	1.6	0	0	974.5	NA	0.0000	-SN	9999	4690	0	0	0
2019/05/16 12:06:00	BASE	29.64	45	38.74	55	1.5	100	1.5	0	0	974.5	NA	0.0000	-SN	9999	0	0	0	5150
2019/05/16 12:07:00	BASE	29.98	46	38.74	55	1.5	100	1.5	0	0	974.6	NA	0.0000	-SN	9000	0	0	0	5150
2019/05/16 12:08:01	BASE	28.24	47	38.74	55	1.5	100	1.5	0	0	974.7	NA	0.0000	-SN	9999	0	0	0	5090
2019/05/16 12:09:01	BASE	27.38	48	38.74	55	1.5	100	1.5	0	0	974.8	NA	0.0000	-SN	9999	0	0	0	5120
2019/05/16 12:10:00	BASE	26.19	45	38.74	55	1.6	100	1.6	0	0	974.8	NA	0.0000	-SN	9000	0	0	0	4890
2019/05/16 12:11:00	BASE	24.20	48	35.60	41	1.6	100	1.6	0	0	975.0	NA	0.0000	-SN	9000	0	0	0	4990
2019/05/16 12:12:00	BASE	23.53	48	35.60	41	1.6	100	1.6	0	0	975.1	NA	0.0000	-SN BR	9000	0	0	0	5090
2019/05/16 12:13:00	BASE	21.03	44	35.60	41	1.6	100	1.6	0	0	975.2	NA	0.0000	-SN BR	9000	0	0	0	5090
2019/05/16 12:14:00	BASE	18.83	49	35.60	41	1.6	100	1.6	0	0	975.1	NA	0.0000	-SN BR	9000	0	0	0	5020
2019/05/16 12:15:00	BASE	19.93	49	35.60	41	1.6	100	1.6	0	0	975.1	NA	0.0000	-SN BR	8000	0	0	0	3510
2019/05/16 12:16:00	BASE	19.23	44	35.60	41	1.6	100	1.6	0	0	975.1	NA	0.0000	-SN BR	8000	0	0	0	2920
2019/05/16 12:17:00	BASE	16.82	47	31.90	47	1.6	100	1.6	0	0	975.1	NA	0.0000	-SN BR	7000	0	0	0	2850
2019/05/16 12:18:00	BASE	16.96	49	31.90	47	1.6	100	1.6	0	0	975.1	NA	0.0000	-SN BR	6000	0	0	0	2690
2019/05/16 12:19:00	BASE	16.66	46	31.18	20	1.6	100	1.6	0	0	975.3	NA	0.0000	-SN BR	8000	0	0	0	5020
2019/05/16 12:20:00	BASE	16.73	44	31.12	45	1.7	100	1.7	0	0	975.1	NA	0.0000	-SN BR	9000	0	0	0	5050
2019/05/16 12:21:00	BASE	18.13	43	31.12	45	1.7	100	1.7	0	0	975.1	NA	0.0000	-SN BR	9999	0	0	0	5120
2019/05/16 12:22:00	BASE	18.90	45	26.65	34	1.7	100	1.7	0	0	975.0	NA	0.0000	-SN BR	9000	0	0	0	5120
2019/05/16 12:23:00	BASE	19.57	55	26.65	34	1.7	100	1.7	0	0	975.1	NA	0.0000	-SN BR	8000	0	0	0	5120
2019/05/16 12:24:00	BASE	18.53	58	29.53	58	1.7	100	1.7	0	0	975.4	NA	0.0000	-SN BR	8000	0	0	0	2030
2019/05/16 12:25:00	BASE	16.79	53	29.53	58	1.7	100	1.7	0	0	975.6	NA	0.0000	-SN BR	9000	0	0	0	1970
2019/05/16 12:26:00	BASE	14.69	47	29.53	58	1.7	100	1.7	0	0	975.6	NA	0.0000	-SN BR	9999	0	0	0	2030
2019/05/16 12:27:00	BASE	14.56	42	29.53	58	1.8	100	1.8	0	0	975.7	NA	0.0000	-SN BR	9999	0	0	0	1940
2019/05/16 12:28:00	BASE	13.68	51	29.53	58	1.8	100	1.8	0	0	975.7	NA	0.0000	-SN BR	9999	0	0	0	1840
2019/05/16 12:29:00	BASE	10.64	47	29.53	58	1.7	100	1.7	0	0	975.8	NA	0.0000	-SN BR	9999	0	0	0	5280
2019/05/16 12:30:00	BASE	10.75	36	29.53	58	1.7	100	1.7	0	0	975.7	NA	0.0000	-SN	9999	0	0	0	3020
2019/05/16 12:31:00	BASE	12.58	71	29.53	58	1.8	100	1.8	0	0	975.6	NA	0.0000	-SN	9999	0	0	0	5120
2019/05/16 12:32:00	BASE	10.89	115	29.53	58	1.7	100	1.7	0	0	975.9	NA	0.0000	-SN	9999	4720	0	0	0
2019/05/16 12:33:01	BASE	9.07	126	29.53	58	1.6	100	1.5	0	0	975.7	NA	0.0000	-SN	9999	3810	0	0	0
2019/05/16 12:34:01	BASE	7.65	143	24.74	42	1.3	99	1.2	0	0	975.9	NA	0.0000	-SN	9999	0	0	0	4920
2019/05/16 12:35:01	BASE	7.42	100	24.74	42	1.0	99	0.9	0	0	975.7	NA	0.0000	-SN	9999	3900	0	0	0
2019/05/16 12:36:01	BASE	9.07	42	24.74	42	1.0	99	0.8	0	0	975.6	NA	0.0000	-SN	9999	3810	0	0	0
2019/05/16 12:37:01	BASE	10.90	42	24.74	42	1.1	99	1.0	0	0	975.6	NA	0.0000	-SN	9999	3900	0	0	0
2019/05/16 12:38:00	BASE	10.65	48	24.74	42	1.3	99	1.2	0	0	975.6	NA	0.0000	-SN	9999	3970	0	0	0
2019/05/16 12:39:00	BASE	7.07	82	24.74	42	1.6	100	1.6	0	0	975.6	NA	0.0000	-SN	9999	4100	0	0	0
2019/05/16 12:40:00	BASE	8.76	66	24.74	42	2.0	100	1.9	0	0	975.5	NA	0.0000	-SN	9999	4330	0	0	0
2019/05/16 12:41:00	BASE	9.64	41	20.17	40	2.1	100	2.0	0	0	975.5	NA	0.0000	-SN	9999	4430	0	0	0
2019/05/16 12:42:00	BASE	5.81	29	20.17	40	2.1	99	2.0	0	0	975.5	NA	0.0000	-SN	9999	4560	0	0	0
2019/05/16 12:43:00	BASE	7.73	17	20.17	40	2.2	99	2.0	0	0	975.6	NA	0.0000	-SN	9999	4630	0	0	0
2019/05/16 12:44:00	BASE	11.03	27	20.17	40	2.3	99	2.1	0	0	975.6	NA	0.0000	-SN	9999	4530	0	0	0
2019/05/16 12:45:00	BASE	11.55	39	20.17	40	2.3	99	2.2	0	0	975.6	NA	0.0000	-SN	9999	4430	0	0	0
2019/05/16 12:46:00	BASE	10.51	54	20.17	40	2.4	99	2.2	0	0	975.6	NA	0.0000	-SN	9999	0	0	0	4890
2019/05/16 12:47:00	BASE	10.56	50	18.47	6	2.4	99	2.2	0	0	975.4	NA	0.0000	-SN	9999	0	0	0	4720
2019/05/16 12:48:00	BASE	14.23	46	22.79	38	2.4	99	2.2	0	0	975.6	NA	0.0000	-SN	9999	4460	0	0	0
2019/05/16 12:49:00	BASE	15.75	49	22.79	38	2.4	99	2.2	0	0	975.5	NA	0.0000	-SN	9999	4590	0	0	0
2019/05/16 12:50:00	BASE	15.58	40	22.79	38	2.3	99	2.2	0	0	975.3	NA	0.0000	-SN	9999	0	0	0	4760
2019/05/16 12:51:01	BASE	15.06	39	22.79	38	2.3	99	2.2	0	0	975.3	NA	0.0000	-SN	9999	4230	0	0	0
2019/05/16 12:52:01	BASE	16.33	46	23.51	51	2.3	99	2.2	0	0	975.4	NA	0.0000	-SN	9999	4200	0	0	0
2019/05/16 12:53:01	BASE	19.15	42	25.83	31	2.3	99	2.2	0	0	975.2	NA	0.0000	-SN	9999	4330	0	0	0
2019/05/16 12:54:01	BASE	18.95	33	25.83	31	2.3	99	2.2	0	0	975.3	NA	0.0000	-SN	9999	4460	0	0	0
2019/05/16 12:55:01	BASE	14.72	33	25.83	31	2.4	99	2.2	0	0	975.5	NA	0.0000	-SN	9999	0	0	0	4690
2019/05/16 12:56:01	BASE	12.60	46	25.83	31	2.4	99	2.2	0	0	975.3	NA	0.0000	-SN	9999	0	0	0	4590
2019/05/16 12:57:01	BASE	13.28	44	25.83	31	2.4	99	2.3	0	0	975.4	NA	0.0000	-SN	9999	0	0	0	4530
2019/05/16 12:58:01	BASE	12.17	31	25.83	31	2.5	99	2.3	0	0	975.3	NA	0.0000	-SN	9999	4070	0	0	0
2019/05/16 12:59:01	BASE	11.51	30	25.83	31	2.5	99	2.4	0	0	975.3	NA	0.0000	-SN	9999	4130	0	0	0
2019/05/16 13:00:01	BASE	14.71	29	25.83	31	2.6	99	2.4	0	0	975.0	NA	0.0000		9999	3770	0	0	0
2019/05/16 13:01:01	BASE	17.51	32	25.83	31	2.6	99	2.5	0	0	975.0	NA	0.0000		9999	3840	0	0	0
2019/05/16 13:02:01	BASE	16.28	35	25.83	31	2.7	99	2.5	0	0	975.0	NA	0.0000		9999	3710	0	0	0
2019/05/16 13:03:01	BASE	18.64	33	28.40	26	2.7	99	2.5	0	0	974.7	NA	0.0000		9999	3710	0	0	0
2019/05/16 13:04:01	BASE	22.56	22	28.86	14	2.8	98	2.5	0	0	974.5	NA	0.0000		9999	3870	0	0	0
2019/05/16 13:05:01	BASE	24.72	15	31.07	9	2.8	98	2.5	0	0	974.3	NA	0.0000		9999	3970	0	0	0
2019/05/16 13:06:01	BASE	26.45	16	31.18	17	2.8	98	2.5	0	0	974.3	NA	0.0000		9999	0	0	0	4170
2019/05/16 13:07:01	BASE	23.44	22	31.18	17	2.8	98	2.5	0	0	974.5	NA	0.0000	-SN	9999	3710	0	0	0
2019/05/16 13:08:01	BASE	20.56	29	31.18	17	2.8	98	2.5	0	0	974.4	NA	0.0000	-SN	9999	3740	0	0	0
2019/05/16 13:09:01	BASE	22.98	33	32.72	23	2.8	98	2.5	0	0	974.1	NA	0.0000	-SN	9999	3670	0	0	0
2019/05/16 13:10:01	BASE	26.07	31	32.72	23	2.8	98	2.5	0	0	973.9	NA	0.0000	-SN	9999	0	0	0	3810
2019/05/16 13:11:01	BASE	26.84	31	32.72	23	2.8	98	2.4	0	0	973.8	NA	0.0000	-SN	9999	0	0	0	4000
2019/05/16 13:12:01	BASE	29.37	29	35.14	28	2.7	97	2.4	0	0	973.4	NA	0.0000	-SN	9999	3640	0	0	0
2019/05/16 13:13:00	BASE	32.38	26	36.32	22	2.7	97	2.3	0	0	973.5	NA	0.0000	-SN	9999	3540	0	0	0
2019/05/16 13:14:01	BASE	32.46	22	36.37	16	2.7	97	2.3	0	0	973.8	NA	0.0000	-SN	9999	0	0	0	4040
2019/05/16 13:15:01	BASE	30.27	16	36.37	16	2.7	97	2.3	0	0	974.0	NA	0.0000	-SN	9999	0	0	0	4230
2019/05/16 13:16:01	BASE	26.70	10	36.37	16	2.7	98	2.4	0	0	974.2	NA	0.0000	-SN	9999	0	0	0	4130
2019/05/16 13:17:00	BASE	23.77	9	36.37	16	2.7	98	2.4	0	0	974.3	NA	0.0000	-SN	9999	0	0	0	4170
2019/05/16 13:18:01	BASE	21.46	8	36.37	16	2.7	98	2.4	0	0	974.3	NA	0.0000	-SN	9999	0	0	0	4200
2019/05/16 13:19:00	BASE	21.64	6	36.37	16	2.6	98	2.4	0	0	974.3	NA	0.0000	-SN	9999	0	0	0	4300
2019/05/16 13:20:00	BASE	21.32	10	36.37	16	2.6	98	2.4	0	0	974.4	NA	0.0000	-SN	9999	0	0	0	4170
2019/05/16 13:21:00	BASE	21.19	12	36.37	16	2.6	99	2.4	1	0	974.5	NA	0.0000	-SN	9999	4130	0	0	0
2019/05/16 13:22:01	BASE	22.19	15	36.37	16	2.6	99	2.5	0	0	974.5	NA	0.0000	-SN	9999	3220	0	0	0
2019/05/16 13:23:00	BASE	24.02	20	36.37	16	2.7	99	2.5	1	0	974.3	NA	0.0000	-SN	9999	3770	0	0	0
2019/05/16 13:24:01	BASE	25.32	18	30.82	11	2.7	99	2.5	1	0	974.4	NA	0.0000	-SN	9999	3610	0	0	0
2019/05/16 13:25:01	BASE	22.59	18	29.37	26	2.7	98	2.5	1	0	974.5	NA	0.0000	-SN	9999	690	3770	0	0
2019/05/16 13:26:01	BASE	22.01	22	29.37	26	2.6	98	2.4	1	0	974.4	NA	0.0000	-SN	9999	590	3870	0	0
2019/05/16 13:27:00	BASE	22.91	18	29.37	26	2.6	98	2.3	1	0	974.4	NA	0.0000	-SN	9999	620	0	0	0
2019/05/16 13:28:00	BASE	19.96	8	29.37	26	2.5	98	2.2	1	0	974.6	NA	0.0000	-SN	9999	4100	0	0	0
2019/05/16 13:29:00	BASE	18.07	15	29.37	26	2.5	98	2.2	1	0	974.8	NA	0.0000	-SN	9999	0	0	0	4400
2019/05/16 13:30:01	BASE	20.06	29	29.37	26	2.5	99	2.3	1	0	974.7	NA	0.0000	-SN	9999	0	0	0	4270
2019/05/16 13:31:00	BASE	21.43	29	29.37	26	2.5	99	2.3	1	0	974.6	NA	0.0000	-SN	9999	0	0	0	3940
2019/05/16 13:32:01	BASE	20.93	27	29.37	26	2.5	99	2.3	1	0	974.6	NA	0.0000	-SN	9999	0	0	0	3840
2019/05/16 13:33:00	BASE	19.74	23	28.96	15	2.5	99	2.3	1	0	974.7	NA	0.0000	-SN	9999	0	0	0	4100
2019/05/16 13:34:00	BASE	20.75	26	27.83	14	2.5	99	2.4	1	0	974.6	NA	0.0000	-SN	9999	0	0	0	4200
2019/05/16 13:35:00	BASE	23.29	29	27.83	14	2.5	99	2.4	1	0	974.6	NA	0.0000	-SN	9999	0	0	0	4300
2019/05/16 13:36:00	BASE	24.61	27	27.83	14	2.5	99	2.4	1	0	974.5	NA	0.0000	-SN	9999	0	0	0	3120
2019/05/16 13:37:00	BASE	24.76	29	30.61	32	2.5	99	2.4	1	0	974.5	NA	0.2540	-SN	9999	0	0	0	4100
2019/05/16 13:38:00	BASE	21.86	29	30.61	32	2.5	99	2.3	1	0	974.6	NA	0.0000	-SN	9999	0	0	0	4200
2019/05/16 13:39:00	BASE	21.50	30	30.61	32	2.4	99	2.3	1	0	974.5	NA	0.0000	-SN	9999	0	0	0	4230
2019/05/16 13:40:01	BASE	25.57	32	31.12	34	2.4	99	2.3	1	0	974.3	NA	0.0000	-SN	9999	0	0	0	3310
2019/05/16 13:41:01	BASE	26.20	31	31.12	34	2.4	99	2.3	1	0	974.4	NA	0.0000	-SN	9999	0	0	0	3350
2019/05/16 13:42:01	BASE	24.36	28	31.12	34	2.4	100	2.3	1	0	974.4	NA	0.0000	-SN	9999	0	0	0	3280
2019/05/16 13:43:01	BASE	25.01	28	31.12	34	2.4	100	2.3	1	0	974.3	NA	0.0000	-SN	9999	0	0	0	3050
2019/05/16 13:44:01	BASE	24.71	29	31.12	34	2.4	100	2.3	1	0	974.3	NA	0.0000	-SN	9999	0	0	0	2890
2019/05/16 13:45:01	BASE	24.49	28	31.12	34	2.3	100	2.3	1	0	974.2	NA	0.0000	-SN	9999	0	0	0	2850
2019/05/16 13:46:01	BASE	25.32	31	31.12	34	2.3	100	2.3	1	0	974.1	NA	0.0000	-SN	9999	0	0	0	2590
2019/05/16 13:47:01	BASE	25.25	32	31.12	34	2.3	100	2.3	1	0	974.1	NA	0.0000	-SN	9999	0	0	0	2820
2019/05/16 13:48:01	BASE	26.79	33	31.12	34	2.3	100	2.3	1	0	974.0	NA	0.0000	-SN	9000	0	0	0	2920
2019/05/16 13:49:01	BASE	25.39	33	31.12	34	2.2	100	2.2	1	0	974.0	NA	0.0000	-SN	9999	0	0	0	3050
2019/05/16 13:50:01	BASE	24.74	34	33.34	48	2.2	100	2.2	1	0	973.8	NA	0.0000	-SN	9999	0	0	0	3610
2019/05/16 13:51:00	BASE	26.36	37	33.34	48	2.2	100	2.2	2	0	973.8	NA	0.0000	-SN	9000	0	0	0	3940
2019/05/16 13:52:00	BASE	27.75	37	33.59	33	2.1	100	2.1	2	0	973.7	NA	0.0000	-SN	8000	0	0	0	3900
2019/05/16 13:53:01	BASE	28.07	35	33.59	33	2.1	100	2.1	2	0	973.7	NA	0.0000	-SN	9000	0	0	0	3670
2019/05/16 13:54:01	BASE	27.14	33	33.59	33	2.1	100	2.1	2	0	973.7	NA	0.0000	-SN	9999	0	0	0	3540
2019/05/16 13:55:01	BASE	28.19	33	33.59	33	2.1	100	2.1	2	0	973.8	NA	0.0000	-SN	9999	0	0	0	6330
2019/05/16 13:56:01	BASE	26.46	33	33.59	33	2.1	100	2.1	2	0	973.9	NA	0.0000	-SN	9999	0	0	0	4230
2019/05/16 13:57:01	BASE	25.16	33	33.80	40	2.1	100	2.1	2	0	973.9	NA	0.0000	-SN	9999	0	0	0	5940
2019/05/16 13:58:01	BASE	27.50	29	33.80	40	2.1	100	2.1	2	0	973.7	NA	0.0000	-SN	9999	0	0	0	6040
2019/05/16 13:59:01	BASE	29.58	25	33.80	40	2.1	100	2.1	2	0	973.7	NA	0.0000	-SN	9999	5250	0	0	0
2019/05/16 14:00:01	BASE	28.57	22	33.80	40	2.1	100	2.1	2	0	973.8	NA	0.0000	-SN	9999	0	0	0	5540
2019/05/16 14:01:01	BASE	26.75	22	33.80	40	2.1	100	2.1	3	0	973.8	NA	0.0000	-SN	9999	0	0	0	5710
2019/05/16 14:02:01	BASE	27.50	28	33.80	40	2.1	100	2.1	3	0	973.7	NA	0.0000	-SN	9999	0	0	0	1510
2019/05/16 14:03:01	BASE	29.78	31	35.70	30	2.2	100	2.2	3	0	973.7	NA	0.0000	-SN	9999	0	0	0	1970
2019/05/16 14:04:01	BASE	31.62	31	36.17	29	2.2	100	2.2	3	0	973.5	NA	0.0000	-SN	9999	0	0	0	2260
2019/05/16 14:05:01	BASE	32.72	35	37.04	40	2.2	100	2.2	3	0	973.5	NA	0.0000	-SN	6000	0	0	0	6300
2019/05/16 14:06:01	BASE	31.88	35	37.04	40	2.2	100	2.2	3	0	973.7	NA	0.0000	-SN	7000	0	0	0	6300
2019/05/16 14:07:01	BASE	29.31	33	37.04	40	2.2	100	2.2	4	0	973.9	NA	0.0000	-SN	9999	5640	0	0	0
2019/05/16 14:08:01	BASE	26.72	30	37.04	40	2.2	100	2.2	4	0	973.9	NA	0.0000	-SN	9999	0	0	0	2330
2019/05/16 14:09:01	BASE	25.28	29	37.04	40	2.1	100	2.1	5	0	974.0	NA	0.0000	-SN	9999	0	0	0	2330
2019/05/16 14:10:01	BASE	27.21	30	37.04	40	2.1	100	2.1	5	0	973.8	NA	0.0000	-SN	9999	6170	0	0	0
2019/05/16 14:11:01	BASE	29.05	33	37.04	40	2.1	100	2.1	5	0	973.7	NA	0.0000	-SN	8000	0	0	0	1970
2019/05/16 14:12:01	BASE	30.07	36	37.04	40	2.1	100	2.1	5	0	973.5	NA	0.0000	-SN BR	9000	0	0	0	1870
2019/05/16 14:13:01	BASE	31.70	38	37.04	40	2.1	100	2.1	5	0	973.5	NA	0.0000	-SN BR	9999	5610	0	0	0
2019/05/16 14:14:01	BASE	32.37	38	37.04	40	2.2	100	2.2	5	0	973.6	NA	0.0000	-SN BR	9000	5740	0	0	0
2019/05/16 14:15:01	BASE	33.02	37	36.99	33	2.2	100	2.2	4	0	973.5	NA	0.0000	-SN BR	9000	5480	0	0	0
2019/05/16 14:16:01	BASE	32.26	38	36.99	33	2.2	100	2.2	4	0	973.6	NA	0.0000	-SN	9000	5710	0	0	0
2019/05/16 14:17:01	BASE	30.34	37	36.99	33	2.2	100	2.2	3	0	973.6	NA	0.0000	-SN	9999	0	0	0	6040
2019/05/16 14:18:01	BASE	30.14	36	36.99	33	2.2	100	2.2	3	0	973.7	NA	0.0000	-SN BR	9999	0	0	0	6000
2019/05/16 14:19:01	BASE	30.09	35	36.99	33	2.2	100	2.2	3	0	973.7	NA	0.0000	-SN BR	9999	0	0	0	5380
2019/05/16 14:20:01	BASE	29.05	34	36.83	34	2.2	100	2.2	3	0	973.7	NA	0.0000	-SN BR	9999	0	0	0	4990
2019/05/16 14:21:01	BASE	29.13	32	36.83	34	2.2	100	2.2	4	0	973.6	NA	0.0000	-SN	9999	0	0	0	4760
2019/05/16 14:22:01	BASE	31.09	31	36.83	34	2.3	100	2.3	4	0	973.6	NA	0.0000	-SN	9999	0	0	0	4860
2019/05/16 14:23:00	BASE	30.32	31	36.83	34	2.3	100	2.3	4	0	973.8	NA	0.0000	-SN	9999	0	0	0	5180
2019/05/16 14:24:01	BASE	28.82	30	36.73	37	2.4	100	2.4	4	0	973.8	NA	0.0000	-SN	9999	0	0	0	5580
2019/05/16 14:25:00	BASE	28.29	32	36.73	37	2.4	100	2.4	4	0	974.0	NA	0.0000	-SN	8000	0	0	0	5380
2019/05/16 14:26:01	BASE	28.24	32	35.65	39	2.5	100	2.5	5	0	973.9	NA	0.0000	-SN	8000	0	0	0	5410
2019/05/16 14:27:00	BASE	28.77	30	34.57	28	2.5	100	2.5	5	0	973.8	NA	0.0000	-SN BR	8000	0	0	0	5220
2019/05/16 14:28:01	BASE	27.39	28	34.57	28	2.5	100	2.5	5	0	973.8	NA	0.0000	-SN BR	8000	0	0	0	5410
2019/05/16 14:29:00	BASE	27.14	27	34.57	28	2.5	100	2.5	5	0	973.8	NA	0.0000	-SN BR	9000	0	0	0	4630
2019/05/16 14:30:00	BASE	28.45	29	34.57	28	2.5	100	2.5	6	0	973.7	NA	0.0000	-SN BR	9000	0	0	0	4360
2019/05/16 14:31:00	BASE	28.69	30	34.57	28	2.5	100	2.5	6	0	973.7	NA	0.0000	-SN BR	9000	0	0	0	4230
2019/05/16 14:32:01	BASE	27.90	30	33.64	24	2.5	100	2.5	7	0	973.8	NA	0.0000	-SN BR	5000	0	0	0	4660
2019/05/16 14:33:00	BASE	27.02	29	33.64	24	2.5	100	2.5	7	0	973.9	NA	0.0000	-SN BR	5000	0	0	0	5050
2019/05/16 14:34:01	BASE	26.79	30	33.64	24	2.5	100	2.5	8	0	973.8	NA	0.0000	-SN BR	8000	0	0	0	6100
2019/05/16 14:35:00	BASE	28.38	34	34.31	30	2.5	100	2.5	8	0	973.7	NA	0.0000	-SN BR	7000	0	0	0	5870
2019/05/16 14:36:01	BASE	28.45	33	34.31	30	2.5	100	2.5	8	0	973.8	NA	0.0000	-SN BR	9000	0	0	0	5970
2019/05/16 14:37:00	BASE	27.29	34	34.31	30	2.5	100	2.5	8	0	973.8	NA	0.0000	-SN BR	9999	0	0	0	6000
2019/05/16 14:38:01	BASE	25.92	35	34.31	30	2.5	100	2.5	9	0	973.9	NA	0.0000	-SN BR	9999	0	0	0	6040
2019/05/16 14:39:00	BASE	25.35	33	34.31	30	2.5	100	2.5	9	0	973.8	NA	0.0000	-SN BR	9999	0	0	0	6140
2019/05/16 14:40:00	BASE	25.12	32	34.31	30	2.5	100	2.5	9	0	973.9	NA	0.0000	-SN BR	9999	5450	0	0	0
2019/05/16 14:41:00	BASE	24.88	32	34.31	30	2.5	100	2.5	9	0	973.8	NA	0.0000	-SN BR	9999	5480	0	0	0
2019/05/16 14:42:01	BASE	24.68	33	34.31	30	2.5	100	2.5	9	0	973.9	NA	0.0000	-SN	9999	0	0	0	6000
2019/05/16 14:43:00	BASE	24.08	33	34.31	30	2.5	100	2.5	10	0	973.8	NA	0.0000	-SN	9999	0	0	0	6200
2019/05/16 14:44:00	BASE	25.16	30	34.31	30	2.5	100	2.5	10	0	973.8	NA	0.0000	-SN	9999	0	0	0	6100
2019/05/16 14:45:00	BASE	25.74	30	31.02	28	2.5	100	2.5	10	0	973.8	NA	0.0000		9999	0	0	0	5710
2019/05/16 14:46:01	BASE	25.90	30	31.02	28	2.5	100	2.5	11	0	973.8	NA	0.0000		9999	0	0	0	5770
2019/05/16 14:47:01	BASE	25.74	29	31.02	28	2.5	100	2.5	11	0	973.9	NA	0.0000		9999	0	0	0	6200
2019/05/16 14:48:01	BASE	23.84	29	31.02	28	2.5	100	2.5	11	0	973.9	NA	0.0000		9999	0	0	0	6370
2019/05/16 14:49:01	BASE	24.58	30	31.07	35	2.5	100	2.5	11	0	973.8	NA	0.0000		9999	0	0	0	6530
2019/05/16 14:50:01	BASE	27.17	31	31.07	35	2.5	100	2.5	11	0	973.8	NA	0.0000		9999	0	0	0	6430
2019/05/16 14:51:01	BASE	26.75	29	31.07	35	2.5	100	2.5	11	0	973.9	NA	0.0000		9999	0	0	0	6300
2019/05/16 14:52:01	BASE	26.24	28	31.07	35	2.5	100	2.5	10	0	973.9	NA	0.0000		9999	0	0	0	6040
2019/05/16 14:53:01	BASE	26.27	28	31.07	35	2.6	99	2.5	10	0	973.9	NA	0.0000		9999	0	0	0	5810
2019/05/16 14:54:01	BASE	25.61	30	31.07	35	2.6	99	2.5	10	0	974.0	NA	0.0000		9999	0	0	0	5840
2019/05/16 14:55:01	BASE	25.80	33	31.07	35	2.6	99	2.4	10	0	973.9	NA	0.0000		9999	0	0	0	5640
2019/05/16 14:56:01	BASE	25.66	29	31.07	35	2.6	99	2.5	9	0	974.0	NA	0.0000		9999	0	0	0	5610
2019/05/16 14:57:01	BASE	25.42	28	31.07	35	2.6	99	2.4	9	0	973.9	NA	0.0000		9999	0	0	0	5540
2019/05/16 14:58:01	BASE	25.93	30	31.07	35	2.6	99	2.4	9	0	973.9	NA	0.0000		9999	0	0	0	5320
2019/05/16 14:59:01	BASE	25.71	30	29.84	34	2.5	98	2.3	9	0	973.9	NA	0.0000		9999	0	0	0	5280
2019/05/16 15:00:01	BASE	25.84	29	31.18	30	2.5	98	2.3	10	0	973.8	NA	0.0000		9999	0	0	0	5090
2019/05/16 15:01:01	BASE	27.16	28	31.18	30	2.5	98	2.2	9	0	973.8	NA	0.0000		9999	0	0	0	5480
2019/05/16 15:02:01	BASE	27.21	29	31.18	30	2.5	98	2.2	9	0	973.9	NA	0.0000		9999	0	0	0	5250
2019/05/16 15:03:01	BASE	26.61	31	32.41	28	2.5	98	2.2	9	0	973.9	NA	0.0000		9999	0	0	0	4990
2019/05/16 15:04:01	BASE	27.05	30	32.41	28	2.5	98	2.2	10	0	973.8	NA	0.0000	-SN	9999	0	0	0	3710
2019/05/16 15:05:01	BASE	27.13	29	32.41	28	2.5	98	2.3	11	0	973.9	NA	0.0000	-SN	9999	0	0	0	3740
2019/05/16 15:06:01	BASE	26.59	27	32.41	28	2.5	99	2.3	13	0	973.9	NA	0.0000	-SN	5000	0	0	0	3670
2019/05/16 15:07:01	BASE	26.15	25	32.41	28	2.5	99	2.3	15	0	973.9	NA	0.0000	-SN	5000	0	0	0	2920
2019/05/16 15:08:01	BASE	26.72	28	32.41	28	2.4	99	2.3	17	0	973.8	NA	0.0000	-SN	9000	0	0	0	4000
2019/05/16 15:09:01	BASE	27.02	30	32.41	28	2.4	99	2.3	18	0	973.9	NA	0.0000	-SN BR	6000	0	0	0	4890
2019/05/16 15:10:01	BASE	26.70	28	32.41	28	2.4	99	2.3	18	0	973.9	NA	0.0000	-SN BR	6000	4230	0	0	0
2019/05/16 15:11:01	BASE	27.30	30	32.41	28	2.3	100	2.3	17	0	973.8	NA	0.0000	-SN BR	9000	4040	0	0	0
2019/05/16 15:12:01	BASE	26.96	29	32.41	28	2.3	100	2.3	17	0	973.8	NA	0.0000	-SN BR	9999	3870	0	0	0
2019/05/16 15:13:01	BASE	26.81	29	31.74	32	2.3	100	2.3	17	0	973.7	NA	0.0000	-SN BR	9999	3870	0	0	0
2019/05/16 15:14:01	BASE	27.52	30	31.74	32	2.3	100	2.3	18	0	973.7	NA	0.2540	-SN BR	9999	3970	0	0	0
2019/05/16 15:15:01	BASE	28.07	27	31.74	32	2.3	100	2.3	19	0	973.7	NA	0.0000	-SN BR	9999	3870	0	0	0
2019/05/16 15:16:01	BASE	27.54	27	31.74	32	2.3	100	2.3	20	0	973.7	NA	0.0000	-SN BR	9999	3870	0	0	0
2019/05/16 15:17:01	BASE	28.56	28	33.23	23	2.3	100	2.3	23	0	973.5	NA	0.0000	-SN	9999	3510	4230	0	0
2019/05/16 15:18:01	BASE	29.84	28	33.23	23	2.3	100	2.3	28	0	973.5	NA	0.0000	-SN	9999	3350	0	0	0
2019/05/16 15:19:01	BASE	29.30	28	33.23	23	2.3	100	2.3	34	0	973.5	NA	0.0000	-SN	9999	3410	0	0	0
2019/05/16 15:20:01	BASE	28.39	27	33.23	23	2.3	100	2.3	40	0	973.5	NA	0.0000	-SN	9999	4230	5150	0	0
2019/05/16 15:21:01	BASE	27.60	27	33.23	23	2.3	100	2.3	45	0	973.6	NA	0.0000		9999	4200	5050	0	0
2019/05/16 15:22:01	BASE	28.37	27	33.23	23	2.3	100	2.3	47	0	973.5	NA	0.0000		9999	4200	4920	0	0
2019/05/16 15:23:01	BASE	29.24	25	33.34	24	2.2	100	2.2	47	0	973.5	NA	0.0000	-SN	9999	5320	0	0	0
2019/05/16 15:24:01	BASE	29.65	24	33.34	24	2.2	100	2.2	48	0	973.5	NA	0.0000	-SN	9999	4040	0	0	0
2019/05/16 15:25:01	BASE	28.87	24	33.34	24	2.2	100	2.2	49	0	973.7	NA	0.0000	-SN	9999	5120	0	0	0
2019/05/16 15:26:01	BASE	27.93	23	33.34	24	2.1	100	2.1	51	0	973.7	NA	0.0000	-SN	9999	4230	5020	0	0
2019/05/16 15:27:01	BASE	28.11	25	33.34	24	2.1	100	2.1	53	0	973.5	NA	0.0000	-SN	9999	4230	5020	0	0
2019/05/16 15:28:01	BASE	29.50	29	33.39	34	2.1	100	2.1	54	0	973.5	NA	0.0000	-SN	9999	3280	4070	0	0
2019/05/16 15:29:00	BASE	29.69	31	33.39	34	2.1	100	2.1	55	0	973.4	NA	0.0000	-SN	9999	4560	0	0	0
2019/05/16 15:30:01	BASE	29.27	32	33.39	34	2.1	100	2.1	51	0	973.4	NA	0.0000	-SN	9999	4890	0	0	0
2019/05/16 15:31:01	BASE	30.68	32	35.14	26	2.1	100	2.1	44	0	973.4	NA	0.0000	-SN	9999	0	0	0	5480
2019/05/16 15:32:01	BASE	31.45	34	35.14	26	2.1	100	2.1	39	0	973.5	NA	0.0000	-SN	9999	0	0	0	4860
2019/05/16 15:33:01	BASE	30.31	34	35.14	26	2.1	100	2.1	37	0	973.6	NA	0.0000	-SN	9999	460	0	0	0
2019/05/16 15:34:01	BASE	29.44	30	35.14	26	2.1	100	2.1	38	0	973.5	NA	0.0000	-SN	9999	3740	0	0	0
2019/05/16 15:35:01	BASE	28.78	28	35.14	26	2.1	100	2.1	42	0	973.5	NA	0.0000	-SN	9999	1710	0	0	0
2019/05/16 15:36:01	BASE	28.80	28	35.14	26	2.1	100	2.1	44	0	973.6	NA	0.0000	-SN	9999	520	0	0	0
2019/05/16 15:37:00	BASE	28.78	26	35.14	26	2.1	100	2.1	44	0	973.5	NA	0.0000	-SN	9999	1970	0	0	0
2019/05/16 15:38:01	BASE	27.93	26	35.14	26	2.1	100	2.1	44	0	973.6	NA	0.0000	-SN	9999	3740	0	0	0
2019/05/16 15:39:00	BASE	29.32	27	35.60	26	2.1	100	2.1	45	0	973.5	NA	0.0000	-SN	9999	2230	3710	0	0
2019/05/16 15:40:01	BASE	30.91	28	35.70	23	2.1	100	2.1	45	0	973.5	NA	0.0000	-SN	9999	3150	0	0	0
2019/05/16 15:41:00	BASE	30.29	29	35.70	23	2.1	100	2.1	48	0	973.6	NA	0.0000		9999	2330	3120	0	0
2019/05/16 15:42:01	BASE	28.64	29	35.70	23	2.1	100	2.1	53	0	973.6	NA	0.0000		9999	2590	0	0	0
2019/05/16 15:43:00	BASE	29.18	32	35.70	23	2.1	100	2.1	58	0	973.4	NA	0.0000		9999	1250	0	0	0
2019/05/16 15:44:01	BASE	32.14	33	36.78	39	2.1	100	2.1	63	0	973.3	NA	0.0000		9999	460	0	0	0
2019/05/16 15:45:00	BASE	32.90	32	36.78	39	2.1	100	2.1	66	0	973.4	NA	0.0000		9999	430	0	0	0
2019/05/16 15:46:00	BASE	30.54	31	36.78	39	2.1	100	2.1	68	0	973.5	NA	0.0000	-SN	9999	1540	0	0	0
2019/05/16 15:47:00	BASE	29.31	30	36.78	39	2.1	100	2.1	71	0	973.4	NA	0.0000	-SN	9999	620	0	0	0
2019/05/16 15:48:01	BASE	30.24	29	36.78	39	2.1	100	2.1	73	0	973.4	NA	0.0000	-SN	9999	1210	5020	0	0
2019/05/16 15:49:00	BASE	30.40	29	36.78	39	2.1	100	2.1	74	0	973.4	NA	0.0000	-SN	9999	980	0	0	0
2019/05/16 15:50:00	BASE	30.21	28	36.78	39	2.1	100	2.1	74	0	973.5	NA	0.0000	-SN	9999	1050	4860	0	0
2019/05/16 15:51:01	BASE	30.36	27	36.78	39	2.1	100	2.1	74	0	973.5	NA	0.0000	-SN	9999	5050	0	0	0
2019/05/16 15:52:00	BASE	29.63	28	36.78	39	2.1	100	2.1	75	0	973.5	NA	0.0000	-SN	9999	2170	0	0	0
2019/05/16 15:53:01	BASE	28.81	28	36.78	39	2.1	100	2.1	75	0	973.5	NA	0.0000	-SN	9999	4070	5610	0	0
2019/05/16 15:54:01	BASE	28.06	29	35.34	22	2.1	100	2.1	76	0	973.6	NA	0.0000	-SN	9999	3020	5710	0	0
2019/05/16 15:55:01	BASE	29.09	29	34.83	29	2.1	100	2.1	75	0	973.4	NA	0.0000		9999	2490	0	0	0
2019/05/16 15:56:01	BASE	29.54	30	34.83	29	2.1	100	2.1	73	0	973.5	NA	0.0000		9999	2330	2890	0	0
2019/05/16 15:57:00	BASE	28.62	33	34.83	29	2.1	100	2.1	67	0	973.5	NA	0.0000		9999	2530	0	0	0
2019/05/16 15:58:01	BASE	29.09	34	34.83	29	2.0	100	2.0	58	0	973.4	NA	0.0000		9999	2260	3670	0	0
2019/05/16 15:59:01	BASE	30.20	33	34.93	31	2.0	100	2.0	52	0	973.5	NA	0.0000		9999	2360	0	0	0
2019/05/16 16:00:01	BASE	31.05	32	35.50	31	2.0	100	2.0	47	0	973.4	NA	0.0000	-SN	9999	2230	2990	0	0
2019/05/16 16:01:01	BASE	29.75	33	35.50	31	2.0	100	2.0	41	0	973.5	NA	0.0000	-SN	9999	3220	0	0	0
2019/05/16 16:02:01	BASE	28.76	33	35.50	31	2.0	100	2.0	38	0	973.5	NA	0.0000	-SN	9999	3410	0	0	0
2019/05/16 16:03:01	BASE	28.60	30	35.50	31	2.0	100	2.0	37	0	973.5	NA	0.0000	-SN	9999	3540	0	0	0
2019/05/16 16:04:01	BASE	28.44	28	35.50	31	2.0	100	2.0	38	0	973.5	NA	0.0000	-SN	9999	520	3510	0	0
2019/05/16 16:05:01	BASE	27.86	28	35.50	31	2.0	100	2.0	38	0	973.5	NA	0.0000	-SN	9999	750	3380	0	0
2019/05/16 16:06:01	BASE	27.94	28	35.50	31	2.0	100	2.0	41	0	973.5	NA	0.0000	-SN	9999	560	3410	0	0
2019/05/16 16:07:01	BASE	28.44	29	35.50	31	2.0	100	2.0	44	0	973.4	NA	0.0000	-SN	9999	3180	0	0	0
2019/05/16 16:08:01	BASE	28.58	31	35.50	31	2.0	100	2.0	45	0	973.4	NA	0.0000	-SN	9999	790	3120	0	0
2019/05/16 16:09:01	BASE	29.05	31	35.50	31	2.0	100	2.0	43	0	973.4	NA	0.0000	-SN	9999	2990	0	0	0
2019/05/16 16:10:01	BASE	29.06	29	34.06	30	2.1	100	2.1	42	0	973.4	NA	0.0000	-SN	9999	1800	3540	0	0
2019/05/16 16:11:01	BASE	28.47	28	34.06	30	2.1	100	2.1	41	0	973.5	NA	0.0000	-SN	9999	430	3540	0	0
2019/05/16 16:12:01	BASE	27.63	30	34.06	30	2.1	100	2.1	42	0	973.6	NA	0.0000	-SN	6000	390	3510	0	0
2019/05/16 16:13:01	BASE	26.76	30	34.06	30	2.1	100	2.1	43	0	973.6	NA	0.0000	-SN	5000	360	3870	0	0
2019/05/16 16:14:01	BASE	27.04	31	34.06	30	2.1	100	2.1	46	0	973.6	NA	0.0000	-SN BR	4500	0	0	0	1940
2019/05/16 16:15:01	BASE	27.09	32	34.06	30	2.0	100	2.0	45	0	973.7	NA	0.0000	-SN BR	3500	390	0	0	0
2019/05/16 16:16:01	BASE	26.63	31	34.06	30	2.0	100	2.0	44	0	973.7	NA	0.0000	-SN BR	7000	4040	0	0	0
2019/05/16 16:17:01	BASE	26.44	31	34.06	30	1.9	100	1.9	46	0	973.7	NA	0.0000	-SN BR	9999	4040	0	0	0
2019/05/16 16:18:01	BASE	27.31	32	34.06	30	1.9	100	1.9	51	0	973.6	NA	0.0000	-SN BR	9999	3670	0	0	0
2019/05/16 16:19:01	BASE	29.70	32	33.34	31	1.9	100	1.9	59	0	973.5	NA	0.0000	-SN BR	9999	2360	2890	0	0
2019/05/16 16:20:01	BASE	30.12	32	33.70	36	1.9	100	1.9	65	0	973.5	NA	0.0000	-SN BR	9999	2460	3480	0	0
2019/05/16 16:21:01	BASE	27.29	31	33.70	36	1.9	100	1.9	68	0	973.6	NA	0.0000	-SN BR	9999	3310	0	0	0
2019/05/16 16:22:01	BASE	26.17	31	33.70	36	2.0	100	2.0	73	0	973.6	NA	0.0000	-SN BR	9999	3280	0	0	0
2019/05/16 16:23:01	BASE	26.63	31	33.70	36	2.0	100	2.0	79	0	973.6	NA	0.0000	-SN BR	9999	2460	3540	0	0
2019/05/16 16:24:01	BASE	25.78	30	33.70	36	2.0	100	2.0	85	0	973.7	NA	0.0000	-SN	9999	3740	0	0	0
2019/05/16 16:25:01	BASE	26.49	29	33.70	36	2.0	100	2.0	86	0	973.5	NA	0.0000	-SN	8000	360	3870	0	0
2019/05/16 16:26:01	BASE	27.97	29	33.70	36	2.0	100	2.0	83	0	973.5	NA	0.0000	-SN	7000	2820	0	0	0
2019/05/16 16:27:01	BASE	27.95	28	33.70	36	1.9	100	1.9	81	0	973.5	NA	0.0000	-SN	9999	2360	0	0	0
2019/05/16 16:28:01	BASE	28.46	30	33.70	36	1.9	100	1.9	82	0	973.4	NA	0.0000	-SN	9999	4920	0	0	0
2019/05/16 16:29:01	BASE	28.98	32	33.70	36	1.9	100	1.9	84	0	973.4	NA	0.0000	-SN	9999	390	0	0	0
2019/05/16 16:30:01	BASE	29.17	31	32.41	35	1.9	100	1.9	88	0	973.3	NA	0.0000	-SN	7000	3150	4460	0	0
2019/05/16 16:31:00	BASE	29.99	33	32.87	38	1.9	100	1.9	91	0	973.4	NA	0.0000	-SN BR	5000	390	0	0	0
2019/05/16 16:32:01	BASE	29.71	32	32.87	38	1.9	100	1.9	85	0	973.4	NA	0.0000	-SN BR	7000	430	0	0	0
2019/05/16 16:33:01	BASE	27.16	29	32.87	38	1.9	100	1.9	75	0	973.5	NA	0.0000	-SN BR	9999	3480	0	0	0
2019/05/16 16:34:01	BASE	25.97	30	32.87	38	1.9	100	1.9	70	0	973.5	NA	0.0000	-SN BR	9999	720	0	0	0
2019/05/16 16:35:01	BASE	27.23	31	32.87	38	1.9	100	1.9	67	0	973.5	NA	0.0000	-SN BR	9999	2890	0	0	0
2019/05/16 16:36:01	BASE	28.44	32	32.87	38	1.9	100	1.9	62	0	973.5	NA	0.0000	-SN	9999	2690	0	0	0
2019/05/16 16:37:00	BASE	28.41	33	32.87	38	1.9	100	1.9	57	0	973.5	NA	0.0000	-SN	9999	0	0	0	4990
2019/05/16 16:38:01	BASE	28.16	33	32.87	38	2.0	100	2.0	53	0	973.5	NA	0.0000	-SN	9999	2300	0	0	0
2019/05/16 16:39:00	BASE	28.00	33	32.87	38	2.0	100	2.0	49	0	973.6	NA	0.0000	-SN	9999	1180	0	0	0
2019/05/16 16:40:00	BASE	27.43	32	32.87	38	2.0	100	2.0	46	0	973.5	NA	0.0000	-SN	9999	460	0	0	0
2019/05/16 16:41:00	BASE	27.22	29	31.90	31	2.0	100	2.0	45	0	973.6	NA	0.0000	-SN	9999	1440	2300	0	0
2019/05/16 16:42:01	BASE	27.10	28	31.90	31	2.0	100	2.0	46	0	973.6	NA	0.0000	-SN	9999	1570	0	0	0
2019/05/16 16:43:00	BASE	26.75	30	31.90	31	2.0	100	2.0	48	0	973.6	NA	0.0000	-SN	9999	2030	0	0	0
2019/05/16 16:44:00	BASE	25.95	30	31.90	31	2.0	100	2.0	51	0	973.6	NA	0.0000	-SN	9999	1310	0	0	0
2019/05/16 16:45:00	BASE	26.03	31	31.90	31	2.0	100	2.0	56	0	973.6	NA	0.0000	-SN	9999	460	0	0	0
2019/05/16 16:46:00	BASE	25.63	31	31.43	37	2.0	100	2.0	61	0	973.7	NA	0.0000	-SN	9999	460	0	0	0
2019/05/16 16:47:00	BASE	25.74	29	31.43	37	2.0	100	2.0	67	0	973.7	NA	0.0000	-SN	9999	460	0	0	0
2019/05/16 16:48:01	BASE	26.73	29	31.43	37	2.0	100	2.0	71	0	973.7	NA	0.0000	-SN	9999	1440	3150	0	0
2019/05/16 16:49:00	BASE	27.47	30	31.28	29	2.0	100	2.0	75	0	973.7	NA	0.0000	-SN	9999	1510	0	0	0
2019/05/16 16:50:01	BASE	26.86	29	31.23	38	2.0	100	2.0	80	0	973.7	NA	0.0000	-SN	9999	0	0	0	4230
2019/05/16 16:51:00	BASE	26.17	30	31.23	38	2.1	100	2.1	85	0	973.7	NA	0.0000	-SN	9999	3120	0	0	0
2019/05/16 16:52:01	BASE	26.47	29	31.23	38	2.1	100	2.1	92	0	973.6	NA	0.0000	-SN	9999	3250	0	0	0
2019/05/16 16:53:00	BASE	26.46	28	31.23	38	2.1	100	2.1	96	0	973.7	NA	0.0000	-SN	9999	1770	0	0	0
2019/05/16 16:54:00	BASE	26.18	29	31.23	38	2.2	100	2.2	95	0	973.7	NA	0.0000	-SN	9999	3180	0	0	0
2019/05/16 16:55:00	BASE	25.46	29	31.23	38	2.2	100	2.2	98	0	973.8	NA	0.0000	-SN	9999	3180	19360	0	0
2019/05/16 16:56:01	BASE	25.26	28	31.23	38	2.2	100	2.2	105	0	973.8	NA	0.0000	-SN	9999	3310	0	0	0
2019/05/16 16:57:26	BASE	24.77	27	30.87	29	2.2	100	2.2	106	0	973.9	NA	0.0000	-SN	9999	1510	3710	0	0
2019/05/16 16:58:01	BASE	24.58	28	30.46	35	2.2	100	2.2	101	0	M	NA	0.0000	-SN	9999	1020	0	0	0
2019/05/16 16:59:01	BASE	24.70	26	29.89	25	2.2	100	2.2	95	0	973.8	NA	0.0000	-SN	9999	3410	0	0	0
2019/05/16 17:00:00	BASE	24.81	25	29.89	25	2.2	100	2.2	92	0	973.7	NA	0.0000	-SN	9999	3480	0	0	0
2019/05/16 17:01:00	BASE	24.35	28	29.89	25	2.2	100	2.2	88	0	973.8	NA	0.0000	-SN	9999	560	0	0	0
2019/05/16 17:02:01	BASE	23.65	29	29.89	25	2.2	100	2.2	81	0	973.8	NA	0.0000	-SN	9999	2030	0	0	0
2019/05/16 17:03:00	BASE	24.02	27	28.71	26	2.3	100	2.3	75	0	973.9	NA	0.0000	-SN	9999	490	0	0	0
2019/05/16 17:04:00	BASE	24.82	27	28.14	29	2.3	100	2.3	70	0	973.9	NA	0.0000	-SN	9999	460	2230	0	0
2019/05/16 17:05:00	BASE	25.22	26	28.14	29	2.3	100	2.3	67	0	973.9	NA	0.0000	-SN	9999	2790	0	0	0
2019/05/16 17:06:01	BASE	24.74	25	28.09	28	2.3	100	2.3	65	0	974.0	NA	0.0000		9999	2400	0	0	0
2019/05/16 17:07:01	BASE	24.76	24	28.09	28	2.3	100	2.3	63	0	973.9	NA	0.0000		9999	2920	0	0	0
2019/05/16 17:08:01	BASE	24.19	23	28.09	28	2.4	100	2.4	63	0	974.0	NA	0.0000		9999	720	3020	0	0
2019/05/16 17:09:01	BASE	24.25	26	28.09	28	2.4	100	2.4	65	0	974.0	NA	0.0000		9999	2620	0	0	0
2019/05/16 17:10:01	BASE	24.96	28	28.09	28	2.4	100	2.4	65	0	974.0	NA	0.0000		9999	520	2620	0	0
2019/05/16 17:11:01	BASE	24.46	26	28.09	28	2.4	100	2.4	62	0	974.1	NA	0.0000		9999	520	0	0	0
2019/05/16 17:12:01	BASE	23.76	26	28.09	28	2.4	100	2.4	58	0	974.1	NA	0.0000		9999	0	0	0	4100
2019/05/16 17:13:01	BASE	23.08	27	28.09	28	2.4	100	2.4	53	0	974.1	NA	0.0000		9999	460	0	0	0
2019/05/16 17:14:01	BASE	23.39	27	27.68	25	2.4	100	2.4	50	0	974.0	NA	0.0000		9999	430	0	0	0
2019/05/16 17:15:01	BASE	23.67	25	27.68	25	2.4	100	2.4	48	0	974.1	NA	0.0000		9999	0	0	0	4400
2019/05/16 17:16:01	BASE	23.19	22	27.68	25	2.4	100	2.4	48	0	974.1	NA	0.0000		9999	430	0	0	0
2019/05/16 17:17:01	BASE	23.46	26	27.68	25	2.4	100	2.4	51	0	974.1	NA	0.0000		9999	460	0	0	0
2019/05/16 17:18:01	BASE	23.32	28	27.68	25	2.4	100	2.4	55	0	974.1	NA	0.0000		9999	0	0	0	4490
2019/05/16 17:19:01	BASE	23.46	27	27.68	25	2.4	100	2.4	61	0	974.1	NA	0.0000		9999	0	0	0	4170
2019/05/16 17:20:01	BASE	23.97	26	27.68	25	2.4	100	2.4	66	0	974.1	NA	0.0000		9999	3180	0	0	0
2019/05/16 17:21:01	BASE	24.12	26	26.91	18	2.4	100	2.4	71	0	974.1	NA	0.0000		9999	460	0	0	0
2019/05/16 17:22:01	BASE	23.05	26	26.91	18	2.4	100	2.4	77	0	974.1	NA	0.0000		9999	430	2950	0	0
2019/05/16 17:23:01	BASE	21.71	25	26.91	18	2.3	100	2.3	82	0	974.1	NA	0.0000		9999	430	0	0	0
2019/05/16 17:24:01	BASE	22.70	24	26.91	18	2.3	100	2.3	90	0	974.1	NA	0.0000		9999	430	0	0	0
2019/05/16 17:25:01	BASE	23.83	23	26.91	18	2.3	100	2.3	96	0	974.1	NA	0.0000		9999	430	0	0	0
2019/05/16 17:26:01	BASE	24.18	21	26.91	18	2.3	100	2.3	95	0	974.1	NA	0.0000		9999	0	0	0	3710
2019/05/16 17:27:00	BASE	24.03	20	26.91	18	2.3	100	2.3	87	0	974.1	NA	0.0000		9999	430	0	0	0
2019/05/16 17:28:01	BASE	23.66	18	26.91	18	2.3	100	2.3	80	0	974.1	NA	0.0000		9999	0	0	0	4040
2019/05/16 17:29:01	BASE	23.24	19	26.65	22	2.3	100	2.3	78	0	974.2	NA	0.0000		9999	430	4170	0	0
2019/05/16 17:30:01	BASE	23.27	20	26.65	22	2.3	100	2.3	78	0	974.2	NA	0.0000		9999	430	0	0	0
2019/05/16 17:31:00	BASE	23.42	23	26.19	27	2.3	100	2.3	76	0	974.2	NA	0.0000		9999	460	0	0	0
2019/05/16 17:32:01	BASE	24.18	25	27.27	27	2.3	100	2.3	72	0	974.1	NA	0.0000		9999	430	0	0	0
2019/05/16 17:41:01	BASE	23.47	23	27.52	29	2.4	100	2.4	42	0	974.1	NA	0.0000		9999	1840	0	0	0
2019/05/16 17:42:01	BASE	24.05	22	27.52	29	2.4	100	2.4	39	0	974.0	NA	0.0000		9999	1900	0	0	0
2019/05/16 17:44:34	BASE	M	M	26.80	27	2.4	100	2.4	M	M	M	NA	0.0000		M	M	M	M	M
2019/05/16 17:45:00	BASE	M	M	26.80	27	2.4	100	2.4	31	0	M	NA	0.0000		9999	660	0	0	0
2019/05/16 17:46:00	BASE	23.84	19	26.80	27	2.4	100	2.4	26	0	974.1	NA	0.0000		9999	460	0	0	0
2019/05/16 17:47:00	BASE	23.97	19	26.80	27	2.4	100	2.4	22	0	974.1	NA	0.0000		9999	460	0	0	0
2019/05/16 17:48:00	BASE	24.51	22	27.01	23	2.4	100	2.4	20	0	974.1	NA	0.0000		9999	520	2620	0	0
2019/05/16 17:49:01	BASE	23.99	23	27.01	23	2.4	100	2.4	18	0	974.1	NA	0.0000		9999	490	0	0	0
2019/05/16 17:50:00	BASE	22.68	23	27.01	23	2.4	100	2.4	17	0	974.2	NA	0.0000		9999	590	0	0	0
2019/05/16 17:51:00	BASE	21.62	21	27.01	23	2.4	100	2.4	17	0	974.3	NA	0.0000		9999	2890	0	0	0
2019/05/16 17:52:00	BASE	21.49	19	27.01	23	2.4	100	2.4	16	0	974.2	NA	0.0000		9999	2660	0	0	0
2019/05/16 17:53:00	BASE	21.86	20	27.01	23	2.4	100	2.4	16	0	974.2	NA	0.0000		9999	2560	0	0	0
2019/05/16 17:54:00	BASE	22.52	21	27.01	23	2.4	100	2.4	16	0	974.1	NA	0.0000		9999	750	0	0	0
2019/05/16 17:55:00	BASE	22.87	21	27.01	23	2.4	100	2.4	15	0	974.2	NA	0.0000		9999	2260	0	0	0
2019/05/16 17:56:00	BASE	21.59	15	27.01	23	2.4	100	2.4	14	0	974.3	NA	0.0000		9999	2330	0	0	0
2019/05/16 17:57:01	BASE	19.63	10	27.01	23	2.4	100	2.4	13	0	974.3	NA	0.0000		9999	2530	0	0	0
2019/05/16 17:58:00	BASE	18.82	11	24.80	22	2.4	100	2.4	12	0	974.3	NA	0.0000		9999	2690	0	0	0
2019/05/16 17:59:00	BASE	20.01	13	24.80	22	2.4	100	2.4	11	0	974.3	NA	0.0000		9999	2920	0	0	0
2019/05/16 18:00:00	BASE	22.28	16	25.52	16	2.4	100	2.4	11	0	974.2	NA	0.0000		9999	2950	0	0	0
2019/05/16 18:01:01	BASE	23.44	17	25.52	16	2.4	100	2.4	10	0	974.3	NA	0.0000		9999	2460	0	0	0
2019/05/16 18:02:01	BASE	23.03	15	25.52	16	2.4	100	2.4	10	0	974.3	NA	0.0000		9999	790	0	0	0
2019/05/16 18:03:00	BASE	22.76	15	25.52	16	2.4	100	2.4	11	0	974.3	NA	0.0000		9999	2200	0	0	0
2019/05/16 18:04:00	BASE	22.94	16	25.88	16	2.4	100	2.4	12	0	974.3	NA	0.0000		9999	590	2460	0	0
2019/05/16 18:05:00	BASE	22.67	16	25.88	16	2.4	100	2.4	14	0	974.4	NA	0.0000		9999	560	0	0	0
2019/05/16 18:06:00	BASE	22.38	15	25.88	16	2.4	100	2.4	16	0	974.4	NA	0.0000		9999	430	0	0	0
2019/05/16 18:07:00	BASE	22.87	14	25.88	16	2.4	100	2.4	17	0	974.4	NA	0.0000		9999	460	0	0	0
2019/05/16 18:08:00	BASE	23.29	15	26.29	16	2.4	100	2.4	18	0	974.4	NA	0.0000		9999	460	0	0	0
2019/05/16 18:09:00	BASE	22.26	16	26.29	16	2.4	100	2.4	19	0	974.5	NA	0.0000		9999	0	0	0	3410
2019/05/16 18:10:00	BASE	22.32	14	26.60	8	2.4	100	2.4	21	0	974.4	NA	0.0000		9999	0	0	0	3450
2019/05/16 18:11:00	BASE	23.55	12	26.60	8	2.4	100	2.4	23	0	974.4	NA	0.0000		9999	460	0	0	0
2019/05/16 18:12:00	BASE	23.30	11	26.60	8	2.4	100	2.4	22	0	974.4	NA	0.0000		9999	690	0	0	0
2019/05/16 18:13:00	BASE	22.70	10	26.60	8	2.4	100	2.4	21	0	974.5	NA	0.0000		9999	460	0	0	0
2019/05/16 18:14:00	BASE	22.30	10	26.60	8	2.4	100	2.4	19	0	974.4	NA	0.0000		9999	460	0	0	0
2019/05/16 18:15:00	BASE	22.97	11	26.60	8	2.4	100	2.4	18	0	974.4	NA	0.0000		9999	430	0	0	0
2019/05/16 18:16:00	BASE	24.14	11	26.60	8	2.4	100	2.4	18	0	974.4	NA	0.0000		9999	430	0	0	0
2019/05/16 18:17:00	BASE	24.51	11	26.91	15	2.4	100	2.4	18	0	974.4	NA	0.0000		9999	390	0	0	0
2019/05/16 18:18:00	BASE	24.74	10	26.91	15	2.3	100	2.3	19	0	974.4	NA	0.0000		9999	390	0	0	0
2019/05/16 18:19:00	BASE	24.81	10	26.91	15	2.3	100	2.3	19	0	974.3	NA	0.0000		9999	390	0	0	0
2019/05/16 18:20:00	BASE	24.26	9	26.91	15	2.3	100	2.3	19	0	974.4	NA	0.0000		9999	430	0	0	0
2019/05/16 18:21:00	BASE	23.16	9	26.91	15	2.3	100	2.3	20	0	974.4	NA	0.0000		9999	430	0	0	0
2019/05/16 18:22:00	BASE	22.15	9	26.91	15	2.3	100	2.3	20	0	974.5	NA	0.0000		9999	0	0	0	5350
2019/05/16 18:23:00	BASE	21.89	10	26.91	15	2.3	100	2.3	21	0	974.5	NA	0.0000		9999	460	0	0	0
2019/05/16 18:24:00	BASE	22.57	10	26.91	15	2.3	100	2.3	22	0	974.5	NA	0.0000		9999	0	0	0	5020
2019/05/16 18:25:00	BASE	23.24	10	26.91	15	2.3	100	2.3	24	0	974.5	NA	0.0000		9999	430	0	0	0
2019/05/16 18:26:00	BASE	22.62	9	26.91	15	2.3	100	2.3	25	0	974.5	NA	0.0000		9999	0	0	0	4400
2019/05/16 18:27:00	BASE	21.77	10	26.34	8	2.3	100	2.3	24	0	974.6	NA	0.0000		9999	430	0	0	0
2019/05/16 18:28:00	BASE	21.49	10	26.34	8	2.3	100	2.3	22	0	974.6	NA	0.0000		9999	0	0	0	4040
2019/05/16 18:29:00	BASE	22.40	10	25.98	1	2.3	100	2.3	21	0	974.4	NA	0.0000		9999	0	0	0	5580
2019/05/16 18:30:00	BASE	23.07	10	25.93	14	2.3	100	2.3	21	0	974.5	NA	0.0000		9999	0	0	0	3710
2019/05/16 18:31:00	BASE	23.16	9	25.93	14	2.3	100	2.3	21	0	974.5	NA	0.0000		9999	460	0	0	0
2019/05/16 18:32:00	BASE	22.84	7	25.93	14	2.3	100	2.3	20	0	974.5	NA	0.0000		9999	460	0	0	0
2019/05/16 18:33:00	BASE	21.95	6	25.93	14	2.2	100	2.2	19	0	974.6	NA	0.0000		9999	0	0	0	3870
2019/05/16 18:34:00	BASE	22.34	6	25.93	14	2.2	100	2.2	17	0	974.6	NA	0.0000		9999	0	0	0	3580
2019/05/16 18:35:00	BASE	23.13	5	25.93	14	2.2	100	2.2	16	0	974.6	NA	0.0000		9999	460	4920	0	0
2019/05/16 18:36:00	BASE	22.65	5	25.93	14	2.2	100	2.2	14	0	974.6	NA	0.0000		9999	460	0	0	0
2019/05/16 18:37:00	BASE	22.33	5	25.93	14	2.2	100	2.2	14	0	974.7	NA	0.0000		9999	460	0	0	0
2019/05/16 18:38:00	BASE	21.53	3	25.93	14	2.2	100	2.2	14	0	974.7	NA	0.0000		9999	430	0	0	0
2019/05/16 18:39:00	BASE	20.82	3	25.67	18	2.2	100	2.2	14	0	974.8	NA	0.0000		9999	460	0	0	0
2019/05/16 18:40:00	BASE	22.51	3	25.67	18	2.1	100	2.1	14	0	974.7	NA	0.0000		9999	430	0	0	0
2019/05/16 18:41:00	BASE	22.71	1	25.21	5	2.1	100	2.1	13	0	974.8	NA	0.0000		9999	460	0	0	0
2019/05/16 18:42:00	BASE	21.18	0	25.21	5	2.1	100	2.1	13	0	974.8	NA	0.0000		9999	490	0	0	0
2019/05/16 18:43:00	BASE	20.71	357	25.21	5	2.1	100	2.1	13	0	974.8	NA	0.0000		9999	0	0	0	3840
2019/05/16 18:44:00	BASE	20.73	356	25.21	5	2.1	100	2.1	14	0	974.8	NA	0.0000		9999	1510	0	0	0
2019/05/16 18:45:00	BASE	20.23	1	25.21	5	2.1	100	2.1	15	0	974.8	NA	0.0000		9999	460	0	0	0
2019/05/16 18:46:00	BASE	19.74	4	25.21	5	2.1	100	2.1	15	0	974.8	NA	0.0000		9999	0	0	0	3640
2019/05/16 18:47:00	BASE	20.58	4	25.21	5	2.1	100	2.1	16	0	974.8	NA	0.0000		9999	0	0	0	4170
2019/05/16 18:48:00	BASE	20.70	7	25.21	5	2.1	100	2.1	16	0	974.8	NA	0.0000		9999	460	0	0	0
2019/05/16 18:49:00	BASE	20.29	10	25.21	5	2.1	100	2.1	16	0	974.8	NA	0.0000		9999	460	0	0	0
2019/05/16 18:50:00	BASE	21.21	12	23.41	4	2.1	100	2.1	15	0	974.7	NA	0.0000		9999	0	0	0	4720
2019/05/16 18:51:00	BASE	21.42	11	23.36	360	2.1	100	2.1	14	0	974.7	NA	0.0000		9999	0	0	0	5410
2019/05/16 18:52:00	BASE	20.98	12	23.10	11	2.1	100	2.1	13	0	974.6	NA	0.0000		9999	460	0	0	0
2019/05/16 18:53:00	BASE	20.77	13	23.10	11	2.0	100	2.0	13	0	974.6	NA	0.0000		9999	0	0	0	5580
2019/05/16 18:54:00	BASE	21.03	13	23.92	17	2.0	100	2.0	13	0	974.6	NA	0.0000		9999	0	0	0	5250
2019/05/16 18:55:00	BASE	21.63	14	23.92	17	2.0	100	2.0	13	0	974.6	NA	0.0000		9999	0	0	0	4630
2019/05/16 18:56:00	BASE	21.54	15	23.92	17	2.0	100	2.0	12	0	974.6	NA	0.0000		9999	3770	0	0	0
2019/05/16 18:57:00	BASE	20.78	15	23.92	17	2.0	100	2.0	11	0	974.6	NA	0.0000		9999	3540	0	0	0
2019/05/16 18:58:00	BASE	20.83	15	23.92	17	2.0	100	2.0	10	0	974.6	NA	0.0000		9999	3580	0	0	0
2019/05/16 18:59:00	BASE	21.27	13	23.92	17	2.0	100	2.0	9	0	974.6	NA	0.0000		9999	3540	0	0	0
2019/05/16 19:00:00	BASE	21.25	13	23.92	17	2.0	100	2.0	8	0	974.6	NA	0.0000		9999	0	0	0	5380
2019/05/16 19:01:00	BASE	20.82	12	23.92	17	2.0	100	2.0	7	0	974.6	NA	0.0000		9999	0	0	0	5540
2019/05/16 19:02:00	BASE	20.19	10	23.92	17	2.0	100	2.0	7	0	974.6	NA	0.0000		9999	0	0	0	3770
2019/05/16 19:03:00	BASE	20.49	9	23.92	17	2.0	100	2.0	6	0	974.7	NA	0.0000		9999	5120	0	0	0
2019/05/16 19:04:00	BASE	21.36	9	23.51	15	2.0	100	2.0	6	0	974.6	NA	0.0000		9999	5020	0	0	0
2019/05/16 19:05:00	BASE	20.85	8	23.05	7	2.0	100	2.0	5	0	974.7	NA	0.0000		9999	3710	0	0	0
2019/05/16 19:06:00	BASE	20.16	6	23.05	7	2.1	100	2.1	5	0	974.7	NA	0.0000		9999	620	0	0	0
2019/05/16 19:07:00	BASE	19.90	6	23.05	7	2.1	100	2.1	5	0	974.7	NA	0.0000		9999	0	0	0	4270
2019/05/16 19:08:00	BASE	19.32	6	23.05	7	2.1	100	2.1	4	0	974.7	NA	0.0000		9999	2560	3710	0	0
2019/05/16 19:09:00	BASE	20.04	6	23.05	7	2.1	100	2.1	4	0	974.7	NA	0.0000		9999	1740	2260	0	0
2019/05/16 19:10:00	BASE	20.53	6	23.05	7	2.1	100	2.1	4	0	974.7	NA	0.0000		9999	2430	0	0	0
2019/05/16 19:11:00	BASE	20.13	5	23.05	7	2.1	100	2.1	4	0	974.8	NA	0.0000		9999	2430	0	0	0
2019/05/16 19:12:00	BASE	19.81	5	23.05	7	2.1	100	2.1	4	0	974.8	NA	0.0000		9999	2490	0	0	0
2019/05/16 19:13:00	BASE	19.62	7	23.05	7	2.1	100	2.1	3	0	974.8	NA	0.0000		9999	660	0	0	0
2019/05/16 19:14:00	BASE	19.83	7	22.48	3	2.1	100	2.1	3	0	974.8	NA	0.0000		9999	0	0	0	3770
2019/05/16 19:15:00	BASE	19.60	5	22.48	3	2.1	100	2.1	3	0	974.9	NA	0.0000		9999	1280	0	0	0
2019/05/16 19:16:00	BASE	19.51	4	22.48	3	2.1	100	2.1	3	0	974.9	NA	0.0000		9999	1180	0	0	0
2019/05/16 19:17:00	BASE	19.29	4	22.48	3	2.1	100	2.1	3	0	974.9	NA	0.0000		9999	460	0	0	0
2019/05/16 19:18:00	BASE	19.07	4	22.48	3	2.0	100	2.0	2	0	974.8	NA	0.0000		9999	430	0	0	0
2019/05/16 19:19:00	BASE	19.44	5	21.45	5	2.0	100	2.0	2	0	974.9	NA	0.0000		9999	460	0	0	0
2019/05/16 19:20:00	BASE	19.14	4	21.40	7	2.0	100	2.0	2	0	974.9	NA	0.0000		9999	430	0	0	0
2019/05/16 19:21:00	BASE	17.89	4	21.30	17	2.0	100	2.0	2	0	975.0	NA	0.0000		9999	460	0	0	0
2019/05/16 19:22:00	BASE	17.98	1	21.30	17	2.0	100	2.0	2	0	974.9	NA	0.0000		9999	430	0	0	0
2019/05/16 19:23:00	BASE	18.13	1	21.30	17	2.0	100	2.0	2	0	975.0	NA	0.0000		9999	430	0	0	0
2019/05/16 19:24:00	BASE	17.04	4	21.04	4	1.9	100	1.9	2	0	975.0	NA	0.0000		9999	430	0	0	0
2019/05/16 19:25:00	BASE	16.82	3	21.04	4	1.9	100	1.9	2	0	975.0	NA	0.0000		9999	460	0	0	0
2019/05/16 19:26:00	BASE	17.29	3	20.94	3	1.9	100	1.9	1	0	974.9	NA	0.0000		9999	430	0	0	0
2019/05/16 19:27:00	BASE	18.37	3	20.94	3	1.9	100	1.9	1	0	974.9	NA	0.0000		9999	490	0	0	0
2019/05/16 19:28:00	BASE	19.15	1	20.94	3	1.9	100	1.9	1	0	974.9	NA	0.0000		9999	430	0	0	0
2019/05/16 19:29:00	BASE	18.28	356	20.47	2	1.9	100	1.9	1	0	975.0	NA	0.0000		9999	390	0	0	0
2019/05/16 19:30:00	BASE	16.35	351	20.47	2	1.9	100	1.9	1	0	975.1	NA	0.0000		9999	430	0	0	0
2019/05/16 19:31:00	BASE	16.73	345	20.47	2	1.9	100	1.9	1	0	975.0	NA	0.0000		9999	430	0	0	0
2019/05/16 19:32:00	BASE	18.67	341	20.47	2	1.8	100	1.8	1	0	974.8	NA	0.0000		9999	360	0	0	0
2019/05/16 19:33:00	BASE	18.14	340	20.47	2	1.7	100	1.7	1	0	974.9	NA	0.0000		9999	360	0	0	0
2019/05/16 19:34:00	BASE	16.34	339	20.47	2	1.6	100	1.6	1	0	974.9	NA	0.0000		9999	390	0	0	0
2019/05/16 19:35:00	BASE	16.25	340	20.47	2	1.5	100	1.5	1	0	974.9	NA	0.0000		9999	430	0	0	0
2019/05/16 19:36:00	BASE	15.68	343	20.47	2	1.4	100	1.4	1	0	975.0	NA	0.0000		9999	390	0	0	0
2019/05/16 19:37:00	BASE	15.41	346	20.47	2	1.3	100	1.3	1	0	975.0	NA	0.0000		9999	390	0	0	0
2019/05/16 19:38:00	BASE	16.10	350	20.42	344	1.3	100	1.3	1	0	975.0	NA	0.0000		9999	330	0	0	0
2019/05/16 19:39:00	BASE	15.99	351	20.42	344	1.3	100	1.3	1	0	975.0	NA	0.0000		9999	430	0	0	0
2019/05/16 19:40:00	BASE	17.72	347	21.71	352	1.3	100	1.3	1	0	974.9	NA	0.0000		9999	300	0	0	0
2019/05/16 19:41:00	BASE	18.66	345	21.71	352	1.3	100	1.3	1	0	974.9	NA	0.0000		9999	330	0	0	0
2019/05/16 19:42:00	BASE	17.90	343	21.71	352	1.2	100	1.2	1	0	974.9	NA	0.0000		9999	390	0	0	0
2019/05/16 19:43:00	BASE	17.31	342	21.71	352	1.2	100	1.2	1	0	974.9	NA	0.0000		9999	390	0	0	0
2019/05/16 19:44:00	BASE	17.47	341	21.71	352	1.1	100	1.1	1	0	974.9	NA	0.0000		9999	330	0	0	0
2019/05/16 19:45:00	BASE	18.26	341	21.71	352	1.1	100	1.1	0	0	975.0	NA	0.0000		9999	0	0	0	2690
2019/05/16 19:46:00	BASE	18.21	340	21.71	352	1.0	100	1.0	0	0	975.0	NA	0.0000		9999	0	0	0	2560
2019/05/16 19:47:00	BASE	18.08	339	21.71	352	1.0	100	1.0	0	0	975.0	NA	0.0000		9999	0	0	0	2530
2019/05/16 19:48:00	BASE	17.39	341	21.71	352	0.9	100	0.9	0	0	975.0	NA	0.0000		9999	0	0	0	2360
2019/05/16 19:49:00	BASE	17.21	340	21.71	352	0.9	100	0.9	0	0	975.1	NA	0.0000		9999	300	0	0	0
2019/05/16 19:50:00	BASE	17.26	338	20.83	346	0.9	100	0.9	0	0	975.1	NA	0.0000		9999	0	0	0	2100
2019/05/16 19:51:00	BASE	17.12	338	20.83	346	0.8	100	0.8	0	0	975.1	NA	0.0000		9999	0	0	0	2790
2019/05/16 19:52:00	BASE	18.28	334	21.61	330	0.8	100	0.8	0	0	975.0	NA	0.0000		9999	330	0	0	0
2019/05/16 19:53:00	BASE	19.47	331	21.61	330	0.7	100	0.7	0	0	975.0	NA	0.0000		9999	230	0	0	0
2019/05/16 19:54:00	BASE	19.43	331	21.61	330	0.7	100	0.7	0	0	975.0	NA	0.0000		9999	260	0	0	0
2019/05/16 19:55:00	BASE	18.36	333	21.61	330	0.7	100	0.7	0	0	975.1	NA	0.0000	UP	9999	0	0	0	1840
2019/05/16 19:56:00	BASE	17.15	334	21.61	330	0.6	100	0.6	0	0	975.1	NA	0.0000	UP	9999	330	0	0	0
2019/05/16 19:57:00	BASE	16.91	334	21.61	330	0.6	100	0.6	0	0	975.1	NA	0.0000	UP	9999	260	0	0	0
2019/05/16 19:58:00	BASE	16.52	333	21.61	330	0.6	100	0.6	0	0	975.1	NA	0.0000	UP	9999	0	0	0	1770
2019/05/16 19:59:00	BASE	16.89	332	21.61	330	0.6	100	0.6	0	0	975.1	NA	0.0000	UP	9999	0	0	0	1440
2019/05/16 20:00:00	BASE	17.55	334	21.61	330	0.6	100	0.6	0	0	975.1	NA	0.0000	UP	9999	330	0	0	0
2019/05/16 20:01:00	BASE	16.53	335	21.61	330	0.6	100	0.6	0	0	975.1	NA	0.0000	UP	9999	300	0	0	0
2019/05/16 20:02:00	BASE	15.82	333	20.89	328	0.6	100	0.6	0	0	975.1	NA	0.0000	UP	9999	0	0	0	1770
2019/05/16 20:03:00	BASE	15.40	334	20.01	330	0.6	100	0.6	0	0	975.1	NA	0.0000	UP	9999	360	0	0	0
2019/05/16 20:04:00	BASE	15.01	335	19.60	334	0.6	100	0.6	0	0	975.1	NA	0.0000	UP	9999	0	0	0	2400
2019/05/16 20:05:00	BASE	16.28	339	19.86	347	0.6	100	0.6	0	0	975.0	NA	0.0000	UP	9999	430	0	0	0
2019/05/16 20:06:00	BASE	17.41	340	20.06	332	0.6	100	0.6	0	0	975.0	NA	0.0000	UP	9999	0	0	0	2530
2019/05/16 20:07:00	BASE	17.67	338	20.06	332	0.6	100	0.6	0	0	975.0	NA	0.0000		9999	300	0	0	0
2019/05/16 20:08:00	BASE	17.80	337	20.06	332	0.6	100	0.6	0	0	975.0	NA	0.0000		9999	300	0	0	0
2019/05/16 20:09:00	BASE	18.22	338	20.78	336	0.5	100	0.5	0	0	975.0	NA	0.0000		9999	300	0	0	0
2019/05/16 20:10:00	BASE	18.78	338	20.78	336	0.5	100	0.5	0	0	975.0	NA	0.0000		9999	260	0	0	0
2019/05/16 20:11:00	BASE	18.51	338	20.78	336	0.5	100	0.5	0	0	975.0	NA	0.0000		9999	300	0	0	0
2019/05/16 20:12:00	BASE	18.73	339	21.04	335	0.4	100	0.4	0	0	975.0	NA	0.0000		9999	360	0	0	0
2019/05/16 20:13:00	BASE	18.89	339	21.04	335	0.4	100	0.4	0	0	975.0	NA	0.0000		9999	260	0	0	0
2019/05/16 20:14:00	BASE	17.87	339	21.04	335	0.3	100	0.3	0	0	975.1	NA	0.0000		9999	0	0	0	1640
2019/05/16 20:15:00	BASE	17.41	338	21.04	335	0.3	100	0.3	0	0	975.1	NA	0.0000		9999	0	0	0	1670
2019/05/16 20:16:00	BASE	17.63	340	21.04	335	0.3	100	0.3	0	0	975.1	NA	0.0000		9999	0	0	0	1800
2019/05/16 20:17:00	BASE	17.29	341	21.04	335	0.3	100	0.3	0	0	975.1	NA	0.0000	UP	9999	0	0	0	1770
2019/05/16 20:18:00	BASE	16.46	342	21.04	335	0.2	100	0.2	0	0	975.1	NA	0.0000	UP	9999	260	0	0	0
2019/05/16 20:19:00	BASE	15.76	342	21.04	335	0.2	100	0.2	0	0	975.1	NA	0.0000	UP	9999	0	0	0	2620
2019/05/16 20:20:00	BASE	15.51	344	21.04	335	0.2	100	0.2	0	0	975.1	NA	0.0000	UP	9999	0	0	0	2660
2019/05/16 20:21:00	BASE	15.86	345	21.04	335	0.2	100	0.2	0	0	975.0	NA	0.0000	UP	9999	2300	0	0	0
2019/05/16 20:22:00	BASE	16.18	348	20.99	337	0.2	100	0.2	0	0	975.0	NA	0.0000	UP	9999	2560	0	0	0
2019/05/16 20:23:00	BASE	16.40	349	19.55	337	0.2	100	0.2	0	0	974.9	NA	0.0000	UP	9999	1120	2620	0	0
2019/05/16 20:24:00	BASE	17.84	346	20.47	5	0.2	100	0.2	0	0	974.9	NA	0.0000	UP	9999	0	0	0	3150
2019/05/16 20:25:00	BASE	18.57	347	20.47	5	0.2	100	0.2	0	0	974.9	NA	0.0000	UP	9999	590	0	0	0
2019/05/16 20:26:00	BASE	18.70	351	21.20	354	0.2	100	0.2	0	0	974.9	NA	0.0000	UP	9999	0	0	0	2760
2019/05/16 20:27:00	BASE	18.84	350	21.20	354	0.2	100	0.2	0	0	974.9	NA	0.0000		9999	0	0	0	3280
2019/05/16 20:28:00	BASE	19.18	349	22.58	349	0.2	100	0.2	0	0	974.8	NA	0.0000		9999	0	0	0	3080
2019/05/16 20:29:00	BASE	18.70	346	22.58	349	0.2	100	0.2	0	0	974.9	NA	0.0000		9999	0	0	0	3120
2019/05/16 20:30:00	BASE	18.67	344	22.58	349	0.3	100	0.3	0	0	974.8	NA	0.0000		9999	0	0	0	3450
2019/05/16 20:31:00	BASE	18.92	347	22.58	349	0.3	100	0.3	0	0	974.9	NA	0.0000		9999	620	0	0	0
2019/05/16 20:32:00	BASE	18.36	348	22.58	349	0.3	100	0.3	0	0	974.9	NA	0.0000		9999	0	0	0	2890
2019/05/16 20:33:00	BASE	19.41	349	22.58	349	0.3	100	0.3	0	0	974.8	NA	0.0000		9999	0	0	0	3120
2019/05/16 20:34:00	BASE	19.17	348	22.58	349	0.3	100	0.3	0	0	974.9	NA	0.0000		9999	0	0	0	3280
2019/05/16 20:35:00	BASE	17.96	350	22.58	349	0.3	100	0.3	0	0	974.9	NA	0.0000		9999	0	0	0	3180
2019/05/16 20:36:00	BASE	17.70	352	22.58	349	0.3	100	0.3	0	0	975.0	NA	0.0000		9999	1870	0	0	0
2019/05/16 20:37:00	BASE	16.75	357	22.58	349	0.3	100	0.3	0	0	975.0	NA	0.0000		9999	1670	0	0	0
2019/05/16 20:38:00	BASE	16.95	357	22.28	346	0.3	100	0.3	0	0	974.9	NA	0.0000		9999	1540	0	0	0
2019/05/16 20:39:00	BASE	17.82	356	22.28	346	0.3	100	0.3	0	0	974.9	NA	0.0000		9999	1710	0	0	0
2019/05/16 20:40:00	BASE	19.75	1	24.18	310	0.4	100	0.4	0	0	974.8	NA	0.0000		9999	1410	0	0	0
2019/05/16 20:41:00	BASE	21.33	3	24.18	310	0.4	100	0.4	0	0	974.8	NA	0.0000		9999	1670	2620	0	0
2019/05/16 20:42:00	BASE	21.18	1	24.18	310	0.4	100	0.4	0	0	974.9	NA	0.0000		9999	1570	0	0	0
2019/05/16 20:43:00	BASE	21.01	357	24.18	310	0.4	100	0.4	0	0	974.9	NA	0.0000		9999	1350	0	0	0
2019/05/16 20:44:00	BASE	19.93	358	24.18	310	0.4	100	0.4	0	0	975.0	NA	0.0000		9999	1480	0	0	0
2019/05/16 20:45:00	BASE	19.50	359	24.18	310	0.4	100	0.4	0	0	974.9	NA	0.0000		9999	1080	0	0	0
2019/05/16 20:46:00	BASE	19.22	357	24.18	310	0.4	100	0.4	0	0	975.0	NA	0.0000		9999	1080	0	0	0
2019/05/16 20:47:00	BASE	18.67	357	24.18	310	0.4	100	0.4	0	0	975.0	NA	0.0000		9999	1440	0	0	0
2019/05/16 20:48:00	BASE	18.63	1	24.18	310	0.4	100	0.4	0	0	975.1	NA	0.0000		9999	1210	0	0	0
2019/05/16 20:49:00	BASE	18.54	2	24.18	310	0.5	100	0.5	0	0	975.1	NA	0.0000		9999	1410	2790	0	0
2019/05/16 20:50:00	BASE	17.87	2	23.72	3	0.5	100	0.5	0	0	975.1	NA	0.0000		9999	1800	2850	0	0
2019/05/16 20:51:00	BASE	17.20	2	23.30	349	0.5	100	0.5	0	0	975.2	NA	0.0000		9999	1150	2890	0	0
2019/05/16 20:52:00	BASE	16.80	360	22.53	354	0.5	100	0.5	0	0	975.2	NA	0.0000		9999	0	0	0	3310
2019/05/16 20:53:00	BASE	16.16	356	22.28	3	0.5	100	0.5	0	0	975.2	NA	0.0000		9999	1510	0	0	0
2019/05/16 20:54:00	BASE	16.36	357	22.28	3	0.5	100	0.5	0	0	975.2	NA	0.0000		9999	1570	0	0	0
2019/05/16 20:55:00	BASE	17.32	359	22.28	3	0.5	100	0.5	0	0	975.2	NA	0.0000		9999	1570	0	0	0
2019/05/16 20:56:00	BASE	17.19	359	20.47	1	0.5	100	0.5	0	0	975.2	NA	0.0000		9999	1640	0	0	0
2019/05/16 20:57:00	BASE	16.85	1	20.27	5	0.6	100	0.5	0	0	975.2	NA	0.0000		9999	1640	0	0	0
2019/05/16 20:58:00	BASE	17.38	1	20.27	5	0.6	100	0.6	0	0	975.2	NA	0.0000		9999	1380	0	0	0
2019/05/16 20:59:00	BASE	17.93	3	20.06	4	0.6	100	0.6	0	0	975.2	NA	0.0000		9999	1840	0	0	0
2019/05/16 21:00:01	BASE	17.73	0	20.06	4	0.6	100	0.6	0	0	975.3	NA	0.0000		9999	850	0	0	0
2019/05/16 21:01:01	BASE	17.89	360	20.06	4	0.6	100	0.6	0	0	975.2	NA	0.0000		9999	390	0	0	0
2019/05/16 21:02:01	BASE	18.15	3	20.17	6	0.6	100	0.6	0	0	975.3	NA	0.0000		9999	430	0	0	0
2019/05/16 21:03:01	BASE	18.12	2	20.17	6	0.6	100	0.6	0	0	975.3	NA	0.0000		9999	1120	0	0	0
2019/05/16 21:04:01	BASE	18.12	359	20.17	1	0.7	100	0.7	0	0	975.3	NA	0.0000		9999	1250	0	0	0
2019/05/16 21:05:01	BASE	17.89	358	20.17	1	0.7	100	0.7	0	0	975.3	NA	0.0000		9999	1180	0	0	0
2019/05/16 21:06:01	BASE	17.00	2	20.17	1	0.7	100	0.7	0	0	975.3	NA	0.0000		9999	2030	0	0	0
2019/05/16 21:07:01	BASE	16.15	345	20.17	1	0.7	100	0.7	0	0	975.3	NA	0.0000		9999	1840	0	0	0
2019/05/16 21:08:01	BASE	15.40	343	20.17	1	0.7	100	0.7	0	0	975.3	NA	0.0000		9999	1670	0	0	0
2019/05/16 21:09:01	BASE	15.52	354	20.17	1	0.7	100	0.7	0	0	975.3	NA	0.0000		9999	1640	0	0	0
2019/05/16 21:10:01	BASE	15.98	355	20.17	1	0.7	100	0.7	0	0	975.3	NA	0.0000		9999	1610	0	0	0
2019/05/16 21:11:01	BASE	16.46	356	20.17	1	0.7	100	0.7	0	0	975.2	NA	0.0000		9999	1640	0	0	0
2019/05/16 21:12:01	BASE	18.70	355	21.71	354	0.7	100	0.7	0	0	975.2	NA	0.0000		9999	1080	0	0	0
2019/05/16 21:13:01	BASE	19.04	358	21.71	354	0.7	100	0.7	0	0	975.2	NA	0.0000		9999	1570	0	0	0
2019/05/16 21:14:01	BASE	17.74	359	21.71	354	0.7	100	0.7	0	0	975.3	NA	0.0000		9999	1540	0	0	0
2019/05/16 21:15:01	BASE	16.83	359	21.71	354	0.7	100	0.7	0	0	975.3	NA	0.0000		9999	1970	0	0	0
2019/05/16 21:16:01	BASE	16.60	2	21.71	354	0.7	100	0.7	0	0	975.3	NA	0.0000		9999	2620	0	0	0
2019/05/16 21:17:01	BASE	17.94	353	21.71	354	0.7	100	0.7	0	0	975.2	NA	0.0000		9999	2820	0	0	0
2019/05/16 21:18:01	BASE	18.66	350	21.71	354	0.7	100	0.7	0	0	975.3	NA	0.0000		9999	620	0	0	0
2019/05/16 21:19:01	BASE	18.05	356	21.71	354	0.7	100	0.7	0	0	975.3	NA	0.0000		9999	590	0	0	0
2019/05/16 21:20:01	BASE	18.08	359	21.71	354	0.7	100	0.7	0	0	975.3	NA	0.0000		9999	460	0	0	0
2019/05/16 21:21:01	BASE	18.13	356	21.71	354	0.7	100	0.7	0	0	975.3	NA	0.0000		9999	490	0	0	0
2019/05/16 21:22:01	BASE	17.82	352	20.78	353	0.7	100	0.7	0	0	975.3	NA	0.0000		9999	0	0	0	3480
2019/05/16 21:23:01	BASE	17.43	356	20.78	353	0.7	100	0.7	0	0	975.3	NA	0.0000		9999	1050	0	0	0
2019/05/16 21:24:01	BASE	16.70	1	20.78	353	0.7	100	0.7	0	0	975.3	NA	0.0000		9999	3080	0	0	0
2019/05/16 21:25:01	BASE	17.80	3	20.78	353	0.7	100	0.7	0	0	975.2	NA	0.0000		9999	1840	0	0	0
2019/05/16 21:26:01	BASE	19.01	4	21.40	6	0.6	100	0.6	0	0	975.2	NA	0.0000		9999	0	0	0	3540
2019/05/16 21:27:01	BASE	19.50	5	22.48	360	0.6	100	0.6	0	0	975.2	NA	0.0000		9999	4200	0	0	0
2019/05/16 21:28:01	BASE	21.32	5	23.56	360	0.6	100	0.6	0	0	975.1	NA	0.0000		9999	2000	0	0	0
2019/05/16 21:29:01	BASE	22.73	5	24.33	2	0.6	100	0.6	0	0	975.1	NA	0.0000		9999	1640	0	0	0
2019/05/16 21:30:01	BASE	22.65	4	24.33	2	0.5	100	0.5	0	0	975.1	NA	0.0000		9999	3310	0	0	0
2019/05/16 21:31:01	BASE	21.97	2	24.33	2	0.5	100	0.5	0	0	975.2	NA	0.0000		9999	0	0	0	4360
2019/05/16 21:32:01	BASE	20.80	3	24.33	2	0.4	100	0.4	0	0	975.2	NA	0.0000		9999	0	0	0	4200
2019/05/16 21:33:01	BASE	19.81	4	24.33	2	0.4	100	0.4	0	0	975.3	NA	0.0000		9999	2990	0	0	0
2019/05/16 21:34:01	BASE	19.84	4	24.33	2	0.4	100	0.4	0	0	975.3	NA	0.0000		9999	3380	0	0	0
2019/05/16 21:35:01	BASE	19.16	4	24.33	2	0.4	100	0.4	0	0	975.4	NA	0.0000		9999	3180	0	0	0
2019/05/16 21:36:01	BASE	18.90	2	24.33	2	0.4	100	0.4	0	0	975.3	NA	0.0000		9999	2620	0	0	0
2019/05/16 21:37:01	BASE	19.65	1	24.33	2	0.4	100	0.4	0	0	975.3	NA	0.0000		9999	2530	0	0	0
2019/05/16 21:38:01	BASE	20.15	3	24.33	2	0.5	100	0.5	0	0	975.3	NA	0.0000		9999	3970	0	0	0
2019/05/16 21:39:01	BASE	20.10	3	23.41	1	0.5	100	0.5	0	0	975.3	NA	0.0000		9999	3540	0	0	0
2019/05/16 21:40:01	BASE	20.17	359	23.41	1	0.5	100	0.5	0	0	975.3	NA	0.0000		9999	3740	0	0	0
2019/05/16 21:41:01	BASE	20.87	358	22.84	2	0.6	100	0.6	0	0	975.3	NA	0.0000		9999	3940	0	0	0
2019/05/16 21:42:01	BASE	20.51	3	22.84	2	0.6	100	0.6	0	0	975.3	NA	0.0000		9999	3380	0	0	0
2019/05/16 21:43:01	BASE	21.07	5	23.77	6	0.6	100	0.6	0	0	975.2	NA	0.0000		9999	3310	0	0	0
2019/05/16 21:44:01	BASE	21.37	6	23.77	6	0.6	100	0.6	0	0	975.3	NA	0.0000		9999	3770	0	0	0
2019/05/16 21:45:01	BASE	20.05	359	23.77	6	0.7	100	0.7	0	0	975.4	NA	0.0000		9999	3810	0	0	0
2019/05/16 21:46:01	BASE	20.21	352	23.77	6	0.7	100	0.7	0	0	975.3	NA	0.0000		9999	3450	0	0	0
2019/05/16 21:47:01	BASE	20.34	357	23.77	6	0.7	100	0.7	0	0	975.4	NA	0.0000		9999	2890	3940	0	0
2019/05/16 21:48:01	BASE	20.32	4	23.77	6	0.7	100	0.7	0	0	975.4	NA	0.0000		9999	1350	0	0	0
2019/05/16 21:49:01	BASE	20.86	7	23.77	6	0.7	100	0.7	0	0	975.4	NA	0.0000		9999	2850	0	0	0
2019/05/16 21:50:01	BASE	21.24	6	23.82	2	0.7	100	0.7	0	0	975.4	NA	0.0000		9999	620	0	0	0
2019/05/16 21:51:01	BASE	21.89	3	24.64	1	0.7	100	0.7	0	0	975.4	NA	0.0000		9999	2820	0	0	0
2019/05/16 21:52:01	BASE	22.45	1	25.00	354	0.8	100	0.7	0	0	975.4	NA	0.0000		9999	720	0	0	0
2019/05/16 21:53:01	BASE	22.64	2	25.00	354	0.8	99	0.7	0	0	975.4	NA	0.0000		9999	2530	0	0	0
2019/05/16 21:54:01	BASE	23.18	5	25.31	5	0.8	99	0.7	0	0	975.4	NA	0.0000		9999	2890	0	0	0
2019/05/16 21:55:01	BASE	22.88	2	25.31	5	0.8	99	0.6	0	0	975.5	NA	0.0000		9999	3080	0	0	0
2019/05/16 21:56:01	BASE	21.69	1	25.31	5	0.8	99	0.6	0	0	975.6	NA	0.0000		9999	3120	0	0	0
2019/05/16 21:57:01	BASE	20.87	358	25.31	5	0.8	99	0.6	0	0	975.6	NA	0.0000		9999	1480	3280	0	0
2019/05/16 21:58:01	BASE	19.40	357	25.31	5	0.8	98	0.6	0	0	975.7	NA	0.0000		9999	3150	0	0	0
2019/05/16 21:59:01	BASE	18.20	358	25.31	5	0.8	98	0.5	0	0	975.8	NA	0.0000		9999	3080	0	0	0
2019/05/16 22:00:01	BASE	17.90	357	25.31	5	0.8	98	0.5	0	0	975.8	NA	0.0000		9999	2660	0	0	0
2019/05/16 22:01:01	BASE	18.68	356	25.31	5	0.8	98	0.5	0	0	975.7	NA	0.0000		9999	2230	0	0	0
2019/05/16 22:02:01	BASE	18.85	355	25.31	5	0.8	98	0.5	0	0	975.8	NA	0.0000		9999	2820	0	0	0
2019/05/16 22:03:01	BASE	20.08	353	25.31	5	0.8	98	0.5	0	0	975.7	NA	0.0000		9999	690	3580	0	0
2019/05/16 22:04:01	BASE	21.55	349	24.90	2	0.8	98	0.5	0	0	975.7	NA	0.0000		9999	2490	3220	0	0
2019/05/16 22:05:01	BASE	20.92	346	24.90	2	0.8	98	0.5	0	0	975.8	NA	0.0000		9999	2760	0	0	0
2019/05/16 22:06:01	BASE	20.87	349	24.59	352	0.7	98	0.5	0	0	975.7	NA	0.0000		9999	3050	0	0	0
2019/05/16 22:07:01	BASE	21.38	351	24.64	344	0.7	98	0.5	0	0	975.7	NA	0.0000		9999	3120	0	0	0
2019/05/16 22:08:01	BASE	22.04	349	26.19	347	0.7	98	0.4	0	0	975.8	NA	0.0000		9999	2990	0	0	0
2019/05/16 22:09:01	BASE	20.72	352	26.19	347	0.7	99	0.5	0	0	975.8	NA	0.0000		9999	3180	0	0	0
2019/05/16 22:10:01	BASE	21.49	352	26.19	347	0.6	99	0.5	0	0	975.7	NA	0.0000		9999	3120	0	0	0
2019/05/16 22:11:01	BASE	24.60	348	27.93	345	0.6	99	0.5	0	0	975.7	NA	0.0000		9999	3050	0	0	0
2019/05/16 22:12:01	BASE	23.25	347	27.93	345	0.6	99	0.4	0	0	975.8	NA	0.0000		9999	1870	3280	0	0
2019/05/16 22:13:01	BASE	21.88	349	27.93	345	0.6	99	0.4	0	0	975.8	NA	0.0000		9999	2590	0	0	0
2019/05/16 22:14:01	BASE	21.87	350	27.93	345	0.5	99	0.4	0	0	975.9	NA	0.0000		9999	2560	0	0	0
2019/05/16 22:15:01	BASE	21.05	347	27.93	345	0.5	99	0.4	0	0	975.9	NA	0.0000		9999	3310	0	0	0
2019/05/16 22:16:01	BASE	20.81	348	27.93	345	0.5	99	0.4	0	0	975.9	NA	0.0000		9999	3350	0	0	0
2019/05/16 22:17:01	BASE	19.62	353	27.93	345	0.5	99	0.4	0	0	976.0	NA	0.0000		9999	2890	0	0	0
2019/05/16 22:18:01	BASE	19.49	354	27.93	345	0.5	99	0.4	0	0	975.9	NA	0.0000		9999	460	2890	0	0
2019/05/16 22:19:01	BASE	21.18	356	27.93	345	0.5	99	0.4	0	0	975.9	NA	0.0000		9999	490	0	0	0
2019/05/16 22:20:01	BASE	21.11	356	27.93	345	0.5	99	0.4	0	0	975.9	NA	0.0000		9999	520	0	0	0
2019/05/16 22:21:01	BASE	20.47	355	24.85	348	0.4	100	0.4	0	0	975.9	NA	0.0000		9999	520	0	0	0
2019/05/16 22:22:01	BASE	20.41	352	24.33	1	0.4	100	0.4	0	0	976.0	NA	0.0000		9999	460	0	0	0
2019/05/16 22:23:01	BASE	18.84	355	24.33	1	0.4	100	0.4	0	0	976.0	NA	0.0000		9999	460	0	0	0
2019/05/16 22:24:01	BASE	17.77	354	24.33	1	0.4	100	0.4	0	0	976.0	NA	0.0000		9999	3120	0	0	0
2019/05/16 22:25:01	BASE	18.20	354	24.33	1	0.4	100	0.4	0	0	976.0	NA	0.0000		9999	460	0	0	0
2019/05/16 22:26:01	BASE	17.42	356	24.33	1	0.4	100	0.4	0	0	976.0	NA	0.0000		9999	430	0	0	0
2019/05/16 22:27:01	BASE	16.09	354	24.33	1	0.3	100	0.3	0	0	976.0	NA	0.0000		9999	460	0	0	0
2019/05/16 22:28:01	BASE	16.28	355	24.33	1	0.3	100	0.3	0	0	976.0	NA	0.0000		9999	460	0	0	0
2019/05/16 22:29:01	BASE	16.73	358	23.87	341	0.3	100	0.3	0	0	976.0	NA	0.0000		9999	460	0	0	0
2019/05/16 22:30:01	BASE	17.92	357	23.87	341	0.3	100	0.3	0	0	976.0	NA	0.0000		9999	460	0	0	0
2019/05/16 22:31:01	BASE	18.72	357	23.41	2	0.3	100	0.3	0	0	976.0	NA	0.0000		9999	460	0	0	0
2019/05/16 22:32:01	BASE	17.58	359	23.20	360	0.3	100	0.3	0	0	976.0	NA	0.0000		9999	3050	0	0	0
2019/05/16 22:33:01	BASE	17.22	358	23.20	360	0.3	100	0.3	0	0	976.0	NA	0.0000		9999	2400	0	0	0
2019/05/16 22:34:01	BASE	18.19	355	23.20	360	0.3	100	0.3	0	0	976.0	NA	0.0000		9999	1670	0	0	0
2019/05/16 22:35:01	BASE	20.26	358	23.97	2	0.3	100	0.3	0	0	975.8	NA	0.0000		9999	1570	0	0	0
2019/05/16 22:36:01	BASE	21.99	359	25.05	1	0.3	100	0.3	0	0	975.8	NA	0.0000		9999	2030	0	0	0
2019/05/16 22:37:01	BASE	21.55	357	25.05	1	0.3	100	0.3	0	0	975.8	NA	0.0000		9999	1710	0	0	0
2019/05/16 22:38:01	BASE	21.30	0	25.05	1	0.3	100	0.3	0	0	975.7	NA	0.0000		9999	0	0	0	4300
2019/05/16 22:39:01	BASE	20.57	1	25.05	1	0.3	100	0.3	0	0	975.8	NA	0.0000		9999	0	0	0	4460
2019/05/16 22:40:01	BASE	19.33	359	25.05	1	0.4	100	0.4	0	0	975.8	NA	0.0000		9999	3310	0	0	0
2019/05/16 22:41:01	BASE	18.66	357	25.05	1	0.4	100	0.4	0	0	975.9	NA	0.0000		9999	3080	0	0	0
2019/05/16 22:42:01	BASE	19.06	358	25.05	1	0.4	100	0.4	0	0	975.9	NA	0.0000		9999	4130	0	0	0
2019/05/16 22:43:01	BASE	19.94	1	25.05	1	0.4	100	0.4	0	0	975.8	NA	0.0000		9999	2260	0	0	0
2019/05/16 22:44:01	BASE	19.12	359	25.05	1	0.4	100	0.4	0	0	975.9	NA	0.0000		9999	3050	0	0	0
2019/05/16 22:45:01	BASE	18.90	358	25.05	1	0.4	100	0.4	0	0	975.8	NA	0.0000		9999	2690	0	0	0
2019/05/16 22:46:01	BASE	20.02	359	24.28	8	0.4	100	0.4	0	0	975.8	NA	0.0000		9999	2030	0	0	0
2019/05/16 22:47:01	BASE	20.02	358	24.28	8	0.4	100	0.4	0	0	975.9	NA	0.0000		9999	2300	0	0	0
2019/05/16 22:48:01	BASE	17.93	357	24.28	8	0.4	100	0.4	0	0	975.9	NA	0.0000		9999	890	0	0	0
2019/05/16 22:49:01	BASE	16.59	359	24.28	8	0.4	100	0.4	0	0	976.0	NA	0.0000		9999	750	0	0	0
2019/05/16 22:50:01	BASE	15.65	0	24.28	8	0.4	100	0.4	0	0	976.0	NA	0.0000		9999	3870	0	0	0
2019/05/16 22:51:01	BASE	14.88	360	24.28	8	0.4	100	0.4	0	0	976.0	NA	0.0000		9999	4040	0	0	0
2019/05/16 22:52:01	BASE	14.56	358	24.28	8	0.4	100	0.4	0	0	976.0	NA	0.0000		9999	4170	0	0	0
2019/05/16 22:53:01	BASE	14.07	353	24.28	8	0.4	100	0.4	0	0	976.0	NA	0.0000		9999	0	0	0	1150
2019/05/16 22:54:01	BASE	14.67	352	24.28	8	0.4	100	0.4	0	0	976.0	NA	0.0000		9999	4200	0	0	0
2019/05/16 22:55:01	BASE	15.06	358	24.28	8	0.4	100	0.4	0	0	976.0	NA	0.0000		9999	4590	0	0	0
2019/05/16 22:56:01	BASE	14.95	356	21.92	348	0.4	100	0.4	0	0	976.0	NA	0.0000		9999	4860	5410	0	0
2019/05/16 22:57:01	BASE	15.51	348	18.93	360	0.4	100	0.4	0	0	976.0	NA	0.0000		9999	5770	0	0	0
2019/05/16 22:58:01	BASE	15.87	352	18.93	360	0.5	100	0.5	0	0	976.0	NA	0.0000		9999	5740	0	0	0
2019/05/16 22:59:01	BASE	16.87	351	19.55	343	0.5	100	0.5	0	0	976.0	NA	0.0000		9999	0	0	0	4270
2019/05/16 23:00:01	BASE	17.72	344	19.55	343	0.5	100	0.5	0	0	976.0	NA	0.0000		9999	0	0	0	4170
2019/05/16 23:01:01	BASE	18.07	344	19.55	343	0.5	100	0.5	0	0	976.0	NA	0.0000		9999	2100	3410	0	0
2019/05/16 23:02:01	BASE	18.81	345	20.89	342	0.5	100	0.5	0	0	976.0	NA	0.0000		9999	0	0	0	3970
2019/05/16 23:03:01	BASE	17.78	343	20.89	342	0.4	100	0.4	0	0	976.1	NA	0.0000		9999	590	0	0	0
2019/05/16 23:04:01	BASE	17.84	344	20.89	342	0.4	100	0.4	0	0	976.1	NA	0.0000		9999	390	0	0	0
2019/05/16 23:05:01	BASE	17.98	344	20.89	342	0.4	100	0.4	0	0	976.1	NA	0.0000		9999	430	0	0	0
2019/05/16 23:06:01	BASE	17.07	344	20.89	342	0.4	100	0.4	0	0	976.2	NA	0.0000		9999	390	0	0	0
2019/05/16 23:07:01	BASE	16.93	346	20.89	342	0.4	100	0.4	0	0	976.2	NA	0.0000		9999	690	1740	0	0
2019/05/16 23:08:01	BASE	16.02	351	20.89	342	0.4	100	0.4	0	0	976.2	NA	0.0000		9999	330	0	0	0
2019/05/16 23:09:01	BASE	15.17	355	20.89	342	0.4	100	0.4	0	0	976.2	NA	0.0000		9999	330	0	0	0
2019/05/16 23:10:01	BASE	15.60	352	20.89	342	0.3	100	0.3	0	0	976.2	NA	0.0000		9999	300	0	0	0
2019/05/16 23:11:01	BASE	16.31	347	20.89	342	0.3	100	0.3	0	0	976.1	NA	0.0000		9999	360	0	0	0
2019/05/16 23:12:01	BASE	15.82	353	20.83	343	0.3	100	0.3	0	0	976.1	NA	0.0000		9999	460	0	0	0
2019/05/16 23:13:01	BASE	16.39	359	20.83	343	0.3	100	0.3	0	0	976.1	NA	0.0000		9999	390	0	0	0
2019/05/16 23:14:01	BASE	16.23	360	20.83	343	0.3	100	0.3	0	0	976.1	NA	0.0000		9999	330	0	0	0
2019/05/16 23:15:01	BASE	14.86	360	20.83	343	0.3	100	0.3	0	0	976.2	NA	0.0000		9999	300	0	0	0
2019/05/16 23:16:01	BASE	14.32	353	18.83	354	0.3	100	0.3	0	0	976.2	NA	0.0000		9999	0	0	0	2660
2019/05/16 23:17:01	BASE	13.71	352	18.83	354	0.3	100	0.3	0	0	976.2	NA	0.0000		9999	360	0	0	0
2019/05/16 23:18:01	BASE	13.37	358	18.83	354	0.3	100	0.3	0	0	976.2	NA	0.0000		9999	390	0	0	0
2019/05/16 23:19:01	BASE	12.54	358	18.83	354	0.2	100	0.2	0	0	976.2	NA	0.0000		9999	0	0	0	3180
2019/05/16 23:20:00	BASE	11.74	354	18.83	354	0.2	100	0.2	0	0	976.2	NA	0.0000	UP	9999	2620	0	0	0
2019/05/16 23:21:00	BASE	11.85	351	18.83	354	0.2	100	0.2	0	0	976.2	NA	0.0000	UP	9999	0	0	0	4040
2019/05/16 23:22:00	BASE	14.65	352	18.83	354	0.2	100	0.2	0	0	976.1	NA	0.0000	UP	9999	330	0	0	0
2019/05/16 23:23:00	BASE	16.73	350	18.73	354	0.2	100	0.2	0	0	976.1	NA	0.0000	UP	9999	0	0	0	4360
2019/05/16 23:24:01	BASE	15.27	354	18.73	354	0.2	100	0.2	0	0	976.1	NA	0.0000	UP	9999	460	0	0	0
2019/05/16 23:25:01	BASE	13.68	359	18.73	354	0.2	100	0.2	0	0	976.2	NA	0.0000	UP	9999	390	0	0	0
2019/05/16 23:26:01	BASE	13.26	355	18.73	354	0.2	100	0.2	0	0	976.2	NA	0.0000	UP	9999	0	0	0	4400
2019/05/16 23:27:00	BASE	14.16	354	18.73	354	0.1	100	0.1	0	0	976.2	NA	0.0000		9999	0	0	0	4590
2019/05/16 23:28:01	BASE	14.77	357	18.73	354	0.1	100	0.1	0	0	976.1	NA	0.0000		9999	0	0	0	4170
2019/05/16 23:29:00	BASE	14.34	3	18.73	354	0.1	100	0.1	0	0	976.1	NA	0.0000		9999	3080	0	0	0
2019/05/16 23:30:01	BASE	14.51	1	18.73	354	0.1	100	0.1	0	0	976.1	NA	0.0000		9999	2620	0	0	0
2019/05/16 23:31:00	BASE	14.85	353	18.73	354	0.1	100	0.1	0	0	976.1	NA	0.0000		9999	2260	0	0	0
2019/05/16 23:32:01	BASE	14.34	357	17.65	9	0.2	100	0.2	0	0	976.2	NA	0.0000		9999	560	0	0	0
2019/05/16 23:33:00	BASE	13.35	1	17.65	9	0.2	100	0.2	0	0	976.2	NA	0.0000		9999	0	0	0	4270
2019/05/16 23:34:01	BASE	12.49	1	17.65	9	0.2	100	0.2	0	0	976.2	NA	0.0000		9999	0	0	0	4300
2019/05/16 23:35:00	BASE	12.69	2	17.65	9	0.2	100	0.2	0	0	976.2	NA	0.0000		9999	3640	0	0	0
2019/05/16 23:36:01	BASE	12.97	359	17.65	9	0.2	100	0.2	0	0	976.3	NA	0.0000		9999	3580	0	0	0
2019/05/16 23:37:00	BASE	12.36	1	17.65	9	0.2	100	0.2	0	0	976.3	NA	0.0000		9999	2760	0	0	0
2019/05/16 23:38:01	BASE	12.56	3	17.65	9	0.2	100	0.2	0	0	976.3	NA	0.0000		9999	2660	0	0	0
2019/05/16 23:39:01	BASE	14.13	1	17.03	350	0.2	100	0.2	0	0	976.2	NA	0.0000		9999	2920	0	0	0
2019/05/16 23:40:00	BASE	14.85	359	17.03	350	0.2	100	0.2	0	0	976.2	NA	0.0000		9999	2920	0	0	0
2019/05/16 23:41:00	BASE	14.97	1	17.29	1	0.2	100	0.2	0	0	976.2	NA	0.0000		9999	2790	0	0	0
2019/05/16 23:42:01	BASE	14.88	359	17.29	1	0.2	100	0.2	0	0	976.2	NA	0.0000		9999	2590	0	0	0
2019/05/16 23:43:00	BASE	14.88	357	17.29	1	0.2	100	0.2	0	0	976.2	NA	0.0000		9999	2490	0	0	0
2019/05/16 23:44:01	BASE	15.55	360	18.01	360	0.2	100	0.2	0	0	976.2	NA	0.0000		9999	1970	0	0	0
2019/05/16 23:45:00	BASE	16.25	1	18.16	18	0.2	100	0.2	0	0	976.2	NA	0.0000		9999	1840	0	0	0
2019/05/16 23:46:01	BASE	16.87	1	19.34	20	0.2	100	0.2	0	0	976.2	NA	0.0000		9999	460	0	0	0
2019/05/16 23:47:00	BASE	16.37	357	19.34	20	0.3	100	0.3	0	0	976.3	NA	0.0000		9999	460	0	0	0
2019/05/16 23:48:01	BASE	14.64	354	19.34	20	0.3	100	0.3	0	0	976.4	NA	0.0000		9999	790	0	0	0
2019/05/16 23:49:01	BASE	13.85	355	19.34	20	0.3	100	0.3	0	0	976.5	NA	0.0000		9999	0	0	0	3670
2019/05/16 23:50:00	BASE	14.18	349	19.34	20	0.3	100	0.3	0	0	976.4	NA	0.0000		9999	0	0	0	2850
2019/05/16 23:51:00	BASE	14.96	346	19.34	20	0.3	100	0.3	0	0	976.4	NA	0.0000		9999	0	0	0	4070
2019/05/16 23:52:01	BASE	14.36	351	19.34	20	0.3	100	0.3	0	0	976.5	NA	0.0000		9999	2890	0	0	0
2019/05/16 23:53:00	BASE	12.75	355	19.34	20	0.3	100	0.3	0	0	976.4	NA	0.0000		9999	2660	0	0	0
2019/05/16 23:54:01	BASE	13.45	358	19.34	20	0.3	100	0.3	0	0	976.4	NA	0.0000		9999	490	0	0	0
2019/05/16 23:55:00	BASE	14.95	357	19.34	20	0.3	100	0.3	0	0	976.4	NA	0.0000		9999	0	0	0	3020
2019/05/16 23:56:01	BASE	15.52	354	18.01	219	0.3	100	0.3	0	0	976.4	NA	0.0000		9999	430	0	0	0
2019/05/16 23:57:00	BASE	15.72	354	18.01	219	0.3	100	0.3	0	0	976.4	NA	0.0000		9999	0	0	0	3610
2019/05/16 23:58:01	BASE	16.10	349	18.83	341	0.3	100	0.3	0	0	976.4	NA	0.0000		9999	2620	0	0	0
2019/05/16 23:59:00	BASE	17.86	347	22.02	344	0.3	100	0.3	0	0	976.3	NA	0.0000		9999	2890	0	0	0